Darstellungsparameter: Aktuell verwendete Einstellungen:
Skalierung der Graphiken ... ?
xyx+y,   Skalierungsfaktor:      Skalierung: Modus: x, Faktor: 1
Darstellungszeitraum ... ?
Vom - - bis: - -   Zeitraum: 29.01.2006 - 18.02.2006
Min/Max/Avg-Anzeige ... ?
Zeige MMA aktuell
Zeige MMA Monat
Zeige MMA alles
Zeige --A aktuell
Zeige --A Monat
Zeige --A alles
Keine MMA-Anzeige
MMA:
Keine MMA-Graphiken
MMA-Basis: 29.01.2006 - 18.02.2006
Quicknavigation für Darstellung... ?
Tage:      1T, 2T, 3T, 5T -1T -2T -3T -5T +1T +2T +3T +5T
Wochen: 1W, 2W, 3W -1W -2W -3W +1W +2W +3W
Monate: 1M, 3M, 6M -1M -3M -6M +1M +3M +6M
Jahre:    1J, 3J, 5J, 10J -1J -3J -5J -10J +1J +3J +5J +10J
Nutze für die Darstellung ... ?
Originaldaten oder Mittelwerte auf ...
Stundenbasis Tagesbasis Wochenbasis
Monatsbasis Jahresbasis      Datenbasis: Original-Daten
Darstellen als:
Statistik (Auto) Statistik J:M      Darstellung:
Zur Graphik,    zurück zur Übersicht aller Sensoren.
 
Tabellarische Datenbersicht: ?
 
Sensor: Nr:Datum:Temp:Feuchte:Taupunkt:
Aussen-T/F 1 29-01-2006 00:02:11 -6.4 C 80 % -9.27 C
2 29-01-2006 00:12:11 -6.2 C 80 % -9.08 C
3 29-01-2006 00:22:12 -6.4 C 80 % -9.27 C
4 29-01-2006 00:32:11 -6.6 C 80 % -9.47 C
5 29-01-2006 00:42:11 -6.8 C 81 % -9.51 C
6 29-01-2006 00:52:11 -7 C 80 % -9.86 C
7 29-01-2006 01:02:11 -7.2 C 80 % -10.05 C
8 29-01-2006 01:12:11 -7.3 C 81 % -9.99 C
9 29-01-2006 01:22:12 -7.7 C 80 % -10.54 C
10 29-01-2006 01:32:11 -7.9 C 80 % -10.74 C
11 29-01-2006 01:42:11 -7.9 C 80 % -10.74 C
12 29-01-2006 01:52:12 -7.9 C 81 % -10.58 C
13 29-01-2006 02:02:12 -7.9 C 81 % -10.58 C
14 29-01-2006 02:12:12 -7.9 C 81 % -10.58 C
15 29-01-2006 02:22:12 -8 C 81 % -10.68 C
16 29-01-2006 02:32:12 -8.2 C 81 % -10.87 C
17 29-01-2006 02:42:12 -8.3 C 81 % -10.97 C
18 29-01-2006 02:53:14 -8.4 C 81 % -11.07 C
19 29-01-2006 03:03:14 -8.5 C 81 % -11.17 C
20 29-01-2006 03:13:13 -8.6 C 81 % -11.26 C
21 29-01-2006 03:23:13 -8.6 C 81 % -11.26 C
22 29-01-2006 03:33:13 -8.6 C 81 % -11.26 C
23 29-01-2006 03:43:13 -8.3 C 82 % -10.82 C
24 29-01-2006 03:53:13 -8.3 C 82 % -10.82 C
25 29-01-2006 04:03:13 -8.4 C 81 % -11.07 C
Sensor: Nr:Datum:Temp:Feuchte:Taupunkt:
Aussen-T/F 26 29-01-2006 04:13:13 -8.7 C 81 % -11.36 C
27 29-01-2006 04:23:13 -8.9 C 81 % -11.56 C
28 29-01-2006 04:33:13 -9 C 81 % -11.65 C
29 29-01-2006 04:43:13 -9.3 C 81 % -11.95 C
30 29-01-2006 04:53:13 -9.4 C 81 % -12.05 C
31 29-01-2006 05:03:13 -9.7 C 80 % -12.49 C
32 29-01-2006 05:13:13 -9.6 C 80 % -12.4 C
33 29-01-2006 05:23:13 -9.4 C 81 % -12.05 C
34 29-01-2006 05:33:13 -9.4 C 81 % -12.05 C
35 29-01-2006 05:43:13 -9.2 C 81 % -11.85 C
36 29-01-2006 05:53:14 -9.3 C 81 % -11.95 C
37 29-01-2006 06:03:13 -9.8 C 81 % -12.44 C
38 29-01-2006 06:13:13 -10.1 C 80 % -12.88 C
39 29-01-2006 06:23:13 -10.2 C 80 % -12.98 C
40 29-01-2006 06:33:13 -10.4 C 80 % -13.18 C
41 29-01-2006 06:43:13 -10.4 C 80 % -13.18 C
42 29-01-2006 06:53:13 -10.5 C 80 % -13.27 C
43 29-01-2006 07:03:14 -10.5 C 80 % -13.27 C
44 29-01-2006 07:13:14 -10.5 C 80 % -13.27 C
45 29-01-2006 07:23:14 -10.5 C 80 % -13.27 C
46 29-01-2006 07:33:13 -10.6 C 80 % -13.37 C
47 29-01-2006 07:43:13 -10.7 C 80 % -13.47 C
48 29-01-2006 07:53:14 -10.8 C 80 % -13.57 C
49 29-01-2006 08:03:13 -10.9 C 79 % -13.82 C
50 29-01-2006 08:13:13 -10.8 C 79 % -13.72 C
Sensor: Nr:Datum:Temp:Feuchte:Taupunkt:
Aussen-T/F 51 29-01-2006 08:23:13 -10.8 C 79 % -13.72 C
52 29-01-2006 08:33:14 -10.8 C 79 % -13.72 C
53 29-01-2006 08:43:14 -10.6 C 79 % -13.53 C
54 29-01-2006 08:53:13 -10.6 C 79 % -13.53 C
55 29-01-2006 09:03:14 -10.5 C 79 % -13.43 C
56 29-01-2006 09:13:14 -10.4 C 79 % -13.33 C
57 29-01-2006 09:23:14 -10.4 C 79 % -13.33 C
58 29-01-2006 09:33:14 -10.3 C 79 % -13.23 C
59 29-01-2006 09:43:14 -10.3 C 79 % -13.23 C
60 29-01-2006 09:53:14 -10 C 79 % -12.94 C
61 29-01-2006 10:03:14 -9.9 C 79 % -12.84 C
62 29-01-2006 10:13:14 -9.7 C 79 % -12.65 C
63 29-01-2006 10:23:14 -9.6 C 79 % -12.55 C
64 29-01-2006 10:33:14 -9.3 C 79 % -12.26 C
65 29-01-2006 10:43:14 -9 C 79 % -11.97 C
66 29-01-2006 10:53:14 -8.8 C 80 % -11.61 C
67 29-01-2006 11:03:14 -8.5 C 80 % -11.32 C
68 29-01-2006 11:13:14 -8.1 C 80 % -10.93 C
69 29-01-2006 11:23:14 -7.8 C 80 % -10.64 C
70 29-01-2006 11:33:14 -7.3 C 80 % -10.15 C
71 29-01-2006 11:43:14 -6.8 C 81 % -9.51 C
72 29-01-2006 11:53:14 -6.3 C 81 % -9.02 C
73 29-01-2006 12:03:14 -6 C 81 % -8.72 C
74 29-01-2006 12:13:14 -5.6 C 82 % -8.18 C
75 29-01-2006 12:23:14 -5.1 C 82 % -7.69 C
Sensor: Nr:Datum:Temp:Feuchte:Taupunkt:
Aussen-T/F 76 29-01-2006 12:33:14 -4.7 C 82 % -7.3 C
77 29-01-2006 12:43:14 -4.2 C 81 % -6.97 C
78 29-01-2006 12:53:14 -3.7 C 79 % -6.8 C
79 29-01-2006 13:03:14 -3.3 C 77 % -6.75 C
80 29-01-2006 13:13:14 -2.7 C 75 % -6.51 C
81 29-01-2006 13:23:14 -2.4 C 74 % -6.39 C
82 29-01-2006 13:33:14 -1.9 C 72 % -6.27 C
83 29-01-2006 13:43:14 -1.4 C 68 % -6.53 C
84 29-01-2006 13:53:14 -1 C 67 % -6.34 C
85 29-01-2006 14:03:14 -0.5 C 65 % -6.26 C
86 29-01-2006 14:13:14 -0.1 C 62 % -6.5 C
87 29-01-2006 14:23:15 0.1 C 60 % -6.72 C
88 29-01-2006 14:33:15 0.7 C 59 % -6.38 C
89 29-01-2006 14:43:15 0.9 C 58 % -6.41 C
90 29-01-2006 14:53:14 1.1 C 55 % -6.91 C
91 29-01-2006 15:03:14 1.2 C 54 % -7.06 C
92 29-01-2006 15:13:14 1.4 C 55 % -6.63 C
93 29-01-2006 15:23:14 1.4 C 54 % -6.87 C
94 29-01-2006 15:33:14 1.1 C 54 % -7.15 C
95 29-01-2006 15:43:14 1.1 C 54 % -7.15 C
96 29-01-2006 15:53:14 0.6 C 56 % -7.15 C
97 29-01-2006 16:03:14 -0.2 C 55 % -8.14 C
98 29-01-2006 16:13:14 -1.1 C 60 % -7.87 C
99 29-01-2006 16:23:14 -1.4 C 62 % -7.73 C
100 29-01-2006 16:33:16 -1.8 C 63 % -7.9 C
Sensor: Nr:Datum:Temp:Feuchte:Taupunkt:
Aussen-T/F 101 29-01-2006 16:43:16 -2.2 C 64 % -8.08 C
102 29-01-2006 16:53:14 -2.1 C 65 % -7.78 C
103 29-01-2006 17:03:14 -2.3 C 65 % -7.97 C
104 29-01-2006 17:13:14 -2.5 C 67 % -7.78 C
105 29-01-2006 17:23:15 -2.6 C 68 % -7.68 C
106 29-01-2006 17:33:15 -2.8 C 69 % -7.68 C
107 29-01-2006 17:43:15 -3.1 C 70 % -7.79 C
108 29-01-2006 17:53:15 -3.3 C 71 % -7.8 C
109 29-01-2006 18:03:15 -3.4 C 72 % -7.71 C
110 29-01-2006 18:13:15 -3.5 C 73 % -7.63 C
111 29-01-2006 18:23:15 -3.5 C 74 % -7.45 C
112 29-01-2006 18:33:15 -3.7 C 74 % -7.65 C
113 29-01-2006 18:43:15 -3.8 C 75 % -7.57 C
114 29-01-2006 18:53:14 -4 C 75 % -7.77 C
115 29-01-2006 19:03:14 -4.1 C 75 % -7.86 C
116 29-01-2006 19:13:14 -4.2 C 75 % -7.96 C
117 29-01-2006 19:23:14 -4.3 C 75 % -8.06 C
118 29-01-2006 19:33:15 -4.4 C 75 % -8.15 C
119 29-01-2006 19:43:15 -4.6 C 75 % -8.35 C
120 29-01-2006 19:53:14 -4.7 C 76 % -8.27 C
121 29-01-2006 20:03:15 -4.8 C 76 % -8.37 C
122 29-01-2006 20:13:15 -5.2 C 76 % -8.76 C
123 29-01-2006 20:23:15 -5.3 C 76 % -8.86 C
124 29-01-2006 20:33:15 -5.3 C 77 % -8.69 C
125 29-01-2006 20:43:15 -5.5 C 77 % -8.88 C
Sensor: Nr:Datum:Temp:Feuchte:Taupunkt:
Aussen-T/F 126 29-01-2006 20:53:15 -5.7 C 77 % -9.08 C
127 29-01-2006 21:03:15 -5.8 C 77 % -9.17 C
128 29-01-2006 21:13:16 -6 C 77 % -9.37 C
129 29-01-2006 21:23:15 -6.2 C 77 % -9.56 C
130 29-01-2006 21:33:15 -6.2 C 77 % -9.56 C
131 29-01-2006 21:43:15 -6.5 C 77 % -9.85 C
132 29-01-2006 21:53:15 -6.5 C 77 % -9.85 C
133 29-01-2006 22:03:15 -6.6 C 77 % -9.95 C
134 29-01-2006 22:13:15 -6.7 C 78 % -9.89 C
135 29-01-2006 22:23:15 -6.7 C 78 % -9.89 C
136 29-01-2006 22:33:15 -6.6 C 78 % -9.79 C
137 29-01-2006 22:43:15 -6.9 C 78 % -10.08 C
138 29-01-2006 22:53:15 -7 C 78 % -10.18 C
139 29-01-2006 23:03:15 -7.1 C 78 % -10.28 C
140 29-01-2006 23:13:15 -7 C 79 % -10.02 C
141 29-01-2006 23:23:15 -7.1 C 79 % -10.11 C
142 29-01-2006 23:33:15 -7.2 C 79 % -10.21 C
143 29-01-2006 23:43:15 -7.3 C 79 % -10.31 C
144 29-01-2006 23:53:15 -7.4 C 79 % -10.41 C
145 30-01-2006 00:03:15 -7.5 C 79 % -10.5 C
146 30-01-2006 00:13:15 -7.7 C 79 % -10.7 C
147 30-01-2006 00:23:15 -7.8 C 79 % -10.8 C
148 30-01-2006 00:33:15 -8 C 79 % -10.99 C
149 30-01-2006 00:43:15 -8 C 79 % -10.99 C
150 30-01-2006 00:53:16 -8.1 C 79 % -11.09 C
Sensor: Nr:Datum:Temp:Feuchte:Taupunkt:
Aussen-T/F 151 30-01-2006 01:03:15 -8.3 C 79 % -11.28 C
152 30-01-2006 01:13:15 -8.4 C 79 % -11.38 C
153 30-01-2006 01:23:16 -8.6 C 78 % -11.73 C
154 30-01-2006 01:33:15 -8.7 C 78 % -11.83 C
155 30-01-2006 01:43:15 -8.3 C 79 % -11.28 C
156 30-01-2006 01:53:15 -8.4 C 80 % -11.22 C
157 30-01-2006 02:03:15 -8.5 C 80 % -11.32 C
158 30-01-2006 02:13:16 -8.7 C 79 % -11.67 C
159 30-01-2006 02:23:16 -8.9 C 79 % -11.87 C
160 30-01-2006 02:33:16 -9 C 79 % -11.97 C
161 30-01-2006 02:43:16 -8.7 C 79 % -11.67 C
162 30-01-2006 02:54:17 -8.7 C 80 % -11.52 C
163 30-01-2006 03:04:17 -8.7 C 80 % -11.52 C
164 30-01-2006 03:14:17 -9 C 80 % -11.81 C
165 30-01-2006 03:24:17 -9.1 C 80 % -11.91 C
166 30-01-2006 03:34:17 -9.2 C 80 % -12 C
167 30-01-2006 03:44:18 -9.2 C 80 % -12 C
168 30-01-2006 03:54:18 -9.1 C 80 % -11.91 C
169 30-01-2006 04:04:17 -9.3 C 80 % -12.1 C
170 30-01-2006 04:14:17 -9.5 C 80 % -12.3 C
171 30-01-2006 04:24:17 -9.4 C 80 % -12.2 C
172 30-01-2006 04:34:17 -9.6 C 80 % -12.4 C
173 30-01-2006 04:44:18 -9.6 C 80 % -12.4 C
174 30-01-2006 04:54:17 -9.7 C 80 % -12.49 C
175 30-01-2006 05:04:17 -9.6 C 80 % -12.4 C
Sensor: Nr:Datum:Temp:Feuchte:Taupunkt:
Aussen-T/F 176 30-01-2006 05:14:18 -9.5 C 80 % -12.3 C
177 30-01-2006 05:24:17 -9.8 C 80 % -12.59 C
178 30-01-2006 05:34:17 -9.9 C 80 % -12.69 C
179 30-01-2006 05:44:17 -9.8 C 80 % -12.59 C
180 30-01-2006 05:54:17 -10 C 80 % -12.79 C
181 30-01-2006 06:04:17 -10 C 80 % -12.79 C
182 30-01-2006 06:14:17 -9.8 C 80 % -12.59 C
183 30-01-2006 06:24:17 -9.8 C 80 % -12.59 C
184 30-01-2006 06:34:17 -10 C 80 % -12.79 C
185 30-01-2006 06:44:17 -10.1 C 80 % -12.88 C
186 30-01-2006 06:54:17 -10.1 C 80 % -12.88 C
187 30-01-2006 07:04:17 -10.2 C 80 % -12.98 C
188 30-01-2006 07:14:17 -10.4 C 79 % -13.33 C
189 30-01-2006 07:24:17 -10.4 C 79 % -13.33 C
190 30-01-2006 07:34:18 -10.5 C 79 % -13.43 C
191 30-01-2006 07:44:18 -10.5 C 79 % -13.43 C
192 30-01-2006 07:54:17 -10.5 C 79 % -13.43 C
193 30-01-2006 08:04:18 -10.5 C 79 % -13.43 C
194 30-01-2006 08:14:18 -10.5 C 79 % -13.43 C
195 30-01-2006 08:24:18 -10.7 C 79 % -13.62 C
196 30-01-2006 08:34:17 -10.7 C 79 % -13.62 C
197 30-01-2006 08:44:17 -10.7 C 79 % -13.62 C
198 30-01-2006 08:54:17 -10.6 C 79 % -13.53 C
199 30-01-2006 09:04:17 -10.5 C 79 % -13.43 C
200 30-01-2006 09:14:17 -10.4 C 79 % -13.33 C
Sensor: Nr:Datum:Temp:Feuchte:Taupunkt:
Aussen-T/F 201 30-01-2006 09:24:17 -10.2 C 79 % -13.14 C
202 30-01-2006 09:34:18 -10.2 C 78 % -13.29 C
203 30-01-2006 09:44:18 -10 C 78 % -13.1 C
204 30-01-2006 09:54:18 -9.9 C 78 % -13 C
205 30-01-2006 10:04:18 -9.8 C 78 % -12.9 C
206 30-01-2006 10:14:18 -9.6 C 78 % -12.71 C
207 30-01-2006 10:24:18 -9.5 C 78 % -12.61 C
208 30-01-2006 10:34:17 -9.2 C 78 % -12.32 C
209 30-01-2006 10:44:17 -9 C 78 % -12.12 C
210 30-01-2006 10:54:18 -8.5 C 79 % -11.48 C
211 30-01-2006 11:04:17 -8.1 C 79 % -11.09 C
212 30-01-2006 11:14:17 -7.6 C 80 % -10.44 C
213 30-01-2006 11:24:18 -6.9 C 80 % -9.76 C
214 30-01-2006 11:34:18 -6.5 C 80 % -9.37 C
215 30-01-2006 11:44:18 -6.2 C 80 % -9.08 C
216 30-01-2006 11:54:18 -5.9 C 80 % -8.78 C
217 30-01-2006 12:04:17 -5.6 C 80 % -8.49 C
218 30-01-2006 12:14:17 -5.1 C 80 % -8 C
219 30-01-2006 12:24:18 -4.7 C 81 % -7.45 C
220 30-01-2006 12:34:17 -4.1 C 81 % -6.87 C
221 30-01-2006 12:44:17 -3.2 C 80 % -6.15 C
222 30-01-2006 12:54:18 -2.7 C 79 % -5.83 C
223 30-01-2006 13:04:17 -2.1 C 77 % -5.58 C
224 30-01-2006 13:14:17 -1.7 C 75 % -5.54 C
225 30-01-2006 13:24:18 -1.3 C 73 % -5.51 C
Sensor: Nr:Datum:Temp:Feuchte:Taupunkt:
Aussen-T/F 226 30-01-2006 13:34:18 -1 C 71 % -5.58 C
227 30-01-2006 13:44:18 -0.7 C 71 % -5.29 C
228 30-01-2006 13:54:18 -0.4 C 69 % -5.38 C
229 30-01-2006 14:04:18 -0.2 C 69 % -5.19 C
230 30-01-2006 14:14:18 0.2 C 68 % -4.99 C
231 30-01-2006 14:24:18 0.4 C 65 % -5.39 C
232 30-01-2006 14:34:18 0.8 C 65 % -5.01 C
233 30-01-2006 14:44:18 1.3 C 63 % -4.95 C
234 30-01-2006 14:54:18 1.4 C 60 % -5.5 C
235 30-01-2006 15:04:18 1.7 C 60 % -5.21 C
236 30-01-2006 15:14:18 2.1 C 57 % -5.51 C
237 30-01-2006 15:24:19 2.2 C 56 % -5.65 C
238 30-01-2006 15:34:18 2 C 55 % -6.07 C
239 30-01-2006 15:44:18 2 C 56 % -5.84 C
240 30-01-2006 15:54:19 1.8 C 57 % -5.79 C
241 30-01-2006 16:04:18 1.2 C 59 % -5.91 C
242 30-01-2006 16:14:18 0.6 C 61 % -6.04 C
243 30-01-2006 16:24:18 0.2 C 62 % -6.2 C
244 30-01-2006 16:34:18 -0.4 C 65 % -6.16 C
245 30-01-2006 16:44:18 -0.7 C 66 % -6.25 C
246 30-01-2006 16:54:18 -1.1 C 68 % -6.24 C
247 30-01-2006 17:04:18 -1.3 C 70 % -6.06 C
248 30-01-2006 17:14:18 -1.6 C 71 % -6.16 C
249 30-01-2006 17:24:19 -1.9 C 72 % -6.27 C
250 30-01-2006 17:34:18 -2 C 72 % -6.36 C
Sensor: Nr:Datum:Temp:Feuchte:Taupunkt:
Aussen-T/F 251 30-01-2006 17:44:18 -2.1 C 73 % -6.28 C
252 30-01-2006 17:54:18 -2.2 C 74 % -6.2 C
253 30-01-2006 18:04:19 -2.1 C 74 % -6.1 C
254 30-01-2006 18:14:19 -2.3 C 74 % -6.29 C
255 30-01-2006 18:24:18 -2.5 C 75 % -6.31 C
256 30-01-2006 18:34:18 -2.8 C 75 % -6.6 C
257 30-01-2006 18:44:18 -3.1 C 75 % -6.89 C
258 30-01-2006 18:54:19 -3.3 C 75 % -7.09 C
259 30-01-2006 19:04:18 -3.4 C 76 % -7.01 C
260 30-01-2006 19:14:18 -3.5 C 76 % -7.11 C
261 30-01-2006 19:24:18 -3.6 C 77 % -7.04 C
262 30-01-2006 19:34:19 -3.8 C 77 % -7.23 C
263 30-01-2006 19:44:19 -4 C 77 % -7.43 C
264 30-01-2006 19:54:18 -4.1 C 78 % -7.36 C
265 30-01-2006 20:04:19 -4.4 C 77 % -7.81 C
266 30-01-2006 20:14:19 -4.4 C 78 % -7.65 C
267 30-01-2006 20:24:19 -4.4 C 79 % -7.48 C
268 30-01-2006 20:34:19 -4.5 C 79 % -7.58 C
269 30-01-2006 20:44:19 -4.5 C 79 % -7.58 C
270 30-01-2006 20:54:19 -4.8 C 79 % -7.87 C
271 30-01-2006 21:04:19 -4.9 C 79 % -7.97 C
272 30-01-2006 21:14:19 -4.8 C 80 % -7.71 C
273 30-01-2006 21:24:19 -4.8 C 81 % -7.55 C
274 30-01-2006 21:34:19 -4.8 C 81 % -7.55 C
275 30-01-2006 21:44:19 -5 C 81 % -7.75 C
Sensor: Nr:Datum:Temp:Feuchte:Taupunkt:
Aussen-T/F 276 30-01-2006 21:54:18 -5.2 C 81 % -7.94 C
277 30-01-2006 22:04:19 -5.4 C 81 % -8.14 C
278 30-01-2006 22:14:19 -5.6 C 81 % -8.33 C
279 30-01-2006 22:24:19 -5.6 C 81 % -8.33 C
280 30-01-2006 22:34:19 -5.7 C 81 % -8.43 C
281 30-01-2006 22:44:19 -5.7 C 81 % -8.43 C
282 30-01-2006 22:54:19 -5.7 C 81 % -8.43 C
283 30-01-2006 23:04:19 -5.9 C 81 % -8.63 C
284 30-01-2006 23:14:19 -5.9 C 81 % -8.63 C
285 30-01-2006 23:24:19 -6.1 C 81 % -8.82 C
286 30-01-2006 23:34:19 -5.9 C 82 % -8.47 C
287 30-01-2006 23:44:19 -6 C 82 % -8.57 C
288 30-01-2006 23:54:19 -6 C 82 % -8.57 C
289 31-01-2006 00:04:19 -6.4 C 82 % -8.96 C
290 31-01-2006 00:14:19 -6.6 C 82 % -9.15 C
291 31-01-2006 00:24:19 -6.6 C 82 % -9.15 C
292 31-01-2006 00:34:20 -6.7 C 82 % -9.25 C
293 31-01-2006 00:44:20 -6.8 C 82 % -9.35 C
294 31-01-2006 00:54:19 -6.9 C 82 % -9.45 C
295 31-01-2006 01:04:19 -6.9 C 82 % -9.45 C
296 31-01-2006 01:14:19 -6.8 C 82 % -9.35 C
297 31-01-2006 01:24:20 -6.8 C 82 % -9.35 C
298 31-01-2006 01:34:19 -7 C 82 % -9.55 C
299 31-01-2006 01:44:19 -7.1 C 82 % -9.64 C
300 31-01-2006 01:54:19 -7.1 C 82 % -9.64 C
Sensor: Nr:Datum:Temp:Feuchte:Taupunkt:
Aussen-T/F 301 31-01-2006 02:04:20 -7.1 C 82 % -9.64 C
302 31-01-2006 02:14:20 -7.1 C 82 % -9.64 C
303 31-01-2006 02:24:19 -6.9 C 83 % -9.29 C
304 31-01-2006 02:34:19 -6.5 C 84 % -8.75 C
305 31-01-2006 02:44:20 -6.1 C 84 % -8.36 C
306 31-01-2006 02:55:21 -5.7 C 85 % -7.81 C
307 31-01-2006 03:05:21 -5.4 C 86 % -7.37 C
308 31-01-2006 03:15:21 -5 C 86 % -6.97 C
309 31-01-2006 03:25:21 -4.7 C 86 % -6.68 C
310 31-01-2006 03:35:21 -4.6 C 86 % -6.58 C
311 31-01-2006 03:45:21 -4.7 C 86 % -6.68 C
312 31-01-2006 03:55:21 -4.6 C 86 % -6.58 C
313 31-01-2006 04:05:21 -4.6 C 86 % -6.58 C
314 31-01-2006 04:15:21 -4.5 C 86 % -6.48 C
315 31-01-2006 04:25:21 -4.4 C 86 % -6.38 C
316 31-01-2006 04:35:22 -4.4 C 86 % -6.38 C
317 31-01-2006 04:45:21 -4.3 C 86 % -6.28 C
318 31-01-2006 04:55:21 -4.2 C 86 % -6.19 C
319 31-01-2006 05:05:21 -4.1 C 86 % -6.09 C
320 31-01-2006 05:15:21 -4 C 86 % -5.99 C
321 31-01-2006 05:25:21 -4 C 86 % -5.99 C
322 31-01-2006 05:35:21 -3.9 C 86 % -5.89 C
323 31-01-2006 05:45:21 -3.9 C 86 % -5.89 C
324 31-01-2006 05:55:21 -4 C 86 % -5.99 C
325 31-01-2006 06:05:21 -3.9 C 86 % -5.89 C
Sensor: Nr:Datum:Temp:Feuchte:Taupunkt:
Aussen-T/F 326 31-01-2006 06:15:21 -3.9 C 86 % -5.89 C
327 31-01-2006 06:25:22 -3.8 C 86 % -5.79 C
328 31-01-2006 06:35:21 -3.7 C 86 % -5.69 C
329 31-01-2006 06:45:22 -3.7 C 86 % -5.69 C
330 31-01-2006 06:55:22 -3.7 C 86 % -5.69 C
331 31-01-2006 07:05:21 -3.7 C 86 % -5.69 C
332 31-01-2006 07:15:21 -3.6 C 86 % -5.6 C
333 31-01-2006 07:25:22 -3.6 C 86 % -5.6 C
334 31-01-2006 07:35:22 -3.6 C 86 % -5.6 C
335 31-01-2006 07:45:21 -3.5 C 86 % -5.5 C
336 31-01-2006 07:55:21 -3.5 C 86 % -5.5 C
337 31-01-2006 08:05:21 -3.4 C 86 % -5.4 C
338 31-01-2006 08:15:21 -3.4 C 86 % -5.4 C
339 31-01-2006 08:25:21 -3.4 C 86 % -5.4 C
340 31-01-2006 08:35:22 -3.4 C 86 % -5.4 C
341 31-01-2006 08:45:21 -3.3 C 86 % -5.3 C
342 31-01-2006 08:55:21 -3.3 C 86 % -5.3 C
343 31-01-2006 09:05:22 -3.3 C 86 % -5.3 C
344 31-01-2006 09:15:21 -3.3 C 86 % -5.3 C
345 31-01-2006 09:25:21 -3.3 C 85 % -5.45 C
346 31-01-2006 09:35:21 -3.3 C 85 % -5.45 C
347 31-01-2006 09:45:21 -3.1 C 85 % -5.26 C
348 31-01-2006 09:55:22 -3.2 C 84 % -5.51 C
349 31-01-2006 10:05:21 -3.1 C 84 % -5.41 C
350 31-01-2006 10:15:21 -3.1 C 83 % -5.57 C
Sensor: Nr:Datum:Temp:Feuchte:Taupunkt:
Aussen-T/F 351 31-01-2006 10:25:21 -3.1 C 83 % -5.57 C
352 31-01-2006 10:35:22 -2.9 C 83 % -5.38 C
353 31-01-2006 10:45:21 -2.7 C 82 % -5.34 C
354 31-01-2006 10:55:21 -2.7 C 82 % -5.34 C
355 31-01-2006 11:05:21 -2.6 C 82 % -5.24 C
356 31-01-2006 11:15:21 -2.6 C 81 % -5.4 C
357 31-01-2006 11:25:21 -2.5 C 81 % -5.31 C
358 31-01-2006 11:35:22 -2.5 C 80 % -5.47 C
359 31-01-2006 11:45:21 -2.4 C 80 % -5.37 C
360 31-01-2006 11:55:21 -2.2 C 79 % -5.34 C
361 31-01-2006 12:05:22 -2.3 C 78 % -5.61 C
362 31-01-2006 12:15:22 -2.3 C 77 % -5.78 C
363 31-01-2006 12:25:22 -2.4 C 77 % -5.87 C
364 31-01-2006 12:35:22 -2.1 C 78 % -5.41 C
365 31-01-2006 12:45:22 -1.8 C 77 % -5.29 C
366 31-01-2006 12:55:22 -1.6 C 77 % -5.1 C
367 31-01-2006 13:05:22 -1.5 C 75 % -5.34 C
368 31-01-2006 13:15:21 -1.6 C 74 % -5.62 C
369 31-01-2006 13:25:21 -1.6 C 73 % -5.8 C
370 31-01-2006 13:35:22 -1.4 C 74 % -5.42 C
371 31-01-2006 13:45:21 -1.4 C 74 % -5.42 C
372 31-01-2006 13:55:21 -1.2 C 74 % -5.23 C
373 31-01-2006 14:05:22 -1.3 C 74 % -5.33 C
374 31-01-2006 14:15:22 -1.3 C 73 % -5.51 C
375 31-01-2006 14:25:22 -1 C 73 % -5.22 C
Sensor: Nr:Datum:Temp:Feuchte:Taupunkt:
Aussen-T/F 376 31-01-2006 14:35:22 -0.7 C 73 % -4.93 C
377 31-01-2006 14:45:22 -0.7 C 72 % -5.11 C
378 31-01-2006 14:55:22 -0.7 C 72 % -5.11 C
379 31-01-2006 15:05:22 -0.9 C 72 % -5.3 C
380 31-01-2006 15:15:22 -1.3 C 72 % -5.69 C
381 31-01-2006 15:25:22 -0.9 C 73 % -5.12 C
382 31-01-2006 15:35:22 -0.9 C 73 % -5.12 C
383 31-01-2006 15:45:22 -0.9 C 73 % -5.12 C
384 31-01-2006 15:55:22 -1.2 C 74 % -5.23 C
385 31-01-2006 16:05:22 -1.1 C 74 % -5.13 C
386 31-01-2006 16:15:22 -1.2 C 74 % -5.23 C
387 31-01-2006 16:25:22 -1.3 C 74 % -5.33 C
388 31-01-2006 16:35:22 -1.3 C 75 % -5.15 C
389 31-01-2006 16:45:22 -1.4 C 76 % -5.07 C
390 31-01-2006 16:55:22 -1.3 C 76 % -4.98 C
391 31-01-2006 17:05:22 -1.6 C 76 % -5.27 C
392 31-01-2006 17:15:22 -1.8 C 77 % -5.29 C
393 31-01-2006 17:25:22 -1.9 C 78 % -5.22 C
394 31-01-2006 17:35:22 -2 C 78 % -5.31 C
395 31-01-2006 17:45:23 -2 C 79 % -5.15 C
396 31-01-2006 17:55:23 -2 C 79 % -5.15 C
397 31-01-2006 18:05:22 -2.1 C 79 % -5.24 C
398 31-01-2006 18:15:22 -2.1 C 79 % -5.24 C
399 31-01-2006 18:25:22 -2.4 C 79 % -5.54 C
400 31-01-2006 18:35:22 -2.5 C 79 % -5.63 C
Sensor: Nr:Datum:Temp:Feuchte:Taupunkt:
Aussen-T/F 401 31-01-2006 18:45:22 -2.5 C 80 % -5.47 C
402 31-01-2006 18:55:22 -2.4 C 80 % -5.37 C
403 31-01-2006 19:05:22 -2.5 C 80 % -5.47 C
404 31-01-2006 19:15:22 -2.5 C 81 % -5.31 C
405 31-01-2006 19:25:22 -2.4 C 81 % -5.21 C
406 31-01-2006 19:35:22 -2.5 C 81 % -5.31 C
407 31-01-2006 19:45:22 -2.4 C 82 % -5.05 C
408 31-01-2006 19:55:22 -2.5 C 82 % -5.14 C
409 31-01-2006 20:05:23 -2.5 C 82 % -5.14 C
410 31-01-2006 20:15:22 -2.5 C 82 % -5.14 C
411 31-01-2006 20:25:22 -2.5 C 82 % -5.14 C
412 31-01-2006 20:35:23 -2.5 C 82 % -5.14 C
413 31-01-2006 20:45:22 -2.5 C 82 % -5.14 C
414 31-01-2006 20:55:22 -2.6 C 82 % -5.24 C
415 31-01-2006 21:05:23 -2.7 C 82 % -5.34 C
416 31-01-2006 21:15:23 -2.8 C 82 % -5.44 C
417 31-01-2006 21:25:23 -3 C 82 % -5.63 C
418 31-01-2006 21:35:23 -3.1 C 82 % -5.73 C
419 31-01-2006 21:45:23 -3.3 C 82 % -5.93 C
420 31-01-2006 21:55:23 -3.3 C 82 % -5.93 C
421 31-01-2006 22:05:23 -3.3 C 81 % -6.09 C
422 31-01-2006 22:15:23 -3.4 C 80 % -6.35 C
423 31-01-2006 22:25:23 -3.5 C 80 % -6.44 C
424 31-01-2006 22:35:22 -3.5 C 80 % -6.44 C
425 31-01-2006 22:45:23 -3.5 C 80 % -6.44 C
Sensor: Nr:Datum:Temp:Feuchte:Taupunkt:
Aussen-T/F 426 31-01-2006 22:55:23 -3.7 C 80 % -6.64 C
427 31-01-2006 23:05:22 -3.9 C 79 % -7 C
428 31-01-2006 23:15:23 -4 C 78 % -7.26 C
429 31-01-2006 23:25:23 -4 C 79 % -7.09 C
430 31-01-2006 23:35:23 -4.1 C 79 % -7.19 C
431 31-01-2006 23:45:23 -4.1 C 79 % -7.19 C
432 31-01-2006 23:55:23 -4.2 C 80 % -7.13 C
433 01-02-2006 00:05:23 -4.6 C 80 % -7.52 C
434 01-02-2006 00:15:24 -4.9 C 80 % -7.81 C
435 01-02-2006 00:25:24 -4.8 C 79 % -7.87 C
436 01-02-2006 00:35:23 -4.8 C 78 % -8.04 C
437 01-02-2006 00:45:23 -4.9 C 78 % -8.13 C
438 01-02-2006 00:55:23 -4.8 C 79 % -7.87 C
439 01-02-2006 01:05:23 -4.8 C 78 % -8.04 C
440 01-02-2006 01:15:23 -4.8 C 78 % -8.04 C
441 01-02-2006 01:25:24 -4.9 C 79 % -7.97 C
442 01-02-2006 01:35:23 -4.8 C 80 % -7.71 C
443 01-02-2006 01:45:23 -5 C 81 % -7.75 C
444 01-02-2006 01:55:23 -5.1 C 81 % -7.84 C
445 01-02-2006 02:05:23 -5.3 C 82 % -7.88 C
446 01-02-2006 02:15:24 -5.3 C 82 % -7.88 C
447 01-02-2006 02:25:24 -5.5 C 82 % -8.08 C
448 01-02-2006 02:35:24 -5.8 C 82 % -8.37 C
449 01-02-2006 02:46:25 -5.6 C 82 % -8.18 C
450 01-02-2006 02:56:25 -5.8 C 82 % -8.37 C
Sensor: Nr:Datum:Temp:Feuchte:Taupunkt:
Aussen-T/F 451 01-02-2006 03:06:26 -5.6 C 81 % -8.33 C
452 01-02-2006 03:16:25 -5.6 C 81 % -8.33 C
453 01-02-2006 03:26:25 -5.5 C 80 % -8.39 C
454 01-02-2006 03:36:24 -5.8 C 80 % -8.69 C
455 01-02-2006 03:46:24 -6.1 C 80 % -8.98 C
456 01-02-2006 03:56:24 -6.1 C 81 % -8.82 C
457 01-02-2006 04:06:24 -6.1 C 82 % -8.66 C
458 01-02-2006 04:16:25 -6.4 C 82 % -8.96 C
459 01-02-2006 04:26:25 -6.5 C 82 % -9.06 C
460 01-02-2006 04:36:25 -6.7 C 82 % -9.25 C
461 01-02-2006 04:46:25 -6.7 C 83 % -9.1 C
462 01-02-2006 04:56:25 -6.7 C 83 % -9.1 C
463 01-02-2006 05:06:25 -6.9 C 83 % -9.29 C
464 01-02-2006 05:16:25 -6.9 C 83 % -9.29 C
465 01-02-2006 05:26:25 -7 C 83 % -9.39 C
466 01-02-2006 05:36:25 -7.3 C 83 % -9.69 C
467 01-02-2006 05:46:25 -7.2 C 83 % -9.59 C
468 01-02-2006 05:56:25 -7.2 C 82 % -9.74 C
469 01-02-2006 06:06:25 -7.2 C 82 % -9.74 C
470 01-02-2006 06:16:25 -7.3 C 81 % -9.99 C
471 01-02-2006 06:26:25 -7.3 C 80 % -10.15 C
472 01-02-2006 06:36:25 -7.3 C 80 % -10.15 C
473 01-02-2006 06:46:25 -7.6 C 78 % -10.76 C
474 01-02-2006 06:56:25 -7.5 C 78 % -10.66 C
475 01-02-2006 07:06:25 -7.6 C 77 % -10.92 C
Sensor: Nr:Datum:Temp:Feuchte:Taupunkt:
Aussen-T/F 476 01-02-2006 07:16:25 -7.8 C 77 % -11.12 C
477 01-02-2006 07:26:25 -8.1 C 77 % -11.41 C
478 01-02-2006 07:36:25 -8.1 C 77 % -11.41 C
479 01-02-2006 07:46:25 -8.1 C 77 % -11.41 C
480 01-02-2006 07:56:25 -8.4 C 77 % -11.7 C
481 01-02-2006 08:06:26 -8.6 C 77 % -11.9 C
482 01-02-2006 08:16:25 -8.9 C 77 % -12.19 C
483 01-02-2006 08:26:25 -9.2 C 77 % -12.48 C
484 01-02-2006 08:36:25 -9.4 C 76 % -12.83 C
485 01-02-2006 08:46:25 -9.6 C 76 % -13.03 C
486 01-02-2006 08:56:25 -9.8 C 75 % -13.38 C
487 01-02-2006 09:06:25 -9.8 C 74 % -13.55 C
488 01-02-2006 09:16:25 -9.9 C 74 % -13.65 C
489 01-02-2006 09:26:25 -9.8 C 74 % -13.55 C
490 01-02-2006 09:36:26 -9.8 C 74 % -13.55 C
491 01-02-2006 09:46:26 -9.6 C 73 % -13.52 C
492 01-02-2006 09:56:26 -9.6 C 73 % -13.52 C
493 01-02-2006 10:06:26 -9.5 C 73 % -13.43 C
494 01-02-2006 10:16:25 -9.4 C 73 % -13.33 C
495 01-02-2006 10:26:26 -9.3 C 73 % -13.23 C
496 01-02-2006 10:36:25 -9.1 C 73 % -13.04 C
497 01-02-2006 10:46:25 -9 C 73 % -12.94 C
498 01-02-2006 10:56:25 -8.6 C 74 % -12.39 C
499 01-02-2006 11:06:25 -8.3 C 74 % -12.1 C
500 01-02-2006 11:16:26 -8 C 74 % -11.81 C
Sensor: Nr:Datum:Temp:Feuchte:Taupunkt:
Aussen-T/F 501 01-02-2006 11:26:26 -7.6 C 74 % -11.42 C
502 01-02-2006 11:36:26 -7.3 C 74 % -11.13 C
503 01-02-2006 11:46:26 -6.9 C 75 % -10.57 C
504 01-02-2006 11:56:26 -6.4 C 74 % -10.26 C
505 01-02-2006 12:06:26 -6.1 C 74 % -9.97 C
506 01-02-2006 12:16:26 -5.3 C 75 % -9.02 C
507 01-02-2006 12:26:26 -4.9 C 74 % -8.81 C
508 01-02-2006 12:36:25 -4.5 C 74 % -8.42 C
509 01-02-2006 12:46:26 -3.9 C 73 % -8.02 C
510 01-02-2006 12:56:26 -3.3 C 73 % -7.44 C
511 01-02-2006 13:06:26 -2.9 C 71 % -7.41 C
512 01-02-2006 13:16:26 -2.5 C 70 % -7.21 C
513 01-02-2006 13:26:26 -2.1 C 69 % -7.01 C
514 01-02-2006 13:36:25 -1.6 C 67 % -6.91 C
515 01-02-2006 13:46:26 -1.3 C 66 % -6.82 C
516 01-02-2006 13:56:26 -0.7 C 65 % -6.45 C
517 01-02-2006 14:06:25 -0.4 C 64 % -6.37 C
518 01-02-2006 14:16:26 -0.1 C 62 % -6.5 C
519 01-02-2006 14:26:26 -0.1 C 61 % -6.71 C
520 01-02-2006 14:36:26 0.1 C 62 % -6.3 C
521 01-02-2006 14:46:26 0.3 C 61 % -6.32 C
522 01-02-2006 14:56:26 0.4 C 61 % -6.23 C
523 01-02-2006 15:06:26 0.5 C 61 % -6.13 C
524 01-02-2006 15:16:26 0.5 C 61 % -6.13 C
525 01-02-2006 15:26:26 0.6 C 62 % -5.82 C
Sensor: Nr:Datum:Temp:Feuchte:Taupunkt:
Aussen-T/F 526 01-02-2006 15:36:26 0.3 C 62 % -6.11 C
527 01-02-2006 15:46:25 0.6 C 63 % -5.61 C
528 01-02-2006 15:56:25 0.2 C 62 % -6.2 C
529 01-02-2006 16:06:26 -0.2 C 64 % -6.18 C
530 01-02-2006 16:16:26 -0.9 C 66 % -6.44 C
531 01-02-2006 16:26:26 -1.2 C 68 % -6.34 C
532 01-02-2006 16:36:26 -1.8 C 71 % -6.35 C
533 01-02-2006 16:46:26 -2 C 72 % -6.36 C
534 01-02-2006 16:56:26 -2.3 C 74 % -6.29 C
535 01-02-2006 17:06:26 -2.5 C 76 % -6.14 C
536 01-02-2006 17:16:26 -2.7 C 77 % -6.16 C
537 01-02-2006 17:26:26 -2.9 C 77 % -6.36 C
538 01-02-2006 17:36:26 -3.1 C 78 % -6.38 C
539 01-02-2006 17:46:26 -3.4 C 79 % -6.51 C
540 01-02-2006 17:56:26 -3.7 C 79 % -6.8 C
541 01-02-2006 18:06:26 -3.9 C 80 % -6.83 C
542 01-02-2006 18:16:26 -3.9 C 80 % -6.83 C
543 01-02-2006 18:26:27 -4.1 C 80 % -7.03 C
544 01-02-2006 18:36:26 -4.1 C 81 % -6.87 C
545 01-02-2006 18:46:26 -4.4 C 81 % -7.16 C
546 01-02-2006 18:56:26 -4.6 C 81 % -7.36 C
547 01-02-2006 19:06:26 -4.8 C 81 % -7.55 C
548 01-02-2006 19:16:27 -4.9 C 81 % -7.65 C
549 01-02-2006 19:26:27 -5.1 C 81 % -7.84 C
550 01-02-2006 19:36:26 -5.1 C 82 % -7.69 C
Sensor: Nr:Datum:Temp:Feuchte:Taupunkt:
Aussen-T/F 551 01-02-2006 19:46:27 -5.3 C 82 % -7.88 C
552 01-02-2006 19:56:27 -5.5 C 81 % -8.24 C
553 01-02-2006 20:06:29 -5.4 C 82 % -7.98 C
554 01-02-2006 20:16:27 -5.5 C 82 % -8.08 C
555 01-02-2006 20:26:27 -5.5 C 82 % -8.08 C
556 01-02-2006 20:36:27 -5.6 C 82 % -8.18 C
557 01-02-2006 20:46:26 -5.8 C 82 % -8.37 C
558 01-02-2006 20:56:26 -5.9 C 82 % -8.47 C
559 01-02-2006 21:06:27 -6.1 C 82 % -8.66 C
560 01-02-2006 21:16:26 -6.2 C 82 % -8.76 C
561 01-02-2006 21:26:26 -6.2 C 82 % -8.76 C
562 01-02-2006 21:36:27 -6.2 C 82 % -8.76 C
563 01-02-2006 21:46:27 -6.4 C 82 % -8.96 C
564 01-02-2006 21:56:27 -6.5 C 82 % -9.06 C
565 01-02-2006 22:06:27 -6.8 C 82 % -9.35 C
566 01-02-2006 22:16:26 -6.9 C 82 % -9.45 C
567 01-02-2006 22:26:26 -6.8 C 82 % -9.35 C
568 01-02-2006 22:36:27 -7 C 82 % -9.55 C
569 01-02-2006 22:46:26 -7 C 82 % -9.55 C
570 01-02-2006 22:56:26 -7.1 C 82 % -9.64 C
571 01-02-2006 23:06:27 -7.2 C 82 % -9.74 C
572 01-02-2006 23:16:27 -7.2 C 82 % -9.74 C
573 01-02-2006 23:26:27 -7.4 C 82 % -9.94 C
574 01-02-2006 23:36:27 -7.5 C 82 % -10.03 C
575 01-02-2006 23:46:26 -7.6 C 82 % -10.13 C
Sensor: Nr:Datum:Temp:Feuchte:Taupunkt:
Aussen-T/F 576 01-02-2006 23:56:26 -7.7 C 82 % -10.23 C
577 02-02-2006 00:06:27 -7.8 C 82 % -10.33 C
578 02-02-2006 00:16:27 -7.9 C 81 % -10.58 C
579 02-02-2006 00:26:27 -8 C 81 % -10.68 C
580 02-02-2006 00:36:27 -8 C 81 % -10.68 C
581 02-02-2006 00:46:27 -8.1 C 81 % -10.78 C
582 02-02-2006 00:56:27 -8.1 C 81 % -10.78 C
583 02-02-2006 01:06:27 -8.1 C 81 % -10.78 C
584 02-02-2006 01:16:27 -8.1 C 81 % -10.78 C
585 02-02-2006 01:26:27 -8.2 C 81 % -10.87 C
586 02-02-2006 01:36:28 -8.3 C 81 % -10.97 C
587 02-02-2006 01:46:27 -8.5 C 81 % -11.17 C
588 02-02-2006 01:56:27 -8.5 C 81 % -11.17 C
589 02-02-2006 02:06:28 -8.6 C 81 % -11.26 C
590 02-02-2006 02:16:27 -8.4 C 81 % -11.07 C
591 02-02-2006 02:26:27 -8.6 C 81 % -11.26 C
592 02-02-2006 02:36:27 -8.7 C 81 % -11.36 C
593 02-02-2006 02:47:28 -8.9 C 80 % -11.71 C
594 02-02-2006 02:57:28 -9 C 80 % -11.81 C
595 02-02-2006 03:07:28 -9.2 C 80 % -12 C
596 02-02-2006 03:17:28 -9.2 C 80 % -12 C
597 02-02-2006 03:27:28 -9.2 C 80 % -12 C
598 02-02-2006 03:37:28 -9.3 C 80 % -12.1 C
599 02-02-2006 03:47:28 -9.4 C 80 % -12.2 C
600 02-02-2006 03:57:28 -9.5 C 80 % -12.3 C
Sensor: Nr:Datum:Temp:Feuchte:Taupunkt:
Aussen-T/F 601 02-02-2006 04:07:28 -9.6 C 80 % -12.4 C
602 02-02-2006 04:17:28 -9.6 C 80 % -12.4 C
603 02-02-2006 04:27:28 -9.6 C 80 % -12.4 C
604 02-02-2006 04:37:28 -9.8 C 79 % -12.75 C
605 02-02-2006 04:47:28 -9.8 C 79 % -12.75 C
606 02-02-2006 04:57:28 -9.9 C 79 % -12.84 C
607 02-02-2006 05:07:29 -9.9 C 79 % -12.84 C
608 02-02-2006 05:17:29 -9.8 C 79 % -12.75 C
609 02-02-2006 05:27:29 -9.7 C 79 % -12.65 C
610 02-02-2006 05:37:28 -9.7 C 79 % -12.65 C
611 02-02-2006 05:47:28 -9.7 C 79 % -12.65 C
612 02-02-2006 05:57:28 -9.7 C 79 % -12.65 C
613 02-02-2006 06:07:28 -10 C 79 % -12.94 C
614 02-02-2006 06:17:29 -10.2 C 79 % -13.14 C
615 02-02-2006 06:27:29 -10.3 C 79 % -13.23 C
616 02-02-2006 06:37:29 -10.4 C 78 % -13.49 C
617 02-02-2006 06:47:29 -10.4 C 78 % -13.49 C
618 02-02-2006 06:57:29 -10.6 C 78 % -13.68 C
619 02-02-2006 07:07:46 -10.6 C 78 % -13.68 C
620 02-02-2006 07:17:29 -10.4 C 78 % -13.49 C
621 02-02-2006 07:27:30 -10.5 C 78 % -13.58 C
622 02-02-2006 07:37:28 -10.4 C 78 % -13.49 C
623 02-02-2006 07:47:29 -10.6 C 78 % -13.68 C
624 02-02-2006 07:57:29 -10.7 C 77 % -13.94 C
625 02-02-2006 08:07:29 -10.7 C 77 % -13.94 C
Sensor: Nr:Datum:Temp:Feuchte:Taupunkt:
Aussen-T/F 626 02-02-2006 08:17:28 -10.6 C 77 % -13.84 C
627 02-02-2006 08:27:28 -10.4 C 78 % -13.49 C
628 02-02-2006 08:37:28 -10.3 C 77 % -13.55 C
629 02-02-2006 08:47:28 -10.4 C 77 % -13.64 C
630 02-02-2006 08:57:28 -10.4 C 77 % -13.64 C
631 02-02-2006 09:07:28 -10 C 77 % -13.26 C
632 02-02-2006 09:17:29 -9.6 C 77 % -12.87 C
633 02-02-2006 09:27:29 -9.1 C 78 % -12.22 C
634 02-02-2006 09:37:29 -8.6 C 77 % -11.9 C
635 02-02-2006 09:47:29 -8.4 C 75 % -12.03 C
636 02-02-2006 09:57:29 -8.1 C 73 % -12.07 C
637 02-02-2006 10:07:29 -7.9 C 72 % -12.05 C
638 02-02-2006 10:17:28 -7.7 C 72 % -11.86 C
639 02-02-2006 10:27:28 -7.2 C 73 % -11.2 C
640 02-02-2006 10:37:29 -6.7 C 73 % -10.72 C
641 02-02-2006 10:47:28 -6.1 C 74 % -9.97 C
642 02-02-2006 10:57:28 -5.8 C 75 % -9.51 C
643 02-02-2006 11:07:29 -5.5 C 75 % -9.22 C
644 02-02-2006 11:17:29 -5.2 C 75 % -8.93 C
645 02-02-2006 11:27:29 -4.8 C 75 % -8.54 C
646 02-02-2006 11:37:29 -4.5 C 75 % -8.25 C
647 02-02-2006 11:47:29 -4.5 C 74 % -8.42 C
648 02-02-2006 11:57:30 -4.3 C 74 % -8.23 C
649 02-02-2006 12:07:29 -3.9 C 73 % -8.02 C
650 02-02-2006 12:17:28 -4 C 73 % -8.11 C
Sensor: Nr:Datum:Temp:Feuchte:Taupunkt:
Aussen-T/F 651 02-02-2006 12:27:28 -3.9 C 72 % -8.19 C
652 02-02-2006 12:37:29 -3.8 C 72 % -8.1 C
653 02-02-2006 12:47:29 -3.8 C 71 % -8.28 C
654 02-02-2006 12:57:29 -3.5 C 71 % -7.99 C
655 02-02-2006 13:07:29 -3.5 C 70 % -8.17 C
656 02-02-2006 13:17:29 -3.4 C 70 % -8.07 C
657 02-02-2006 13:27:29 -3.5 C 70 % -8.17 C
658 02-02-2006 13:37:29 -3.3 C 70 % -7.98 C
659 02-02-2006 13:47:29 -3.4 C 69 % -8.26 C
660 02-02-2006 13:57:29 -3.3 C 69 % -8.16 C
661 02-02-2006 14:07:30 -3.3 C 69 % -8.16 C
662 02-02-2006 14:17:29 -3.1 C 70 % -7.79 C
663 02-02-2006 14:27:29 -3.1 C 69 % -7.97 C
664 02-02-2006 14:37:29 -3.1 C 69 % -7.97 C
665 02-02-2006 14:47:29 -3.2 C 69 % -8.07 C
666 02-02-2006 14:57:29 -3.2 C 70 % -7.88 C
667 02-02-2006 15:07:29 -2.9 C 71 % -7.41 C
668 02-02-2006 15:17:29 -2.9 C 70 % -7.59 C
669 02-02-2006 15:27:29 -3.1 C 71 % -7.6 C
670 02-02-2006 15:37:30 -3.1 C 72 % -7.42 C
671 02-02-2006 15:47:30 -3 C 73 % -7.15 C
672 02-02-2006 15:57:30 -3.2 C 73 % -7.34 C
673 02-02-2006 16:07:29 -3.2 C 74 % -7.16 C
674 02-02-2006 16:17:29 -3.2 C 75 % -6.99 C
675 02-02-2006 16:27:29 -3.2 C 75 % -6.99 C
Sensor: Nr:Datum:Temp:Feuchte:Taupunkt:
Aussen-T/F 676 02-02-2006 16:37:29 -3.3 C 76 % -6.92 C
677 02-02-2006 16:47:29 -3.3 C 76 % -6.92 C
678 02-02-2006 16:57:29 -3.3 C 77 % -6.75 C
679 02-02-2006 17:07:30 -3.3 C 77 % -6.75 C
680 02-02-2006 17:17:30 -3.2 C 78 % -6.48 C
681 02-02-2006 17:27:30 -3.2 C 78 % -6.48 C
682 02-02-2006 17:37:30 -3.2 C 79 % -6.32 C
683 02-02-2006 17:47:29 -3.2 C 79 % -6.32 C
684 02-02-2006 17:57:29 -3.2 C 79 % -6.32 C
685 02-02-2006 18:07:30 -3.2 C 80 % -6.15 C
686 02-02-2006 18:17:30 -3.2 C 80 % -6.15 C
687 02-02-2006 18:27:31 -3.1 C 80 % -6.05 C
688 02-02-2006 18:37:30 -3.2 C 80 % -6.15 C
689 02-02-2006 18:47:29 -3.3 C 80 % -6.25 C
690 02-02-2006 18:57:29 -3.3 C 80 % -6.25 C
691 02-02-2006 19:07:29 -3.3 C 80 % -6.25 C
692 02-02-2006 19:17:30 -3.3 C 80 % -6.25 C
693 02-02-2006 19:27:30 -3.3 C 80 % -6.25 C
694 02-02-2006 19:37:30 -3.5 C 80 % -6.44 C
695 02-02-2006 19:47:30 -3.6 C 80 % -6.54 C
696 02-02-2006 19:57:30 -3.6 C 80 % -6.54 C
697 02-02-2006 20:07:30 -3.6 C 80 % -6.54 C
698 02-02-2006 20:17:30 -3.6 C 80 % -6.54 C
699 02-02-2006 20:27:30 -3.7 C 79 % -6.8 C
700 02-02-2006 20:37:30 -3.8 C 80 % -6.74 C
Sensor: Nr:Datum:Temp:Feuchte:Taupunkt:
Aussen-T/F 701 02-02-2006 20:47:29 -3.8 C 80 % -6.74 C
702 02-02-2006 20:57:29 -3.8 C 80 % -6.74 C
703 02-02-2006 21:07:30 -3.8 C 80 % -6.74 C
704 02-02-2006 21:17:30 -3.8 C 80 % -6.74 C
705 02-02-2006 21:27:30 -3.9 C 79 % -7 C
706 02-02-2006 21:37:30 -4 C 79 % -7.09 C
707 02-02-2006 21:47:29 -3.9 C 79 % -7 C
708 02-02-2006 21:57:29 -4 C 79 % -7.09 C
709 02-02-2006 22:07:30 -4.1 C 79 % -7.19 C
710 02-02-2006 22:17:30 -4.1 C 79 % -7.19 C
711 02-02-2006 22:27:31 -4.1 C 79 % -7.19 C
712 02-02-2006 22:37:30 -4 C 79 % -7.09 C
713 02-02-2006 22:47:30 -4 C 79 % -7.09 C
714 02-02-2006 22:57:30 -4 C 79 % -7.09 C
715 02-02-2006 23:07:30 -4.1 C 79 % -7.19 C
716 02-02-2006 23:17:30 -4 C 79 % -7.09 C
717 02-02-2006 23:27:30 -4.1 C 79 % -7.19 C
718 02-02-2006 23:37:30 -4.1 C 79 % -7.19 C
719 02-02-2006 23:47:30 -4.1 C 79 % -7.19 C
720 02-02-2006 23:57:30 -4.1 C 79 % -7.19 C
721 03-02-2006 00:07:30 -4.2 C 78 % -7.45 C
722 03-02-2006 00:17:31 -4.3 C 78 % -7.55 C
723 03-02-2006 00:27:31 -4.4 C 78 % -7.65 C
724 03-02-2006 00:37:30 -4.4 C 78 % -7.65 C
725 03-02-2006 00:47:31 -4.5 C 78 % -7.75 C
Sensor: Nr:Datum:Temp:Feuchte:Taupunkt:
Aussen-T/F 726 03-02-2006 00:57:31 -4.4 C 78 % -7.65 C
727 03-02-2006 01:07:30 -4.5 C 78 % -7.75 C
728 03-02-2006 01:17:30 -4.5 C 78 % -7.75 C
729 03-02-2006 01:27:30 -4.5 C 78 % -7.75 C
730 03-02-2006 01:37:30 -4.4 C 78 % -7.65 C
731 03-02-2006 01:47:31 -4.5 C 78 % -7.75 C
732 03-02-2006 01:57:31 -4.5 C 78 % -7.75 C
733 03-02-2006 02:07:31 -4.5 C 78 % -7.75 C
734 03-02-2006 02:17:31 -4.5 C 78 % -7.75 C
735 03-02-2006 02:27:31 -4.4 C 78 % -7.65 C
736 03-02-2006 02:37:31 -4.5 C 78 % -7.75 C
737 03-02-2006 02:48:32 -4.5 C 78 % -7.75 C
738 03-02-2006 02:58:32 -4.5 C 78 % -7.75 C
739 03-02-2006 03:08:32 -4.5 C 78 % -7.75 C
740 03-02-2006 03:18:32 -4.5 C 78 % -7.75 C
741 03-02-2006 03:28:32 -4.5 C 78 % -7.75 C
742 03-02-2006 03:38:32 -4.5 C 78 % -7.75 C
743 03-02-2006 03:48:32 -4.5 C 78 % -7.75 C
744 03-02-2006 03:58:32 -4.5 C 78 % -7.75 C
745 03-02-2006 04:08:32 -4.5 C 77 % -7.91 C
746 03-02-2006 04:18:32 -4.6 C 77 % -8.01 C
747 03-02-2006 04:28:32 -4.6 C 77 % -8.01 C
748 03-02-2006 04:38:32 -4.5 C 77 % -7.91 C
749 03-02-2006 04:48:32 -4.5 C 77 % -7.91 C
750 03-02-2006 04:58:32 -4.5 C 77 % -7.91 C
Sensor: Nr:Datum:Temp:Feuchte:Taupunkt:
Aussen-T/F 751 03-02-2006 05:08:32 -4.6 C 77 % -8.01 C
752 03-02-2006 05:18:32 -4.6 C 77 % -8.01 C
753 03-02-2006 05:28:32 -4.5 C 77 % -7.91 C
754 03-02-2006 05:38:32 -4.6 C 77 % -8.01 C
755 03-02-2006 05:48:32 -4.6 C 77 % -8.01 C
756 03-02-2006 05:58:32 -4.6 C 77 % -8.01 C
757 03-02-2006 06:08:33 -4.6 C 76 % -8.18 C
758 03-02-2006 06:18:32 -4.8 C 76 % -8.37 C
759 03-02-2006 06:28:32 -4.7 C 76 % -8.27 C
760 03-02-2006 06:38:32 -4.7 C 76 % -8.27 C
761 03-02-2006 06:48:32 -4.7 C 76 % -8.27 C
762 03-02-2006 06:58:32 -4.8 C 76 % -8.37 C
763 03-02-2006 07:08:32 -4.8 C 76 % -8.37 C
764 03-02-2006 07:18:32 -4.7 C 76 % -8.27 C
765 03-02-2006 07:28:32 -4.9 C 76 % -8.47 C
766 03-02-2006 07:38:32 -4.8 C 76 % -8.37 C
767 03-02-2006 07:48:33 -4.9 C 75 % -8.64 C
768 03-02-2006 07:58:33 -4.8 C 76 % -8.37 C
769 03-02-2006 08:08:32 -4.8 C 76 % -8.37 C
770 03-02-2006 08:18:32 -4.8 C 75 % -8.54 C
771 03-02-2006 08:28:32 -4.8 C 76 % -8.37 C
772 03-02-2006 08:38:33 -4.8 C 76 % -8.37 C
773 03-02-2006 08:48:32 -4.8 C 75 % -8.54 C
774 03-02-2006 08:58:32 -4.8 C 75 % -8.54 C
775 03-02-2006 09:08:33 -4.7 C 75 % -8.44 C
Sensor: Nr:Datum:Temp:Feuchte:Taupunkt:
Aussen-T/F 776 03-02-2006 09:18:33 -4.7 C 74 % -8.62 C
777 03-02-2006 09:28:33 -4.7 C 74 % -8.62 C
778 03-02-2006 09:38:32 -4.7 C 74 % -8.62 C
779 03-02-2006 09:48:33 -4.6 C 73 % -8.69 C
780 03-02-2006 09:58:33 -4.6 C 73 % -8.69 C
781 03-02-2006 10:08:33 -4.6 C 72 % -8.87 C
782 03-02-2006 10:18:32 -4.5 C 72 % -8.77 C
783 03-02-2006 10:28:32 -4.4 C 72 % -8.68 C
784 03-02-2006 10:38:32 -4.4 C 71 % -8.85 C
785 03-02-2006 10:48:32 -4.4 C 71 % -8.85 C
786 03-02-2006 10:58:32 -4.2 C 70 % -8.84 C
787 03-02-2006 11:08:33 -4.1 C 70 % -8.75 C
788 03-02-2006 11:18:33 -4.1 C 69 % -8.93 C
789 03-02-2006 11:28:33 -4.1 C 67 % -9.31 C
790 03-02-2006 11:38:33 -3.9 C 67 % -9.11 C
791 03-02-2006 11:48:33 -3.8 C 67 % -9.02 C
792 03-02-2006 11:58:33 -4.1 C 66 % -9.5 C
793 03-02-2006 12:08:33 -4 C 66 % -9.4 C
794 03-02-2006 12:18:32 -3.8 C 65 % -9.4 C
795 03-02-2006 12:28:32 -3.5 C 65 % -9.12 C
796 03-02-2006 12:38:33 -3.7 C 63 % -9.71 C
797 03-02-2006 12:48:33 -3.9 C 63 % -9.9 C
798 03-02-2006 12:58:33 -3.7 C 63 % -9.71 C
799 03-02-2006 13:08:33 -3.4 C 63 % -9.42 C
800 03-02-2006 13:18:33 -3.4 C 62 % -9.62 C
Sensor: Nr:Datum:Temp:Feuchte:Taupunkt:
Aussen-T/F 801 03-02-2006 13:28:33 -3.2 C 62 % -9.43 C
802 03-02-2006 13:38:33 -3.3 C 62 % -9.53 C
803 03-02-2006 13:48:33 -3.7 C 63 % -9.71 C
804 03-02-2006 13:58:33 -3.6 C 64 % -9.41 C
805 03-02-2006 14:08:33 -3.5 C 65 % -9.12 C
806 03-02-2006 14:18:33 -3.2 C 65 % -8.83 C
807 03-02-2006 14:28:33 -3 C 65 % -8.64 C
808 03-02-2006 14:38:33 -2.6 C 65 % -8.26 C
809 03-02-2006 14:48:34 -2.5 C 65 % -8.16 C
810 03-02-2006 14:58:34 -2.4 C 65 % -8.07 C
811 03-02-2006 15:08:34 -2.3 C 65 % -7.97 C
812 03-02-2006 15:18:33 -2.3 C 65 % -7.97 C
813 03-02-2006 15:28:33 -2.4 C 65 % -8.07 C
814 03-02-2006 15:38:34 -2.5 C 65 % -8.16 C
815 03-02-2006 15:48:33 -2.6 C 65 % -8.26 C
816 03-02-2006 15:58:33 -2.6 C 66 % -8.06 C
817 03-02-2006 16:08:33 -2.6 C 67 % -7.87 C
818 03-02-2006 16:18:33 -2.7 C 67 % -7.97 C
819 03-02-2006 16:28:33 -2.7 C 67 % -7.97 C
820 03-02-2006 16:38:34 -2.8 C 67 % -8.06 C
821 03-02-2006 16:48:33 -2.9 C 68 % -7.97 C
822 03-02-2006 16:58:33 -3.1 C 68 % -8.16 C
823 03-02-2006 17:08:34 -3.2 C 70 % -7.88 C
824 03-02-2006 17:18:33 -3.2 C 70 % -7.88 C
825 03-02-2006 17:28:33 -3.3 C 71 % -7.8 C
Sensor: Nr:Datum:Temp:Feuchte:Taupunkt:
Aussen-T/F 826 03-02-2006 17:38:33 -3.4 C 71 % -7.89 C
827 03-02-2006 17:48:34 -3.5 C 72 % -7.81 C
828 03-02-2006 17:58:34 -3.6 C 73 % -7.73 C
829 03-02-2006 18:08:33 -3.5 C 73 % -7.63 C
830 03-02-2006 18:18:34 -3.5 C 74 % -7.45 C
831 03-02-2006 18:28:34 -3.5 C 74 % -7.45 C
832 03-02-2006 18:38:33 -3.5 C 74 % -7.45 C
833 03-02-2006 18:48:33 -3.5 C 75 % -7.28 C
834 03-02-2006 18:58:33 -3.5 C 75 % -7.28 C
835 03-02-2006 19:08:34 -3.4 C 75 % -7.18 C
836 03-02-2006 19:18:34 -3.4 C 75 % -7.18 C
837 03-02-2006 19:28:34 -3.3 C 75 % -7.09 C
838 03-02-2006 19:38:34 -3.2 C 76 % -6.82 C
839 03-02-2006 19:48:33 -3.2 C 76 % -6.82 C
840 03-02-2006 19:58:33 -3.2 C 76 % -6.82 C
841 03-02-2006 20:08:34 -3.1 C 76 % -6.72 C
842 03-02-2006 20:18:34 -3.1 C 76 % -6.72 C
843 03-02-2006 20:28:34 -3.1 C 76 % -6.72 C
844 03-02-2006 20:38:34 -3 C 76 % -6.63 C
845 03-02-2006 20:48:34 -3 C 76 % -6.63 C
846 03-02-2006 20:58:34 -3.1 C 76 % -6.72 C
847 03-02-2006 21:08:33 -3 C 76 % -6.63 C
848 03-02-2006 21:18:33 -3 C 76 % -6.63 C
849 03-02-2006 21:28:33 -2.9 C 76 % -6.53 C
850 03-02-2006 21:38:34 -2.7 C 76 % -6.33 C
Sensor: Nr:Datum:Temp:Feuchte:Taupunkt:
Aussen-T/F 851 03-02-2006 21:48:33 -2.7 C 76 % -6.33 C
852 03-02-2006 21:58:33 -2.8 C 76 % -6.43 C
853 03-02-2006 22:08:34 -2.7 C 77 % -6.16 C
854 03-02-2006 22:18:34 -2.7 C 77 % -6.16 C
855 03-02-2006 22:28:34 -2.7 C 77 % -6.16 C
856 03-02-2006 22:38:34 -2.7 C 77 % -6.16 C
857 03-02-2006 22:48:34 -2.7 C 77 % -6.16 C
858 03-02-2006 22:58:34 -2.7 C 77 % -6.16 C
859 03-02-2006 23:08:34 -2.7 C 78 % -5.99 C
860 03-02-2006 23:18:34 -2.8 C 78 % -6.09 C
861 03-02-2006 23:28:34 -2.8 C 78 % -6.09 C
862 03-02-2006 23:38:34 -2.7 C 78 % -5.99 C
863 03-02-2006 23:48:34 -2.7 C 78 % -5.99 C
864 03-02-2006 23:58:34 -2.6 C 78 % -5.9 C
865 04-02-2006 00:08:34 -2.6 C 78 % -5.9 C
866 04-02-2006 00:18:34 -2.6 C 78 % -5.9 C
867 04-02-2006 00:28:34 -2.6 C 78 % -5.9 C
868 04-02-2006 00:38:35 -2.6 C 78 % -5.9 C
869 04-02-2006 00:48:35 -2.6 C 78 % -5.9 C
870 04-02-2006 00:58:35 -2.6 C 78 % -5.9 C
871 04-02-2006 01:08:34 -2.7 C 78 % -5.99 C
872 04-02-2006 01:18:35 -2.6 C 78 % -5.9 C
873 04-02-2006 01:28:35 -2.6 C 78 % -5.9 C
874 04-02-2006 01:38:34 -2.5 C 78 % -5.8 C
875 04-02-2006 01:48:35 -2.5 C 78 % -5.8 C
Sensor: Nr:Datum:Temp:Feuchte:Taupunkt:
Aussen-T/F 876 04-02-2006 01:58:35 -2.4 C 78 % -5.7 C
877 04-02-2006 02:08:34 -2.5 C 78 % -5.8 C
878 04-02-2006 02:18:34 -2.4 C 78 % -5.7 C
879 04-02-2006 02:28:34 -2.4 C 78 % -5.7 C
880 04-02-2006 02:38:34 -2.3 C 78 % -5.61 C
881 04-02-2006 02:49:36 -2.3 C 78 % -5.61 C
882 04-02-2006 02:59:37 -2.4 C 78 % -5.7 C
883 04-02-2006 03:09:37 -2.4 C 78 % -5.7 C
884 04-02-2006 03:19:36 -2.4 C 78 % -5.7 C
885 04-02-2006 03:29:36 -2.3 C 78 % -5.61 C
886 04-02-2006 03:39:36 -2.3 C 78 % -5.61 C
887 04-02-2006 03:49:36 -2.3 C 78 % -5.61 C
888 04-02-2006 03:59:36 -2.2 C 78 % -5.51 C
889 04-02-2006 04:09:35 -2.2 C 78 % -5.51 C
890 04-02-2006 04:19:36 -2.2 C 78 % -5.51 C
891 04-02-2006 04:29:36 -2.1 C 78 % -5.41 C
892 04-02-2006 04:39:36 -2.1 C 79 % -5.24 C
893 04-02-2006 04:49:36 -2.1 C 79 % -5.24 C
894 04-02-2006 04:59:36 -2 C 79 % -5.15 C
895 04-02-2006 05:09:36 -2 C 79 % -5.15 C
896 04-02-2006 05:19:36 -2 C 79 % -5.15 C
897 04-02-2006 05:29:36 -2 C 79 % -5.15 C
898 04-02-2006 05:39:36 -1.9 C 79 % -5.05 C
899 04-02-2006 05:49:36 -1.9 C 80 % -4.88 C
900 04-02-2006 05:59:36 -2 C 80 % -4.98 C
Sensor: Nr:Datum:Temp:Feuchte:Taupunkt:
Aussen-T/F 901 04-02-2006 06:09:36 -1.9 C 81 % -4.72 C
902 04-02-2006 06:19:36 -1.9 C 81 % -4.72 C
903 04-02-2006 06:29:37 -1.8 C 81 % -4.62 C
904 04-02-2006 06:39:36 -1.8 C 81 % -4.62 C
905 04-02-2006 06:49:36 -1.8 C 81 % -4.62 C
906 04-02-2006 06:59:36 -1.8 C 81 % -4.62 C
907 04-02-2006 07:09:36 -1.9 C 81 % -4.72 C
908 04-02-2006 07:19:37 -1.9 C 81 % -4.72 C
909 04-02-2006 07:29:37 -1.8 C 81 % -4.62 C
910 04-02-2006 07:39:36 -1.8 C 82 % -4.46 C
911 04-02-2006 07:49:36 -1.8 C 82 % -4.46 C
912 04-02-2006 07:59:36 -1.8 C 82 % -4.46 C
913 04-02-2006 08:09:36 -1.8 C 82 % -4.46 C
914 04-02-2006 08:19:36 -1.7 C 82 % -4.36 C
915 04-02-2006 08:29:36 -1.7 C 82 % -4.36 C
916 04-02-2006 08:39:37 -1.6 C 82 % -4.26 C
917 04-02-2006 08:49:36 -1.5 C 83 % -4 C
918 04-02-2006 08:59:36 -1.4 C 83 % -3.91 C
919 04-02-2006 09:09:37 -1.3 C 82 % -3.97 C
920 04-02-2006 09:19:36 -1.3 C 82 % -3.97 C
921 04-02-2006 09:29:36 -1.3 C 81 % -4.13 C
922 04-02-2006 09:39:36 -1.2 C 81 % -4.04 C
923 04-02-2006 09:49:37 -1.2 C 80 % -4.2 C
924 04-02-2006 09:59:37 -1.2 C 80 % -4.2 C
925 04-02-2006 10:09:36 -1.2 C 80 % -4.2 C
Sensor: Nr:Datum:Temp:Feuchte:Taupunkt:
Aussen-T/F 926 04-02-2006 10:19:37 -1.2 C 80 % -4.2 C
927 04-02-2006 10:29:37 -1.2 C 81 % -4.04 C
928 04-02-2006 10:39:37 -1.1 C 81 % -3.94 C
929 04-02-2006 10:49:37 -1.2 C 80 % -4.2 C
930 04-02-2006 10:59:38 -1.1 C 80 % -4.1 C
931 04-02-2006 11:09:37 -1.1 C 80 % -4.1 C
932 04-02-2006 11:19:37 -1 C 79 % -4.17 C
933 04-02-2006 11:29:37 -0.7 C 78 % -4.05 C
934 04-02-2006 11:39:37 -0.6 C 78 % -3.95 C
935 04-02-2006 11:49:36 -0.4 C 77 % -3.93 C
936 04-02-2006 11:59:36 -0.3 C 77 % -3.83 C
937 04-02-2006 12:09:36 -0.3 C 76 % -4.01 C
938 04-02-2006 12:19:37 -0.2 C 76 % -3.91 C
939 04-02-2006 12:29:37 -0.2 C 75 % -4.09 C
940 04-02-2006 12:39:37 -0.3 C 75 % -4.18 C
941 04-02-2006 12:49:36 -0.3 C 74 % -4.36 C
942 04-02-2006 12:59:36 -0.2 C 74 % -4.26 C
943 04-02-2006 13:09:37 -0.2 C 74 % -4.26 C
944 04-02-2006 13:19:37 0.1 C 74 % -3.97 C
945 04-02-2006 13:29:37 0.1 C 72 % -4.33 C
946 04-02-2006 13:39:37 0.3 C 73 % -3.96 C
947 04-02-2006 13:49:37 -0.1 C 71 % -4.72 C
948 04-02-2006 13:59:37 -0.2 C 72 % -4.63 C
949 04-02-2006 14:09:37 0 C 72 % -4.43 C
950 04-02-2006 14:19:36 0.4 C 72 % -4.04 C
Sensor: Nr:Datum:Temp:Feuchte:Taupunkt:
Aussen-T/F 951 04-02-2006 14:29:36 0.5 C 72 % -3.95 C
952 04-02-2006 14:39:37 0.7 C 71 % -3.94 C
953 04-02-2006 14:49:36 0.7 C 70 % -4.13 C
954 04-02-2006 14:59:36 0.8 C 71 % -3.85 C
955 04-02-2006 15:09:37 0.9 C 71 % -3.75 C
956 04-02-2006 15:19:37 1 C 70 % -3.84 C
957 04-02-2006 15:29:38 1.1 C 71 % -3.56 C
958 04-02-2006 15:39:37 1 C 70 % -3.84 C
959 04-02-2006 15:49:37 0.8 C 71 % -3.85 C
960 04-02-2006 15:59:37 0.6 C 72 % -3.85 C
961 04-02-2006 16:09:37 0.7 C 73 % -3.57 C
962 04-02-2006 16:19:37 0.6 C 73 % -3.67 C
963 04-02-2006 16:29:37 0.5 C 74 % -3.58 C
964 04-02-2006 16:39:37 0.5 C 74 % -3.58 C
965 04-02-2006 16:49:37 0.3 C 75 % -3.6 C
966 04-02-2006 16:59:38 0.3 C 75 % -3.6 C
967 04-02-2006 17:09:37 0.2 C 76 % -3.52 C
968 04-02-2006 17:19:37 0.2 C 76 % -3.52 C
969 04-02-2006 17:29:37 0.2 C 77 % -3.34 C
970 04-02-2006 17:39:38 0.2 C 77 % -3.34 C
971 04-02-2006 17:49:37 0.2 C 77 % -3.34 C
972 04-02-2006 17:59:37 0.2 C 78 % -3.17 C
973 04-02-2006 18:09:37 0.2 C 78 % -3.17 C
974 04-02-2006 18:19:37 0.2 C 79 % -3 C
975 04-02-2006 18:29:37 0.1 C 79 % -3.1 C
Sensor: Nr:Datum:Temp:Feuchte:Taupunkt:
Aussen-T/F 976 04-02-2006 18:39:37 0.1 C 79 % -3.1 C
977 04-02-2006 18:49:38 0.2 C 80 % -2.83 C
978 04-02-2006 18:59:38 0.2 C 80 % -2.83 C
979 04-02-2006 19:09:38 0.2 C 80 % -2.83 C
980 04-02-2006 19:19:37 0.1 C 80 % -2.93 C
981 04-02-2006 19:29:37 0 C 81 % -2.86 C
982 04-02-2006 19:39:37 0 C 82 % -2.7 C
983 04-02-2006 19:49:37 0 C 83 % -2.53 C
984 04-02-2006 19:59:37 -0.1 C 84 % -2.47 C
985 04-02-2006 20:09:37 -0.1 C 84 % -2.47 C
986 04-02-2006 20:19:38 0 C 85 % -2.21 C
987 04-02-2006 20:29:38 0 C 85 % -2.21 C
988 04-02-2006 20:39:38 0 C 85 % -2.21 C
989 04-02-2006 20:49:38 0 C 85 % -2.21 C
990 04-02-2006 20:59:38 0 C 85 % -2.21 C
991 04-02-2006 21:09:38 0 C 85 % -2.21 C
992 04-02-2006 21:19:37 0 C 85 % -2.21 C
993 04-02-2006 21:29:37 0 C 85 % -2.21 C
994 04-02-2006 21:39:37 0 C 86 % -2.05 C
995 04-02-2006 21:49:37 0 C 86 % -2.05 C
996 04-02-2006 21:59:37 0 C 86 % -2.05 C
997 04-02-2006 22:09:38 0 C 86 % -2.05 C
998 04-02-2006 22:19:38 -0.1 C 86 % -2.16 C
999 04-02-2006 22:29:38 -0.1 C 86 % -2.16 C
1000 04-02-2006 22:39:38 -0.1 C 86 % -2.16 C
Sensor: Nr:Datum:Temp:Feuchte:Taupunkt:
Aussen-T/F 1001 04-02-2006 22:49:38 -0.1 C 86 % -2.16 C
1002 04-02-2006 22:59:39 -0.1 C 86 % -2.16 C
1003 04-02-2006 23:09:38 -0.1 C 86 % -2.16 C
1004 04-02-2006 23:19:37 -0.1 C 86 % -2.16 C
1005 04-02-2006 23:29:37 -0.1 C 86 % -2.16 C
1006 04-02-2006 23:39:38 -0.1 C 86 % -2.16 C
1007 04-02-2006 23:49:37 0 C 86 % -2.05 C
1008 04-02-2006 23:59:37 -0.1 C 86 % -2.16 C
1009 05-02-2006 00:09:38 -0.2 C 86 % -2.25 C
1010 05-02-2006 00:19:38 -0.4 C 86 % -2.45 C
1011 05-02-2006 00:29:38 -0.5 C 86 % -2.55 C
1012 05-02-2006 00:39:38 -0.8 C 86 % -2.84 C
1013 05-02-2006 00:49:38 -1 C 86 % -3.04 C
1014 05-02-2006 00:59:38 -1 C 86 % -3.04 C
1015 05-02-2006 01:09:38 -1 C 86 % -3.04 C
1016 05-02-2006 01:19:38 -1 C 87 % -2.88 C
1017 05-02-2006 01:29:38 -0.9 C 87 % -2.79 C
1018 05-02-2006 01:39:38 -1.1 C 87 % -2.98 C
1019 05-02-2006 01:49:38 -1.5 C 86 % -3.53 C
1020 05-02-2006 01:59:38 -1.7 C 86 % -3.73 C
1021 05-02-2006 02:09:38 -1.8 C 86 % -3.83 C
1022 05-02-2006 02:19:38 -2.2 C 86 % -4.22 C
1023 05-02-2006 02:29:38 -2.3 C 86 % -4.32 C
1024 05-02-2006 02:39:38 -2.4 C 86 % -4.42 C
1025 05-02-2006 02:50:40 -2.6 C 86 % -4.61 C
Sensor: Nr:Datum:Temp:Feuchte:Taupunkt:
Aussen-T/F 1026 05-02-2006 03:00:40 -2.6 C 86 % -4.61 C
1027 05-02-2006 03:10:40 -2.9 C 86 % -4.91 C
1028 05-02-2006 03:20:40 -3 C 86 % -5.01 C
1029 05-02-2006 03:30:40 -3.2 C 86 % -5.2 C
1030 05-02-2006 03:40:40 -3.3 C 86 % -5.3 C
1031 05-02-2006 03:50:40 -2.9 C 87 % -4.76 C
1032 05-02-2006 04:00:40 -2.7 C 87 % -4.56 C
1033 05-02-2006 04:10:40 -2.7 C 88 % -4.41 C
1034 05-02-2006 04:20:40 -2.5 C 88 % -4.21 C
1035 05-02-2006 04:30:40 -2.5 C 88 % -4.21 C
1036 05-02-2006 04:40:40 -2.4 C 89 % -3.96 C
1037 05-02-2006 04:50:40 -2.3 C 89 % -3.86 C
1038 05-02-2006 05:00:40 -2.2 C 89 % -3.76 C
1039 05-02-2006 05:10:40 -2.2 C 89 % -3.76 C
1040 05-02-2006 05:20:40 -2.3 C 89 % -3.86 C
1041 05-02-2006 05:30:41 -2.5 C 88 % -4.21 C
1042 05-02-2006 05:40:40 -2.6 C 88 % -4.31 C
1043 05-02-2006 05:50:40 -2.6 C 88 % -4.31 C
1044 05-02-2006 06:00:41 -2.5 C 88 % -4.21 C
1045 05-02-2006 06:10:40 -2.5 C 88 % -4.21 C
1046 05-02-2006 06:20:40 -2.4 C 88 % -4.11 C
1047 05-02-2006 06:30:40 -2.4 C 88 % -4.11 C
1048 05-02-2006 06:40:40 -2.5 C 88 % -4.21 C
1049 05-02-2006 06:50:40 -2.4 C 88 % -4.11 C
1050 05-02-2006 07:00:40 -2.4 C 88 % -4.11 C
Sensor: Nr:Datum:Temp:Feuchte:Taupunkt:
Aussen-T/F 1051 05-02-2006 07:10:40 -2.3 C 88 % -4.01 C
1052 05-02-2006 07:20:40 -2.3 C 87 % -4.16 C
1053 05-02-2006 07:30:40 -2.4 C 87 % -4.26 C
1054 05-02-2006 07:40:40 -2.4 C 86 % -4.42 C
1055 05-02-2006 07:50:40 -2.4 C 86 % -4.42 C
1056 05-02-2006 08:00:40 -2.3 C 86 % -4.32 C
1057 05-02-2006 08:10:40 -2.2 C 86 % -4.22 C
1058 05-02-2006 08:20:41 -2 C 86 % -4.02 C
1059 05-02-2006 08:30:41 -1.9 C 86 % -3.92 C
1060 05-02-2006 08:40:40 -1.9 C 86 % -3.92 C
1061 05-02-2006 08:50:41 -1.8 C 86 % -3.83 C
1062 05-02-2006 09:00:41 -1.6 C 86 % -3.63 C
1063 05-02-2006 09:10:40 -1.6 C 85 % -3.79 C
1064 05-02-2006 09:20:40 -1.5 C 85 % -3.69 C
1065 05-02-2006 09:30:40 -1.4 C 84 % -3.75 C
1066 05-02-2006 09:40:41 -1.3 C 83 % -3.81 C
1067 05-02-2006 09:50:40 -1.1 C 83 % -3.61 C
1068 05-02-2006 10:00:40 -1 C 82 % -3.68 C
1069 05-02-2006 10:10:41 -0.8 C 82 % -3.48 C
1070 05-02-2006 10:20:41 -0.6 C 80 % -3.62 C
1071 05-02-2006 10:30:41 -0.4 C 79 % -3.59 C
1072 05-02-2006 10:40:40 -0.2 C 77 % -3.74 C
1073 05-02-2006 10:50:40 0 C 76 % -3.71 C
1074 05-02-2006 11:00:40 -0.1 C 76 % -3.81 C
1075 05-02-2006 11:10:40 0 C 75 % -3.89 C
Sensor: Nr:Datum:Temp:Feuchte:Taupunkt:
Aussen-T/F 1076 05-02-2006 11:20:41 0.3 C 76 % -3.42 C
1077 05-02-2006 11:30:41 0.6 C 74 % -3.49 C
1078 05-02-2006 11:40:41 0.8 C 73 % -3.48 C
1079 05-02-2006 11:50:57 1 C 72 % -3.47 C
1080 05-02-2006 12:00:41 1.4 C 71 % -3.27 C
1081 05-02-2006 12:10:41 1.4 C 71 % -3.27 C
1082 05-02-2006 12:20:41 1.5 C 70 % -3.36 C
1083 05-02-2006 12:30:41 1.3 C 70 % -3.55 C
1084 05-02-2006 12:40:40 1.2 C 70 % -3.65 C
1085 05-02-2006 12:50:41 1.1 C 70 % -3.75 C
1086 05-02-2006 13:00:41 1.2 C 70 % -3.65 C
1087 05-02-2006 13:10:42 1.3 C 70 % -3.55 C
1088 05-02-2006 13:20:40 1.5 C 68 % -3.75 C
1089 05-02-2006 13:30:40 1.6 C 67 % -3.85 C
1090 05-02-2006 13:40:41 1.6 C 66 % -4.05 C
1091 05-02-2006 13:50:41 1.6 C 65 % -4.25 C
1092 05-02-2006 14:00:41 1.8 C 65 % -4.06 C
1093 05-02-2006 14:10:41 1.8 C 65 % -4.06 C
1094 05-02-2006 14:20:41 1.7 C 66 % -3.95 C
1095 05-02-2006 14:30:41 1.7 C 66 % -3.95 C
1096 05-02-2006 14:40:41 1.6 C 68 % -3.65 C
1097 05-02-2006 14:50:41 1.9 C 68 % -3.37 C
1098 05-02-2006 15:00:41 1.8 C 68 % -3.46 C
1099 05-02-2006 15:10:41 1.8 C 68 % -3.46 C
1100 05-02-2006 15:20:41 1.9 C 68 % -3.37 C
Sensor: Nr:Datum:Temp:Feuchte:Taupunkt:
Aussen-T/F 1101 05-02-2006 15:30:41 1.9 C 68 % -3.37 C
1102 05-02-2006 15:40:41 1.9 C 68 % -3.37 C
1103 05-02-2006 15:50:41 1.7 C 69 % -3.36 C
1104 05-02-2006 16:00:41 1.7 C 69 % -3.36 C
1105 05-02-2006 16:10:41 1.7 C 70 % -3.17 C
1106 05-02-2006 16:20:41 2 C 69 % -3.08 C
1107 05-02-2006 16:30:41 1.7 C 70 % -3.17 C
1108 05-02-2006 16:40:41 1.6 C 70 % -3.27 C
1109 05-02-2006 16:50:41 1.6 C 70 % -3.27 C
1110 05-02-2006 17:00:41 1.5 C 72 % -2.99 C
1111 05-02-2006 17:10:41 1.4 C 73 % -2.9 C
1112 05-02-2006 17:20:42 1.4 C 73 % -2.9 C
1113 05-02-2006 17:30:42 1.2 C 74 % -2.91 C
1114 05-02-2006 17:40:41 1.2 C 74 % -2.91 C
1115 05-02-2006 17:50:42 1.1 C 75 % -2.82 C
1116 05-02-2006 18:00:42 1.1 C 75 % -2.82 C
1117 05-02-2006 18:10:41 1 C 76 % -2.74 C
1118 05-02-2006 18:20:41 1 C 76 % -2.74 C
1119 05-02-2006 18:30:41 0.9 C 77 % -2.66 C
1120 05-02-2006 18:40:42 0.9 C 77 % -2.66 C
1121 05-02-2006 18:50:41 0.8 C 78 % -2.59 C
1122 05-02-2006 19:00:41 0.6 C 77 % -2.96 C
1123 05-02-2006 19:10:41 0.5 C 78 % -2.88 C
1124 05-02-2006 19:20:41 0.4 C 79 % -2.81 C
1125 05-02-2006 19:30:41 0.4 C 80 % -2.64 C
Sensor: Nr:Datum:Temp:Feuchte:Taupunkt:
Aussen-T/F 1126 05-02-2006 19:40:42 0.3 C 81 % -2.57 C
1127 05-02-2006 19:50:41 0.3 C 82 % -2.4 C
1128 05-02-2006 20:00:41 0.3 C 82 % -2.4 C
1129 05-02-2006 20:10:41 0.3 C 83 % -2.24 C
1130 05-02-2006 20:20:42 0.3 C 83 % -2.24 C
1131 05-02-2006 20:30:42 0.3 C 84 % -2.08 C
1132 05-02-2006 20:40:42 0.3 C 84 % -2.08 C
1133 05-02-2006 20:50:42 0.3 C 85 % -1.92 C
1134 05-02-2006 21:00:42 0.3 C 85 % -1.92 C
1135 05-02-2006 21:10:42 0.3 C 85 % -1.92 C
1136 05-02-2006 21:20:41 0.3 C 85 % -1.92 C
1137 05-02-2006 21:30:41 0.3 C 86 % -1.76 C
1138 05-02-2006 21:40:41 0.4 C 86 % -1.66 C
1139 05-02-2006 21:50:41 0.4 C 86 % -1.66 C
1140 05-02-2006 22:00:41 0.4 C 86 % -1.66 C
1141 05-02-2006 22:10:42 0.4 C 86 % -1.66 C
1142 05-02-2006 22:20:42 0.4 C 86 % -1.66 C
1143 05-02-2006 22:30:42 0.4 C 86 % -1.66 C
1144 05-02-2006 22:40:42 0.4 C 86 % -1.66 C
1145 05-02-2006 22:50:42 0.4 C 86 % -1.66 C
1146 05-02-2006 23:00:42 0.3 C 86 % -1.76 C
1147 05-02-2006 23:10:42 0.3 C 87 % -1.6 C
1148 05-02-2006 23:20:41 0.3 C 87 % -1.6 C
1149 05-02-2006 23:30:41 0.3 C 87 % -1.6 C
1150 05-02-2006 23:40:42 0.4 C 87 % -1.5 C
Sensor: Nr:Datum:Temp:Feuchte:Taupunkt:
Aussen-T/F 1151 05-02-2006 23:50:41 0.4 C 87 % -1.5 C
1152 06-02-2006 00:00:41 0.4 C 87 % -1.5 C
1153 06-02-2006 00:10:42 0.4 C 87 % -1.5 C
1154 06-02-2006 00:20:43 0.4 C 87 % -1.5 C
1155 06-02-2006 00:30:43 0.4 C 87 % -1.5 C
1156 06-02-2006 00:40:42 0.4 C 87 % -1.5 C
1157 06-02-2006 00:50:42 0.4 C 87 % -1.5 C
1158 06-02-2006 01:00:42 0.4 C 88 % -1.35 C
1159 06-02-2006 01:10:42 0.4 C 88 % -1.35 C
1160 06-02-2006 01:20:42 0.4 C 88 % -1.35 C
1161 06-02-2006 01:30:42 0.4 C 88 % -1.35 C
1162 06-02-2006 01:40:43 0.4 C 88 % -1.35 C
1163 06-02-2006 01:50:42 0.4 C 88 % -1.35 C
1164 06-02-2006 02:00:42 0.4 C 88 % -1.35 C
1165 06-02-2006 02:10:42 0.4 C 88 % -1.35 C
1166 06-02-2006 02:20:43 0.4 C 88 % -1.35 C
1167 06-02-2006 02:30:43 0.4 C 88 % -1.35 C
1168 06-02-2006 02:40:43 0.4 C 88 % -1.35 C
1169 06-02-2006 02:51:44 0.4 C 88 % -1.35 C
1170 06-02-2006 03:01:44 0.4 C 88 % -1.35 C
1171 06-02-2006 03:11:44 0.5 C 88 % -1.25 C
1172 06-02-2006 03:21:44 0.5 C 88 % -1.25 C
1173 06-02-2006 03:31:44 0.5 C 88 % -1.25 C
1174 06-02-2006 03:41:44 0.5 C 88 % -1.25 C
1175 06-02-2006 03:51:44 0.5 C 88 % -1.25 C
Sensor: Nr:Datum:Temp:Feuchte:Taupunkt:
Aussen-T/F 1176 06-02-2006 04:01:43 0.5 C 88 % -1.25 C
1177 06-02-2006 04:11:43 0.5 C 88 % -1.25 C
1178 06-02-2006 04:21:44 0.5 C 88 % -1.25 C
1179 06-02-2006 04:31:43 0.4 C 88 % -1.35 C
1180 06-02-2006 04:41:43 0.4 C 89 % -1.2 C
1181 06-02-2006 04:51:44 0.4 C 89 % -1.2 C
1182 06-02-2006 05:01:44 0.5 C 89 % -1.1 C
1183 06-02-2006 05:11:44 0.4 C 89 % -1.2 C
1184 06-02-2006 05:21:44 0.4 C 89 % -1.2 C
1185 06-02-2006 05:31:44 0.5 C 89 % -1.1 C
1186 06-02-2006 05:41:44 0.4 C 90 % -1.04 C
1187 06-02-2006 05:51:44 0.4 C 90 % -1.04 C
1188 06-02-2006 06:01:44 0.4 C 90 % -1.04 C
1189 06-02-2006 06:11:44 0.4 C 90 % -1.04 C
1190 06-02-2006 06:21:44 0.5 C 90 % -0.95 C
1191 06-02-2006 06:31:44 0.5 C 90 % -0.95 C
1192 06-02-2006 06:41:44 0.5 C 90 % -0.95 C
1193 06-02-2006 06:51:44 0.5 C 90 % -0.95 C
1194 06-02-2006 07:01:44 0.5 C 90 % -0.95 C
1195 06-02-2006 07:11:44 0.5 C 90 % -0.95 C
1196 06-02-2006 07:21:44 0.5 C 90 % -0.95 C
1197 06-02-2006 07:31:44 0.5 C 90 % -0.95 C
1198 06-02-2006 07:41:44 0.4 C 90 % -1.04 C
1199 06-02-2006 07:51:45 0.4 C 90 % -1.04 C
1200 06-02-2006 08:01:44 0.4 C 91 % -0.89 C
Sensor: Nr:Datum:Temp:Feuchte:Taupunkt:
Aussen-T/F 1201 06-02-2006 08:11:44 0.4 C 91 % -0.89 C
1202 06-02-2006 08:21:44 0.4 C 91 % -0.89 C
1203 06-02-2006 08:31:44 0.5 C 92 % -0.65 C
1204 06-02-2006 08:41:44 0.5 C 92 % -0.65 C
1205 06-02-2006 08:51:44 0.5 C 92 % -0.65 C
1206 06-02-2006 09:01:45 0.5 C 92 % -0.65 C
1207 06-02-2006 09:11:45 0.6 C 92 % -0.55 C
1208 06-02-2006 09:21:44 0.6 C 92 % -0.55 C
1209 06-02-2006 09:31:44 0.7 C 92 % -0.45 C
1210 06-02-2006 09:41:44 0.7 C 92 % -0.45 C
1211 06-02-2006 09:51:44 0.8 C 92 % -0.35 C
1212 06-02-2006 10:01:45 0.9 C 91 % -0.4 C
1213 06-02-2006 10:11:45 1.1 C 90 % -0.35 C
1214 06-02-2006 10:21:45 1.3 C 89 % -0.31 C
1215 06-02-2006 10:31:44 1.3 C 88 % -0.46 C
1216 06-02-2006 10:41:44 1.5 C 88 % -0.27 C
1217 06-02-2006 10:51:44 1.9 C 87 % -0.03 C
1218 06-02-2006 11:01:44 2 C 84 % -0.41 C
1219 06-02-2006 11:11:44 2.1 C 83 % -0.48 C
1220 06-02-2006 11:21:44 2.1 C 82 % -0.64 C
1221 06-02-2006 11:31:45 2.2 C 82 % -0.55 C
1222 06-02-2006 11:41:45 2.4 C 82 % -0.35 C
1223 06-02-2006 11:51:45 2.4 C 81 % -0.52 C
1224 06-02-2006 12:01:45 2.6 C 82 % -0.16 C
1225 06-02-2006 12:11:45 3 C 81 % 0.07 C
Sensor: Nr:Datum:Temp:Feuchte:Taupunkt:
Aussen-T/F 1226 06-02-2006 12:21:45 2.6 C 80 % -0.49 C
1227 06-02-2006 12:31:44 2.8 C 80 % -0.3 C
1228 06-02-2006 12:41:44 2.8 C 80 % -0.3 C
1229 06-02-2006 12:51:44 2.8 C 80 % -0.3 C
1230 06-02-2006 13:01:45 2.6 C 80 % -0.49 C
1231 06-02-2006 13:11:45 2.4 C 81 % -0.52 C
1232 06-02-2006 13:21:45 2.6 C 82 % -0.16 C
1233 06-02-2006 13:31:44 2.6 C 82 % -0.16 C
1234 06-02-2006 13:41:44 2.5 C 82 % -0.25 C
1235 06-02-2006 13:51:45 2.4 C 82 % -0.35 C
1236 06-02-2006 14:01:44 2.5 C 83 % -0.09 C
1237 06-02-2006 14:11:44 2.5 C 83 % -0.09 C
1238 06-02-2006 14:21:44 2.5 C 83 % -0.09 C
1239 06-02-2006 14:31:45 2.6 C 83 % 0.01 C
1240 06-02-2006 14:41:45 2.6 C 84 % 0.18 C
1241 06-02-2006 14:51:45 2.6 C 84 % 0.18 C
1242 06-02-2006 15:01:45 2.5 C 85 % 0.24 C
1243 06-02-2006 15:11:45 2.6 C 85 % 0.34 C
1244 06-02-2006 15:21:45 2.6 C 86 % 0.5 C
1245 06-02-2006 15:31:44 2.6 C 86 % 0.5 C
1246 06-02-2006 15:41:44 2.5 C 86 % 0.4 C
1247 06-02-2006 15:51:45 2.4 C 87 % 0.46 C
1248 06-02-2006 16:01:45 2.4 C 87 % 0.46 C
1249 06-02-2006 16:11:45 2.3 C 87 % 0.36 C
1250 06-02-2006 16:21:45 2.2 C 87 % 0.27 C
Sensor: Nr:Datum:Temp:Feuchte:Taupunkt:
Aussen-T/F 1251 06-02-2006 16:31:45 2.2 C 88 % 0.42 C
1252 06-02-2006 16:41:45 2.2 C 88 % 0.42 C
1253 06-02-2006 16:51:45 2.1 C 88 % 0.33 C
1254 06-02-2006 17:01:45 2.1 C 88 % 0.33 C
1255 06-02-2006 17:11:45 2.1 C 88 % 0.33 C
1256 06-02-2006 17:21:45 2.2 C 88 % 0.42 C
1257 06-02-2006 17:31:45 2.2 C 88 % 0.42 C
1258 06-02-2006 17:41:45 2.2 C 88 % 0.42 C
1259 06-02-2006 17:51:45 2.1 C 88 % 0.33 C
1260 06-02-2006 18:01:46 2.2 C 88 % 0.42 C
1261 06-02-2006 18:11:46 2.1 C 88 % 0.33 C
1262 06-02-2006 18:21:45 2.1 C 88 % 0.33 C
1263 06-02-2006 18:31:45 2.1 C 89 % 0.48 C
1264 06-02-2006 18:41:45 2.1 C 89 % 0.48 C
1265 06-02-2006 18:51:45 2.1 C 89 % 0.48 C
1266 06-02-2006 19:01:45 2.1 C 89 % 0.48 C
1267 06-02-2006 19:11:45 2.1 C 89 % 0.48 C
1268 06-02-2006 19:21:45 2.1 C 89 % 0.48 C
1269 06-02-2006 19:31:46 2.1 C 88 % 0.33 C
1270 06-02-2006 19:41:46 2.2 C 89 % 0.58 C
1271 06-02-2006 19:51:45 2.2 C 88 % 0.42 C
1272 06-02-2006 20:01:46 2.2 C 88 % 0.42 C
1273 06-02-2006 20:11:46 2.2 C 88 % 0.42 C
1274 06-02-2006 20:21:45 2.2 C 88 % 0.42 C
1275 06-02-2006 20:31:45 2.2 C 88 % 0.42 C
Sensor: Nr:Datum:Temp:Feuchte:Taupunkt:
Aussen-T/F 1276 06-02-2006 20:41:45 2.2 C 89 % 0.58 C
1277 06-02-2006 20:51:45 2.3 C 89 % 0.68 C
1278 06-02-2006 21:01:45 2.3 C 89 % 0.68 C
1279 06-02-2006 21:11:45 2.4 C 88 % 0.62 C
1280 06-02-2006 21:21:46 2.5 C 88 % 0.72 C
1281 06-02-2006 21:31:45 2.5 C 88 % 0.72 C
1282 06-02-2006 21:41:45 2.5 C 88 % 0.72 C
1283 06-02-2006 21:51:46 2.5 C 88 % 0.72 C
1284 06-02-2006 22:01:45 2.5 C 88 % 0.72 C
1285 06-02-2006 22:11:45 2.4 C 88 % 0.62 C
1286 06-02-2006 22:21:45 2.4 C 88 % 0.62 C
1287 06-02-2006 22:31:46 2.4 C 88 % 0.62 C
1288 06-02-2006 22:41:46 2.3 C 88 % 0.52 C
1289 06-02-2006 22:51:46 2.3 C 88 % 0.52 C
1290 06-02-2006 23:01:46 2.2 C 88 % 0.42 C
1291 06-02-2006 23:11:46 2.1 C 88 % 0.33 C
1292 06-02-2006 23:21:46 2 C 88 % 0.23 C
1293 06-02-2006 23:31:45 2 C 89 % 0.38 C
1294 06-02-2006 23:41:45 1.9 C 89 % 0.28 C
1295 06-02-2006 23:51:46 2 C 89 % 0.38 C
1296 07-02-2006 00:01:46 2 C 89 % 0.38 C
1297 07-02-2006 00:11:46 2 C 89 % 0.38 C
1298 07-02-2006 00:21:46 2 C 90 % 0.54 C
1299 07-02-2006 00:31:46 2 C 90 % 0.54 C
1300 07-02-2006 00:41:46 2 C 90 % 0.54 C
Sensor: Nr:Datum:Temp:Feuchte:Taupunkt:
Aussen-T/F 1301 07-02-2006 00:51:46 2 C 90 % 0.54 C
1302 07-02-2006 01:01:46 1.8 C 91 % 0.49 C
1303 07-02-2006 01:11:46 2 C 90 % 0.54 C
1304 07-02-2006 01:21:46 1.9 C 90 % 0.44 C
1305 07-02-2006 01:31:46 2 C 88 % 0.23 C
1306 07-02-2006 01:41:46 2 C 87 % 0.07 C
1307 07-02-2006 01:51:46 2.1 C 86 % 0.01 C
1308 07-02-2006 02:01:46 2.2 C 84 % -0.22 C
1309 07-02-2006 02:11:46 2.2 C 83 % -0.38 C
1310 07-02-2006 02:21:46 2.2 C 83 % -0.38 C
1311 07-02-2006 02:31:46 2.2 C 83 % -0.38 C
1312 07-02-2006 02:41:46 2.1 C 83 % -0.48 C
1313 07-02-2006 02:52:48 2.2 C 83 % -0.38 C
1314 07-02-2006 03:02:48 2.2 C 83 % -0.38 C
1315 07-02-2006 03:12:48 2.2 C 82 % -0.55 C
1316 07-02-2006 03:22:48 2.4 C 81 % -0.52 C
1317 07-02-2006 03:32:48 2.5 C 80 % -0.59 C
1318 07-02-2006 03:42:48 2.5 C 80 % -0.59 C
1319 07-02-2006 03:52:48 2.6 C 79 % -0.67 C
1320 07-02-2006 04:02:48 2.7 C 79 % -0.57 C
1321 07-02-2006 04:12:48 2.7 C 78 % -0.74 C
1322 07-02-2006 04:22:48 2.7 C 78 % -0.74 C
1323 07-02-2006 04:32:48 2.7 C 78 % -0.74 C
1324 07-02-2006 04:42:48 2.7 C 78 % -0.74 C
1325 07-02-2006 04:52:47 2.8 C 78 % -0.65 C
Sensor: Nr:Datum:Temp:Feuchte:Taupunkt:
Aussen-T/F 1326 07-02-2006 05:02:48 2.8 C 78 % -0.65 C
1327 07-02-2006 05:12:48 2.7 C 79 % -0.57 C
1328 07-02-2006 05:22:48 2.7 C 79 % -0.57 C
1329 07-02-2006 05:32:47 2.7 C 79 % -0.57 C
1330 07-02-2006 05:42:47 2.6 C 80 % -0.49 C
1331 07-02-2006 05:52:48 2.6 C 80 % -0.49 C
1332 07-02-2006 06:02:48 2.6 C 80 % -0.49 C
1333 07-02-2006 06:12:48 2.6 C 80 % -0.49 C
1334 07-02-2006 06:22:48 2.6 C 80 % -0.49 C
1335 07-02-2006 06:32:48 2.7 C 80 % -0.4 C
1336 07-02-2006 06:42:49 2.7 C 80 % -0.4 C
1337 07-02-2006 06:52:48 2.9 C 79 % -0.37 C
1338 07-02-2006 07:02:48 3.1 C 78 % -0.35 C
1339 07-02-2006 07:12:48 3 C 78 % -0.45 C
1340 07-02-2006 07:22:48 2.9 C 79 % -0.37 C
1341 07-02-2006 07:32:48 2.8 C 79 % -0.47 C
1342 07-02-2006 07:42:48 2.9 C 80 % -0.2 C
1343 07-02-2006 07:52:48 2.9 C 79 % -0.37 C
1344 07-02-2006 08:02:48 3 C 79 % -0.28 C
1345 07-02-2006 08:12:48 3 C 78 % -0.45 C
1346 07-02-2006 08:22:48 3 C 78 % -0.45 C
1347 07-02-2006 08:32:49 3.1 C 78 % -0.35 C
1348 07-02-2006 08:42:49 3.2 C 78 % -0.26 C
1349 07-02-2006 08:52:48 3.2 C 78 % -0.26 C
1350 07-02-2006 09:02:48 3.2 C 77 % -0.43 C
Sensor: Nr:Datum:Temp:Feuchte:Taupunkt:
Aussen-T/F 1351 07-02-2006 09:12:48 3.3 C 78 % -0.16 C
1352 07-02-2006 09:22:48 3.2 C 78 % -0.26 C
1353 07-02-2006 09:32:48 3.3 C 78 % -0.16 C
1354 07-02-2006 09:42:48 3.4 C 78 % -0.06 C
1355 07-02-2006 09:52:48 3.4 C 77 % -0.24 C
1356 07-02-2006 10:02:48 3.4 C 77 % -0.24 C
1357 07-02-2006 10:12:48 3.5 C 77 % -0.14 C
1358 07-02-2006 10:22:48 3.6 C 77 % -0.05 C
1359 07-02-2006 10:32:49 3.6 C 76 % -0.22 C
1360 07-02-2006 10:42:49 3.7 C 76 % -0.13 C
1361 07-02-2006 10:52:49 3.7 C 76 % -0.13 C
1362 07-02-2006 11:02:48 3.7 C 77 % 0.05 C
1363 07-02-2006 11:12:49 3.6 C 78 % 0.13 C
1364 07-02-2006 11:22:48 3.5 C 80 % 0.38 C
1365 07-02-2006 11:32:48 3.5 C 80 % 0.38 C
1366 07-02-2006 11:42:48 3.5 C 80 % 0.38 C
1367 07-02-2006 11:52:49 3.6 C 80 % 0.48 C
1368 07-02-2006 12:02:48 3.6 C 79 % 0.31 C
1369 07-02-2006 12:12:48 3.6 C 79 % 0.31 C
1370 07-02-2006 12:22:48 3.7 C 79 % 0.4 C
1371 07-02-2006 12:32:49 3.9 C 78 % 0.42 C
1372 07-02-2006 12:42:49 3.9 C 78 % 0.42 C
1373 07-02-2006 12:52:48 3.8 C 78 % 0.33 C
1374 07-02-2006 13:02:49 3.8 C 79 % 0.5 C
1375 07-02-2006 13:12:49 3.8 C 79 % 0.5 C
Sensor: Nr:Datum:Temp:Feuchte:Taupunkt:
Aussen-T/F 1376 07-02-2006 13:22:49 3.9 C 80 % 0.77 C
1377 07-02-2006 13:32:48 3.9 C 80 % 0.77 C
1378 07-02-2006 13:42:48 4.1 C 79 % 0.79 C
1379 07-02-2006 13:52:49 4.1 C 79 % 0.79 C
1380 07-02-2006 14:02:48 4.1 C 79 % 0.79 C
1381 07-02-2006 14:12:48 4.1 C 79 % 0.79 C
1382 07-02-2006 14:22:48 4.1 C 79 % 0.79 C
1383 07-02-2006 14:32:49 4.1 C 79 % 0.79 C
1384 07-02-2006 14:42:49 4.2 C 78 % 0.71 C
1385 07-02-2006 14:52:48 4.2 C 78 % 0.71 C
1386 07-02-2006 15:02:49 4.3 C 78 % 0.81 C
1387 07-02-2006 15:12:49 4.4 C 78 % 0.91 C
1388 07-02-2006 15:22:49 4.4 C 78 % 0.91 C
1389 07-02-2006 15:32:48 4.4 C 78 % 0.91 C
1390 07-02-2006 15:42:48 4.4 C 78 % 0.91 C
1391 07-02-2006 15:52:49 4.4 C 78 % 0.91 C
1392 07-02-2006 16:02:48 4.5 C 79 % 1.18 C
1393 07-02-2006 16:12:48 4.6 C 78 % 1.1 C
1394 07-02-2006 16:22:49 4.6 C 78 % 1.1 C
1395 07-02-2006 16:32:49 4.7 C 78 % 1.2 C
1396 07-02-2006 16:42:49 4.8 C 78 % 1.3 C
1397 07-02-2006 16:52:49 5 C 76 % 1.13 C
1398 07-02-2006 17:02:49 5 C 75 % 0.95 C
1399 07-02-2006 17:12:49 5 C 75 % 0.95 C
1400 07-02-2006 17:22:49 5 C 75 % 0.95 C
Sensor: Nr:Datum:Temp:Feuchte:Taupunkt:
Aussen-T/F 1401 07-02-2006 17:32:49 5.1 C 75 % 1.04 C
1402 07-02-2006 17:42:49 5.1 C 75 % 1.04 C
1403 07-02-2006 17:52:49 5.2 C 74 % 0.95 C
1404 07-02-2006 18:02:49 5.1 C 75 % 1.04 C
1405 07-02-2006 18:12:49 5 C 75 % 0.95 C
1406 07-02-2006 18:22:49 5.1 C 75 % 1.04 C
1407 07-02-2006 18:32:50 5.3 C 74 % 1.05 C
1408 07-02-2006 18:42:50 5.3 C 73 % 0.86 C
1409 07-02-2006 18:52:49 5.4 C 73 % 0.96 C
1410 07-02-2006 19:02:50 5.4 C 72 % 0.77 C
1411 07-02-2006 19:12:50 5.3 C 73 % 0.86 C
1412 07-02-2006 19:22:50 5.4 C 73 % 0.96 C
1413 07-02-2006 19:32:50 5.3 C 72 % 0.67 C
1414 07-02-2006 19:42:50 5.4 C 72 % 0.77 C
1415 07-02-2006 19:52:49 5.3 C 72 % 0.67 C
1416 07-02-2006 20:02:50 5.3 C 73 % 0.86 C
1417 07-02-2006 20:12:50 5.3 C 73 % 0.86 C
1418 07-02-2006 20:22:50 5.2 C 73 % 0.77 C
1419 07-02-2006 20:32:50 5.2 C 73 % 0.77 C
1420 07-02-2006 20:42:50 5.3 C 73 % 0.86 C
1421 07-02-2006 20:52:49 5.2 C 73 % 0.77 C
1422 07-02-2006 21:02:50 5.2 C 73 % 0.77 C
1423 07-02-2006 21:12:50 5.2 C 73 % 0.77 C
1424 07-02-2006 21:22:50 5.1 C 73 % 0.67 C
1425 07-02-2006 21:32:49 5.1 C 73 % 0.67 C
Sensor: Nr:Datum:Temp:Feuchte:Taupunkt:
Aussen-T/F 1426 07-02-2006 21:42:49 5.1 C 73 % 0.67 C
1427 07-02-2006 21:52:49 5.1 C 73 % 0.67 C
1428 07-02-2006 22:02:50 5 C 73 % 0.57 C
1429 07-02-2006 22:12:50 5.1 C 73 % 0.67 C
1430 07-02-2006 22:22:50 5 C 73 % 0.57 C
1431 07-02-2006 22:32:49 5 C 74 % 0.76 C
1432 07-02-2006 22:42:49 4.9 C 75 % 0.85 C
1433 07-02-2006 22:52:50 5 C 74 % 0.76 C
1434 07-02-2006 23:02:49 5.1 C 74 % 0.86 C
1435 07-02-2006 23:12:49 5.1 C 74 % 0.86 C
1436 07-02-2006 23:22:49 5 C 74 % 0.76 C
1437 07-02-2006 23:32:50 5 C 75 % 0.95 C
1438 07-02-2006 23:42:50 4.9 C 77 % 1.22 C
1439 07-02-2006 23:52:50 4.7 C 79 % 1.38 C
1440 08-02-2006 00:02:50 4.4 C 81 % 1.43 C
1441 08-02-2006 00:12:50 4.3 C 82 % 1.51 C
1442 08-02-2006 00:22:50 4.2 C 83 % 1.58 C
1443 08-02-2006 00:32:50 4.2 C 83 % 1.58 C
1444 08-02-2006 00:42:50 4.1 C 84 % 1.65 C
1445 08-02-2006 00:52:50 4.1 C 84 % 1.65 C
1446 08-02-2006 01:02:50 4.1 C 84 % 1.65 C
1447 08-02-2006 01:12:50 4.2 C 84 % 1.74 C
1448 08-02-2006 01:22:50 4 C 83 % 1.38 C
1449 08-02-2006 01:32:50 4 C 84 % 1.55 C
1450 08-02-2006 01:42:50 4 C 84 % 1.55 C
Sensor: Nr:Datum:Temp:Feuchte:Taupunkt:
Aussen-T/F 1451 08-02-2006 01:52:50 4.1 C 83 % 1.48 C
1452 08-02-2006 02:02:50 4.1 C 83 % 1.48 C
1453 08-02-2006 02:12:50 4.2 C 83 % 1.58 C
1454 08-02-2006 02:22:50 4.2 C 82 % 1.41 C
1455 08-02-2006 02:32:50 4.3 C 81 % 1.34 C
1456 08-02-2006 02:42:50 4.2 C 82 % 1.41 C
1457 08-02-2006 02:53:52 4.2 C 82 % 1.41 C
1458 08-02-2006 03:03:52 4.2 C 81 % 1.24 C
1459 08-02-2006 03:13:52 4.3 C 81 % 1.34 C
1460 08-02-2006 03:23:52 4.2 C 81 % 1.24 C
1461 08-02-2006 03:33:52 4.2 C 81 % 1.24 C
1462 08-02-2006 03:43:52 4.3 C 80 % 1.16 C
1463 08-02-2006 03:53:52 4.3 C 79 % 0.99 C
1464 08-02-2006 04:03:51 4.3 C 79 % 0.99 C
1465 08-02-2006 04:13:51 4.3 C 78 % 0.81 C
1466 08-02-2006 04:23:51 4.4 C 78 % 0.91 C
1467 08-02-2006 04:33:52 4.5 C 77 % 0.83 C
1468 08-02-2006 04:43:52 4.5 C 76 % 0.65 C
1469 08-02-2006 04:53:51 4.4 C 77 % 0.73 C
1470 08-02-2006 05:03:51 4.6 C 76 % 0.74 C
1471 08-02-2006 05:13:51 4.5 C 76 % 0.65 C
1472 08-02-2006 05:23:52 4.6 C 75 % 0.56 C
1473 08-02-2006 05:33:51 4.7 C 75 % 0.66 C
1474 08-02-2006 05:43:51 4.7 C 75 % 0.66 C
1475 08-02-2006 05:53:51 4.7 C 75 % 0.66 C
Sensor: Nr:Datum:Temp:Feuchte:Taupunkt:
Aussen-T/F 1476 08-02-2006 06:03:52 4.7 C 75 % 0.66 C
1477 08-02-2006 06:13:52 4.7 C 76 % 0.84 C
1478 08-02-2006 06:23:52 4.6 C 76 % 0.74 C
1479 08-02-2006 06:33:52 4.6 C 76 % 0.74 C
1480 08-02-2006 06:43:52 4.6 C 76 % 0.74 C
1481 08-02-2006 06:53:51 4.6 C 76 % 0.74 C
1482 08-02-2006 07:03:52 4.7 C 75 % 0.66 C
1483 08-02-2006 07:13:52 4.7 C 74 % 0.47 C
1484 08-02-2006 07:23:52 4.7 C 74 % 0.47 C
1485 08-02-2006 07:33:52 4.8 C 74 % 0.57 C
1486 08-02-2006 07:43:52 4.8 C 73 % 0.38 C
1487 08-02-2006 07:53:52 4.8 C 73 % 0.38 C
1488 08-02-2006 08:03:52 4.8 C 72 % 0.19 C
1489 08-02-2006 08:13:52 4.8 C 73 % 0.38 C
1490 08-02-2006 08:23:52 4.5 C 75 % 0.46 C
1491 08-02-2006 08:33:53 4.3 C 77 % 0.63 C
1492 08-02-2006 08:43:53 4.2 C 78 % 0.71 C
1493 08-02-2006 08:53:52 4.1 C 79 % 0.79 C
1494 08-02-2006 09:03:53 4 C 79 % 0.7 C
1495 08-02-2006 09:13:53 3.9 C 81 % 0.95 C
1496 08-02-2006 09:23:52 3.8 C 80 % 0.68 C
1497 08-02-2006 09:33:52 3.8 C 80 % 0.68 C
1498 08-02-2006 09:43:52 3.8 C 80 % 0.68 C
1499 08-02-2006 09:53:52 3.7 C 81 % 0.75 C
1500 08-02-2006 10:03:52 3.8 C 81 % 0.85 C
Sensor: Nr:Datum:Temp:Feuchte:Taupunkt:
Aussen-T/F 1501 08-02-2006 10:13:52 3.8 C 80 % 0.68 C
1502 08-02-2006 10:23:52 3.8 C 80 % 0.68 C
1503 08-02-2006 10:33:53 3.9 C 79 % 0.6 C
1504 08-02-2006 10:43:53 4 C 78 % 0.52 C
1505 08-02-2006 10:53:52 4.1 C 77 % 0.44 C
1506 08-02-2006 11:03:53 4.2 C 75 % 0.17 C
1507 08-02-2006 11:13:53 4.4 C 74 % 0.18 C
1508 08-02-2006 11:23:52 4.8 C 73 % 0.38 C
1509 08-02-2006 11:33:52 5 C 70 % 0 C
1510 08-02-2006 11:43:52 5 C 69 % -0.2 C
1511 08-02-2006 11:53:52 4.6 C 71 % -0.19 C
1512 08-02-2006 12:03:52 4.2 C 75 % 0.17 C
1513 08-02-2006 12:13:52 3.8 C 79 % 0.5 C
1514 08-02-2006 12:23:53 3.7 C 82 % 0.92 C
1515 08-02-2006 12:33:53 3.7 C 83 % 1.09 C
1516 08-02-2006 12:43:53 3.6 C 84 % 1.16 C
1517 08-02-2006 12:53:53 3.4 C 84 % 0.96 C
1518 08-02-2006 13:03:53 3.3 C 84 % 0.86 C
1519 08-02-2006 13:13:53 3.2 C 85 % 0.93 C
1520 08-02-2006 13:23:52 3.1 C 85 % 0.83 C
1521 08-02-2006 13:33:52 3 C 86 % 0.89 C
1522 08-02-2006 13:43:52 3 C 86 % 0.89 C
1523 08-02-2006 13:53:52 3.2 C 85 % 0.93 C
1524 08-02-2006 14:03:53 3.2 C 85 % 0.93 C
1525 08-02-2006 14:13:53 3.3 C 85 % 1.03 C
Sensor: Nr:Datum:Temp:Feuchte:Taupunkt:
Aussen-T/F 1526 08-02-2006 14:23:53 3.3 C 85 % 1.03 C
1527 08-02-2006 14:33:53 3.4 C 84 % 0.96 C
1528 08-02-2006 14:43:53 3.7 C 83 % 1.09 C
1529 08-02-2006 14:53:53 4.2 C 79 % 0.89 C
1530 08-02-2006 15:03:53 4.2 C 77 % 0.54 C
1531 08-02-2006 15:13:53 4.1 C 77 % 0.44 C
1532 08-02-2006 15:23:52 4.1 C 78 % 0.62 C
1533 08-02-2006 15:33:53 4.2 C 77 % 0.54 C
1534 08-02-2006 15:43:53 4.4 C 77 % 0.73 C
1535 08-02-2006 15:53:53 4.6 C 76 % 0.74 C
1536 08-02-2006 16:03:53 4.9 C 74 % 0.67 C
1537 08-02-2006 16:13:53 5 C 71 % 0.19 C
1538 08-02-2006 16:23:53 5.2 C 71 % 0.38 C
1539 08-02-2006 16:33:53 5.4 C 66 % -0.43 C
1540 08-02-2006 16:43:53 5.1 C 64 % -1.13 C
1541 08-02-2006 16:53:53 4.8 C 66 % -1 C
1542 08-02-2006 17:03:53 4.1 C 69 % -1.06 C
1543 08-02-2006 17:13:54 3.4 C 75 % -0.6 C
1544 08-02-2006 17:23:53 2.7 C 81 % -0.23 C
1545 08-02-2006 17:33:53 2.5 C 82 % -0.25 C
1546 08-02-2006 17:43:54 2.5 C 84 % 0.08 C
1547 08-02-2006 17:53:54 2.4 C 85 % 0.14 C
1548 08-02-2006 18:03:53 2.3 C 86 % 0.21 C
1549 08-02-2006 18:13:53 2.3 C 86 % 0.21 C
1550 08-02-2006 18:23:53 2.2 C 87 % 0.27 C
Sensor: Nr:Datum:Temp:Feuchte:Taupunkt:
Aussen-T/F 1551 08-02-2006 18:33:53 2.4 C 87 % 0.46 C
1552 08-02-2006 18:43:53 2.5 C 85 % 0.24 C
1553 08-02-2006 18:53:53 2.5 C 85 % 0.24 C
1554 08-02-2006 19:03:54 2.6 C 84 % 0.18 C
1555 08-02-2006 19:13:54 2.6 C 83 % 0.01 C
1556 08-02-2006 19:23:53 2.5 C 83 % -0.09 C
1557 08-02-2006 19:33:53 2.4 C 83 % -0.18 C
1558 08-02-2006 19:43:53 2.4 C 83 % -0.18 C
1559 08-02-2006 19:53:54 2.4 C 83 % -0.18 C
1560 08-02-2006 20:03:53 2.4 C 83 % -0.18 C
1561 08-02-2006 20:13:54 2.5 C 83 % -0.09 C
1562 08-02-2006 20:23:53 2.2 C 83 % -0.38 C
1563 08-02-2006 20:33:53 2.1 C 84 % -0.31 C
1564 08-02-2006 20:43:53 2.1 C 84 % -0.31 C
1565 08-02-2006 20:53:54 2 C 84 % -0.41 C
1566 08-02-2006 21:03:53 2.1 C 84 % -0.31 C
1567 08-02-2006 21:13:53 2.2 C 84 % -0.22 C
1568 08-02-2006 21:23:53 2.3 C 83 % -0.28 C
1569 08-02-2006 21:33:53 2.2 C 83 % -0.38 C
1570 08-02-2006 21:43:53 2.3 C 82 % -0.45 C
1571 08-02-2006 21:53:54 2.4 C 80 % -0.69 C
1572 08-02-2006 22:03:54 2.5 C 79 % -0.76 C
1573 08-02-2006 22:13:54 2.4 C 80 % -0.69 C
1574 08-02-2006 22:23:53 2.5 C 80 % -0.59 C
1575 08-02-2006 22:33:53 2.3 C 80 % -0.79 C
Sensor: Nr:Datum:Temp:Feuchte:Taupunkt:
Aussen-T/F 1576 08-02-2006 22:43:53 2.3 C 80 % -0.79 C
1577 08-02-2006 22:53:54 2.4 C 80 % -0.69 C
1578 08-02-2006 23:03:53 2.5 C 78 % -0.94 C
1579 08-02-2006 23:13:53 2.4 C 78 % -1.03 C
1580 08-02-2006 23:23:53 2.4 C 76 % -1.39 C
1581 08-02-2006 23:33:54 2.5 C 75 % -1.47 C
1582 08-02-2006 23:43:54 2.5 C 75 % -1.47 C
1583 08-02-2006 23:53:53 2.6 C 75 % -1.37 C
1584 09-02-2006 00:03:54 2.5 C 75 % -1.47 C
1585 09-02-2006 00:13:54 2.3 C 77 % -1.31 C
1586 09-02-2006 00:23:54 2.1 C 80 % -0.98 C
1587 09-02-2006 00:33:54 2 C 81 % -0.91 C
1588 09-02-2006 00:43:54 2 C 82 % -0.74 C
1589 09-02-2006 00:53:54 2.1 C 82 % -0.64 C
1590 09-02-2006 01:03:54 2 C 83 % -0.58 C
1591 09-02-2006 01:13:54 2 C 84 % -0.41 C
1592 09-02-2006 01:23:54 1.8 C 84 % -0.61 C
1593 09-02-2006 01:33:54 1.1 C 85 % -1.13 C
1594 09-02-2006 01:43:54 1 C 87 % -0.91 C
1595 09-02-2006 01:53:54 0.8 C 88 % -0.96 C
1596 09-02-2006 02:03:54 0.8 C 89 % -0.8 C
1597 09-02-2006 02:13:54 0.8 C 89 % -0.8 C
1598 09-02-2006 02:23:54 1 C 89 % -0.6 C
1599 09-02-2006 02:33:54 1.3 C 90 % -0.15 C
1600 09-02-2006 02:43:54 1.5 C 90 % 0.04 C
Sensor: Nr:Datum:Temp:Feuchte:Taupunkt:
Aussen-T/F 1601 09-02-2006 02:54:55 1.6 C 88 % -0.17 C
1602 09-02-2006 03:04:55 1.6 C 87 % -0.32 C
1603 09-02-2006 03:14:56 1.8 C 86 % -0.29 C
1604 09-02-2006 03:24:56 1.8 C 85 % -0.45 C
1605 09-02-2006 03:34:56 1.9 C 84 % -0.51 C
1606 09-02-2006 03:44:56 1.8 C 83 % -0.77 C
1607 09-02-2006 03:54:56 1.8 C 83 % -0.77 C
1608 09-02-2006 04:04:56 1.8 C 83 % -0.77 C
1609 09-02-2006 04:14:56 1.9 C 82 % -0.84 C
1610 09-02-2006 04:24:56 1.8 C 82 % -0.94 C
1611 09-02-2006 04:34:56 1.6 C 83 % -0.97 C
1612 09-02-2006 04:44:56 1.5 C 84 % -0.9 C
1613 09-02-2006 04:54:56 1.6 C 84 % -0.8 C
1614 09-02-2006 05:04:56 1.5 C 84 % -0.9 C
1615 09-02-2006 05:14:56 1.5 C 84 % -0.9 C
1616 09-02-2006 05:24:56 1.5 C 84 % -0.9 C
1617 09-02-2006 05:34:56 1.4 C 85 % -0.84 C
1618 09-02-2006 05:44:56 1.5 C 86 % -0.58 C
1619 09-02-2006 05:54:56 1.5 C 85 % -0.74 C
1620 09-02-2006 06:04:56 1.5 C 85 % -0.74 C
1621 09-02-2006 06:14:56 1.5 C 85 % -0.74 C
1622 09-02-2006 06:24:56 1.4 C 85 % -0.84 C
1623 09-02-2006 06:34:55 0.9 C 87 % -1.01 C
1624 09-02-2006 06:44:55 0.8 C 88 % -0.96 C
1625 09-02-2006 06:54:56 0.8 C 89 % -0.8 C
Sensor: Nr:Datum:Temp:Feuchte:Taupunkt:
Aussen-T/F 1626 09-02-2006 07:04:56 0.8 C 90 % -0.65 C
1627 09-02-2006 07:14:56 0.9 C 90 % -0.55 C
1628 09-02-2006 07:24:56 1 C 90 % -0.45 C
1629 09-02-2006 07:34:56 1.1 C 90 % -0.35 C
1630 09-02-2006 07:44:56 1.1 C 89 % -0.51 C
1631 09-02-2006 07:54:56 1.2 C 88 % -0.56 C
1632 09-02-2006 08:04:56 1.3 C 86 % -0.78 C
1633 09-02-2006 08:14:56 1.2 C 83 % -1.36 C
1634 09-02-2006 08:24:56 0.8 C 85 % -1.43 C
1635 09-02-2006 08:34:56 0.5 C 87 % -1.41 C
1636 09-02-2006 08:44:57 0.7 C 88 % -1.05 C
1637 09-02-2006 08:54:56 0.9 C 88 % -0.86 C
1638 09-02-2006 09:04:56 1 C 88 % -0.76 C
1639 09-02-2006 09:14:56 1.1 C 88 % -0.66 C
1640 09-02-2006 09:24:56 1.1 C 87 % -0.82 C
1641 09-02-2006 09:34:57 1.1 C 87 % -0.82 C
1642 09-02-2006 09:44:57 1.2 C 88 % -0.56 C
1643 09-02-2006 09:54:56 1.2 C 87 % -0.72 C
1644 09-02-2006 10:04:56 1.2 C 86 % -0.88 C
1645 09-02-2006 10:14:56 1.3 C 85 % -0.94 C
1646 09-02-2006 10:24:56 1.4 C 84 % -1 C
1647 09-02-2006 10:34:56 1.4 C 83 % -1.16 C
1648 09-02-2006 10:44:56 1.5 C 83 % -1.06 C
1649 09-02-2006 10:54:57 1.4 C 83 % -1.16 C
1650 09-02-2006 11:04:56 1.5 C 82 % -1.23 C
Sensor: Nr:Datum:Temp:Feuchte:Taupunkt:
Aussen-T/F 1651 09-02-2006 11:14:57 1.1 C 81 % -1.79 C
1652 09-02-2006 11:24:56 0.7 C 80 % -2.34 C
1653 09-02-2006 11:34:56 0.7 C 78 % -2.69 C
1654 09-02-2006 11:44:56 0.8 C 76 % -2.94 C
1655 09-02-2006 11:54:56 1.1 C 74 % -3 C
1656 09-02-2006 12:04:57 1.3 C 71 % -3.36 C
1657 09-02-2006 12:14:57 1.8 C 68 % -3.46 C
1658 09-02-2006 12:24:57 1.9 C 66 % -3.76 C
1659 09-02-2006 12:34:56 2.1 C 63 % -4.19 C
1660 09-02-2006 12:44:56 2.2 C 64 % -3.89 C
1661 09-02-2006 12:54:57 2.3 C 61 % -4.43 C
1662 09-02-2006 13:04:56 2.4 C 56 % -5.46 C
1663 09-02-2006 13:14:56 2.6 C 55 % -5.51 C
1664 09-02-2006 13:24:56 2.6 C 54 % -5.75 C
1665 09-02-2006 13:34:57 2.9 C 55 % -5.23 C
1666 09-02-2006 13:44:57 2.8 C 54 % -5.57 C
1667 09-02-2006 13:54:56 2.9 C 57 % -4.76 C
1668 09-02-2006 14:04:57 2.6 C 59 % -4.59 C
1669 09-02-2006 14:14:57 3.4 C 56 % -4.53 C
1670 09-02-2006 14:24:57 4 C 53 % -4.7 C
1671 09-02-2006 14:34:56 3.5 C 50 % -5.92 C
1672 09-02-2006 14:44:56 3.6 C 52 % -5.32 C
1673 09-02-2006 14:54:57 3.3 C 53 % -5.35 C
1674 09-02-2006 15:04:56 3.1 C 53 % -5.53 C
1675 09-02-2006 15:14:56 3.4 C 54 % -5.01 C
Sensor: Nr:Datum:Temp:Feuchte:Taupunkt:
Aussen-T/F 1676 09-02-2006 15:24:57 3.4 C 53 % -5.25 C
1677 09-02-2006 15:34:57 3.5 C 53 % -5.16 C
1678 09-02-2006 15:44:57 3.5 C 51 % -5.66 C
1679 09-02-2006 15:54:57 3.5 C 50 % -5.92 C
1680 09-02-2006 16:04:57 3.6 C 51 % -5.57 C
1681 09-02-2006 16:14:57 4.1 C 49 % -5.63 C
1682 09-02-2006 16:24:57 4 C 49 % -5.73 C
1683 09-02-2006 16:34:57 3.7 C 51 % -5.48 C
1684 09-02-2006 16:44:57 3.8 C 51 % -5.39 C
1685 09-02-2006 16:54:57 3.7 C 53 % -4.97 C
1686 09-02-2006 17:04:57 3.6 C 54 % -4.82 C
1687 09-02-2006 17:14:57 3.5 C 55 % -4.67 C
1688 09-02-2006 17:24:57 3.5 C 55 % -4.67 C
1689 09-02-2006 17:34:57 3.4 C 55 % -4.77 C
1690 09-02-2006 17:44:57 3.5 C 56 % -4.43 C
1691 09-02-2006 17:54:57 3.4 C 57 % -4.29 C
1692 09-02-2006 18:04:57 3.2 C 59 % -4.02 C
1693 09-02-2006 18:14:57 3.3 C 59 % -3.93 C
1694 09-02-2006 18:24:57 3.4 C 58 % -4.06 C
1695 09-02-2006 18:34:57 3.5 C 57 % -4.2 C
1696 09-02-2006 18:44:57 3.5 C 57 % -4.2 C
1697 09-02-2006 18:54:57 3.5 C 57 % -4.2 C
1698 09-02-2006 19:04:57 3.5 C 57 % -4.2 C
1699 09-02-2006 19:14:57 3.4 C 57 % -4.29 C
1700 09-02-2006 19:24:57 3.5 C 57 % -4.2 C
Sensor: Nr:Datum:Temp:Feuchte:Taupunkt:
Aussen-T/F 1701 09-02-2006 19:34:57 3 C 63 % -3.34 C
1702 09-02-2006 19:44:57 3 C 62 % -3.55 C
1703 09-02-2006 19:54:57 3.2 C 60 % -3.8 C
1704 09-02-2006 20:04:58 3.3 C 58 % -4.16 C
1705 09-02-2006 20:14:58 3.4 C 57 % -4.29 C
1706 09-02-2006 20:24:57 3.5 C 57 % -4.2 C
1707 09-02-2006 20:34:57 3.4 C 58 % -4.06 C
1708 09-02-2006 20:44:57 3.4 C 57 % -4.29 C
1709 09-02-2006 20:54:57 3.5 C 57 % -4.2 C
1710 09-02-2006 21:04:57 3.7 C 56 % -4.25 C
1711 09-02-2006 21:14:57 3.6 C 56 % -4.34 C
1712 09-02-2006 21:24:57 3.8 C 55 % -4.39 C
1713 09-02-2006 21:34:57 3.7 C 56 % -4.25 C
1714 09-02-2006 21:44:57 3.7 C 56 % -4.25 C
1715 09-02-2006 21:54:57 3.6 C 57 % -4.11 C
1716 09-02-2006 22:04:57 3.6 C 57 % -4.11 C
1717 09-02-2006 22:14:57 3.5 C 57 % -4.2 C
1718 09-02-2006 22:24:57 3.6 C 57 % -4.11 C
1719 09-02-2006 22:34:57 3.5 C 57 % -4.2 C
1720 09-02-2006 22:44:57 3.4 C 58 % -4.06 C
1721 09-02-2006 22:54:58 3.4 C 59 % -3.84 C
1722 09-02-2006 23:04:58 3.3 C 60 % -3.71 C
1723 09-02-2006 23:14:58 3.2 C 61 % -3.58 C
1724 09-02-2006 23:24:57 2.9 C 65 % -3.02 C
1725 09-02-2006 23:34:57 2.7 C 67 % -2.8 C
Sensor: Nr:Datum:Temp:Feuchte:Taupunkt:
Aussen-T/F 1726 09-02-2006 23:44:57 2.6 C 70 % -2.31 C
1727 09-02-2006 23:54:57 2.4 C 71 % -2.31 C
1728 10-02-2006 00:04:58 2.6 C 68 % -2.7 C
1729 10-02-2006 00:14:58 2.7 C 65 % -3.21 C
1730 10-02-2006 00:24:58 2.8 C 65 % -3.11 C
1731 10-02-2006 00:34:57 2.9 C 63 % -3.43 C
1732 10-02-2006 00:44:57 2.9 C 63 % -3.43 C
1733 10-02-2006 00:54:58 3 C 62 % -3.55 C
1734 10-02-2006 01:04:58 3.1 C 62 % -3.46 C
1735 10-02-2006 01:14:58 3 C 62 % -3.55 C
1736 10-02-2006 01:24:58 3 C 62 % -3.55 C
1737 10-02-2006 01:34:58 2.8 C 65 % -3.11 C
1738 10-02-2006 01:44:58 2.7 C 66 % -3 C
1739 10-02-2006 01:54:58 2.9 C 64 % -3.22 C
1740 10-02-2006 02:04:58 2.9 C 64 % -3.22 C
1741 10-02-2006 02:14:58 2.9 C 64 % -3.22 C
1742 10-02-2006 02:24:58 2.7 C 65 % -3.21 C
1743 10-02-2006 02:34:58 2.7 C 66 % -3 C
1744 10-02-2006 02:44:58 2.5 C 69 % -2.6 C
1745 10-02-2006 02:55:00 2.4 C 70 % -2.5 C
1746 10-02-2006 03:05:00 2.3 C 71 % -2.4 C
1747 10-02-2006 03:15:59 2.3 C 71 % -2.4 C
1748 10-02-2006 03:25:59 2.1 C 73 % -2.22 C
1749 10-02-2006 03:35:00 2.2 C 73 % -2.13 C
1750 10-02-2006 03:45:00 2.2 C 73 % -2.13 C
Sensor: Nr:Datum:Temp:Feuchte:Taupunkt:
Aussen-T/F 1751 10-02-2006 03:55:00 2.2 C 73 % -2.13 C
1752 10-02-2006 04:15:00 2.3 C 73 % -2.03 C
1753 10-02-2006 04:25:00 2.3 C 72 % -2.22 C
1754 10-02-2006 04:35:00 2.3 C 72 % -2.22 C
1755 10-02-2006 04:45:00 2.6 C 70 % -2.31 C
1756 10-02-2006 04:55:00 2.6 C 70 % -2.31 C
1757 10-02-2006 05:05:00 2.7 C 69 % -2.4 C
1758 10-02-2006 05:15:00 2.7 C 69 % -2.4 C
1759 10-02-2006 05:25:00 2.7 C 69 % -2.4 C
1760 10-02-2006 05:35:00 2.6 C 70 % -2.31 C
1761 10-02-2006 05:45:00 2.6 C 70 % -2.31 C
1762 10-02-2006 05:55:00 2.6 C 70 % -2.31 C
1763 10-02-2006 06:15:00 2.7 C 70 % -2.21 C
1764 10-02-2006 06:15:59 2.6 C 70 % -2.31 C
1765 10-02-2006 06:24:59 2.4 C 72 % -2.12 C
1766 10-02-2006 06:35:00 2.4 C 72 % -2.12 C
1767 10-02-2006 06:45:00 2.5 C 72 % -2.02 C
1768 10-02-2006 06:55:59 2.5 C 72 % -2.02 C
1769 10-02-2006 07:05:00 2.5 C 71 % -2.21 C
1770 10-02-2006 07:15:00 2.5 C 71 % -2.21 C
1771 10-02-2006 07:25:00 2.4 C 70 % -2.5 C
1772 10-02-2006 07:44:59 2.4 C 71 % -2.31 C
1773 10-02-2006 07:45:00 2.3 C 72 % -2.22 C
1774 10-02-2006 07:55:00 2.2 C 72 % -2.31 C
1775 10-02-2006 08:05:00 2.3 C 71 % -2.4 C
Sensor: Nr:Datum:Temp:Feuchte:Taupunkt:
Aussen-T/F 1776 10-02-2006 08:15:00 2.4 C 71 % -2.31 C
1777 10-02-2006 08:25:00 2.4 C 70 % -2.5 C
1778 10-02-2006 08:35:00 2.5 C 71 % -2.21 C
1779 10-02-2006 08:45:00 2.4 C 72 % -2.12 C
1780 10-02-2006 08:55:00 2.3 C 73 % -2.03 C
1781 10-02-2006 09:05:00 2.2 C 73 % -2.13 C
1782 10-02-2006 09:15:00 2.2 C 74 % -1.94 C
1783 10-02-2006 09:25:00 2.1 C 75 % -1.86 C
1784 10-02-2006 09:35:00 2.1 C 75 % -1.86 C
1785 10-02-2006 09:45:00 2 C 76 % -1.77 C
1786 10-02-2006 09:55:00 2.1 C 76 % -1.68 C
1787 10-02-2006 10:05:00 2.1 C 76 % -1.68 C
1788 10-02-2006 10:15:00 2.2 C 76 % -1.58 C
1789 10-02-2006 10:25:00 2.3 C 76 % -1.48 C
1790 10-02-2006 10:35:00 2.3 C 76 % -1.48 C
1791 10-02-2006 10:45:00 2.3 C 76 % -1.48 C
1792 10-02-2006 10:55:00 2.3 C 75 % -1.66 C
1793 10-02-2006 11:05:00 2.2 C 76 % -1.58 C
1794 10-02-2006 11:15:00 2.3 C 76 % -1.48 C
1795 10-02-2006 11:25:01 2.3 C 76 % -1.48 C
1796 10-02-2006 11:35:00 2.4 C 75 % -1.57 C
1797 10-02-2006 11:45:01 2.4 C 75 % -1.57 C
1798 10-02-2006 11:55:01 2.4 C 75 % -1.57 C
1799 10-02-2006 12:05:00 2.4 C 76 % -1.39 C
1800 10-02-2006 12:15:01 2.5 C 75 % -1.47 C
Sensor: Nr:Datum:Temp:Feuchte:Taupunkt:
Aussen-T/F 1801 10-02-2006 12:25:00 2.5 C 74 % -1.65 C
1802 10-02-2006 12:35:00 2.5 C 74 % -1.65 C
1803 10-02-2006 12:45:00 2.5 C 75 % -1.47 C
1804 10-02-2006 12:55:00 2.4 C 75 % -1.57 C
1805 10-02-2006 13:05:00 2.5 C 76 % -1.29 C
1806 10-02-2006 13:15:00 2.4 C 76 % -1.39 C
1807 10-02-2006 13:25:01 2.4 C 75 % -1.57 C
1808 10-02-2006 13:35:01 2.5 C 75 % -1.47 C
1809 10-02-2006 13:45:01 2.6 C 74 % -1.56 C
1810 10-02-2006 13:55:02 2.5 C 74 % -1.65 C
1811 10-02-2006 14:05:02 2.6 C 74 % -1.56 C
1812 10-02-2006 14:15:02 2.6 C 74 % -1.56 C
1813 10-02-2006 14:25:02 2.6 C 73 % -1.74 C
1814 10-02-2006 14:35:02 2.6 C 73 % -1.74 C
1815 10-02-2006 14:45:01 2.5 C 73 % -1.84 C
1816 10-02-2006 14:55:01 2.4 C 74 % -1.75 C
1817 10-02-2006 15:05:01 2.3 C 75 % -1.66 C
1818 10-02-2006 15:15:02 2.2 C 75 % -1.76 C
1819 10-02-2006 15:25:02 2.2 C 76 % -1.58 C
1820 10-02-2006 15:35:02 2.1 C 77 % -1.5 C
1821 10-02-2006 15:45:02 2.1 C 78 % -1.33 C
1822 10-02-2006 15:55:02 2 C 79 % -1.25 C
1823 10-02-2006 16:05:02 2 C 80 % -1.08 C
1824 10-02-2006 16:15:02 1.9 C 81 % -1.01 C
1825 10-02-2006 16:25:02 1.8 C 82 % -0.94 C
Sensor: Nr:Datum:Temp:Feuchte:Taupunkt:
Aussen-T/F 1826 10-02-2006 16:35:02 1.8 C 82 % -0.94 C
1827 10-02-2006 16:45:02 1.8 C 82 % -0.94 C
1828 10-02-2006 16:55:02 1.8 C 82 % -0.94 C
1829 10-02-2006 17:05:03 1.8 C 82 % -0.94 C
1830 10-02-2006 17:15:02 1.8 C 82 % -0.94 C
1831 10-02-2006 17:25:02 1.9 C 82 % -0.84 C
1832 10-02-2006 17:35:02 1.6 C 83 % -0.97 C
1833 10-02-2006 17:45:02 1.6 C 83 % -0.97 C
1834 10-02-2006 17:55:03 1.6 C 83 % -0.97 C
1835 10-02-2006 18:05:02 1.6 C 84 % -0.8 C
1836 10-02-2006 18:15:02 1.6 C 84 % -0.8 C
1837 10-02-2006 18:25:02 1.6 C 84 % -0.8 C
1838 10-02-2006 18:35:02 1.6 C 84 % -0.8 C
1839 10-02-2006 18:45:02 1.6 C 84 % -0.8 C
1840 10-02-2006 18:55:02 1.5 C 84 % -0.9 C
1841 10-02-2006 19:05:02 1.5 C 84 % -0.9 C
1842 10-02-2006 19:15:02 1.5 C 85 % -0.74 C
1843 10-02-2006 19:25:02 2 C 84 % -0.41 C
1844 10-02-2006 19:35:02 1.6 C 85 % -0.64 C
1845 10-02-2006 19:45:02 1.9 C 85 % -0.35 C
1846 10-02-2006 19:55:02 1.9 C 85 % -0.35 C
1847 10-02-2006 20:05:03 1.7 C 84 % -0.71 C
1848 10-02-2006 20:15:02 1.7 C 84 % -0.71 C
1849 10-02-2006 20:25:02 1.7 C 83 % -0.87 C
1850 10-02-2006 20:35:02 1.7 C 83 % -0.87 C
Sensor: Nr:Datum:Temp:Feuchte:Taupunkt:
Aussen-T/F 1851 10-02-2006 20:45:02 1.7 C 83 % -0.87 C
1852 10-02-2006 20:55:02 1.6 C 83 % -0.97 C
1853 10-02-2006 21:05:02 1.5 C 83 % -1.06 C
1854 10-02-2006 21:15:02 1.4 C 83 % -1.16 C
1855 10-02-2006 21:25:02 1.4 C 83 % -1.16 C
1856 10-02-2006 21:35:03 1.3 C 83 % -1.26 C
1857 10-02-2006 21:45:02 1.3 C 83 % -1.26 C
1858 10-02-2006 21:55:02 1.3 C 83 % -1.26 C
1859 10-02-2006 22:05:03 1.3 C 83 % -1.26 C
1860 10-02-2006 22:15:03 1.2 C 83 % -1.36 C
1861 10-02-2006 22:25:03 1 C 83 % -1.55 C
1862 10-02-2006 22:35:02 0.8 C 84 % -1.59 C
1863 10-02-2006 22:45:02 0.7 C 84 % -1.69 C
1864 10-02-2006 22:55:02 0.7 C 85 % -1.53 C
1865 10-02-2006 23:05:02 0.8 C 85 % -1.43 C
1866 10-02-2006 23:15:03 0.7 C 85 % -1.53 C
1867 10-02-2006 23:25:03 0.5 C 85 % -1.72 C
1868 10-02-2006 23:35:02 0.3 C 84 % -2.08 C
1869 10-02-2006 23:45:03 0.3 C 85 % -1.92 C
1870 10-02-2006 23:55:03 0.2 C 86 % -1.86 C
1871 11-02-2006 00:05:03 -0.1 C 85 % -2.31 C
1872 11-02-2006 00:15:03 -0.3 C 85 % -2.51 C
1873 11-02-2006 00:25:03 -0.5 C 85 % -2.71 C
1874 11-02-2006 00:35:03 -0.6 C 85 % -2.8 C
1875 11-02-2006 00:45:03 -0.7 C 86 % -2.74 C
Sensor: Nr:Datum:Temp:Feuchte:Taupunkt:
Aussen-T/F 1876 11-02-2006 00:55:04 -0.9 C 85 % -3.1 C
1877 11-02-2006 01:05:03 -1.1 C 86 % -3.14 C
1878 11-02-2006 01:15:03 -1.2 C 86 % -3.24 C
1879 11-02-2006 01:25:03 -1.4 C 86 % -3.43 C
1880 11-02-2006 01:35:03 -1.4 C 86 % -3.43 C
1881 11-02-2006 01:45:03 -1.5 C 86 % -3.53 C
1882 11-02-2006 01:55:03 -1.5 C 86 % -3.53 C
1883 11-02-2006 02:05:03 -1.4 C 87 % -3.28 C
1884 11-02-2006 02:15:03 -1.4 C 87 % -3.28 C
1885 11-02-2006 02:25:04 -1.6 C 87 % -3.48 C
1886 11-02-2006 02:35:03 -1.6 C 87 % -3.48 C
1887 11-02-2006 02:46:04 -1.6 C 88 % -3.32 C
1888 11-02-2006 02:56:04 -1.5 C 88 % -3.22 C
1889 11-02-2006 03:06:04 -1.6 C 88 % -3.32 C
1890 11-02-2006 03:16:04 -1.8 C 88 % -3.52 C
1891 11-02-2006 03:26:05 -2 C 88 % -3.72 C
1892 11-02-2006 03:36:04 -2 C 88 % -3.72 C
1893 11-02-2006 03:46:04 -1.7 C 89 % -3.27 C
1894 11-02-2006 03:56:04 -1.6 C 89 % -3.17 C
1895 11-02-2006 04:06:04 -1.4 C 90 % -2.82 C
1896 11-02-2006 04:16:04 -1.4 C 90 % -2.82 C
1897 11-02-2006 04:26:04 -1.3 C 90 % -2.73 C
1898 11-02-2006 04:36:04 -1.3 C 90 % -2.73 C
1899 11-02-2006 04:46:04 -1.3 C 90 % -2.73 C
1900 11-02-2006 04:56:04 -1.3 C 90 % -2.73 C
Sensor: Nr:Datum:Temp:Feuchte:Taupunkt:
Aussen-T/F 1901 11-02-2006 05:06:05 -1.4 C 90 % -2.82 C
1902 11-02-2006 05:16:05 -1.3 C 90 % -2.73 C
1903 11-02-2006 05:26:05 -1.2 C 91 % -2.48 C
1904 11-02-2006 05:36:04 -1.2 C 91 % -2.48 C
1905 11-02-2006 05:46:04 -1.1 C 91 % -2.38 C
1906 11-02-2006 05:56:04 -1 C 91 % -2.28 C
1907 11-02-2006 06:06:05 -1 C 91 % -2.28 C
1908 11-02-2006 06:16:04 -1.1 C 91 % -2.38 C
1909 11-02-2006 06:26:04 -1.1 C 91 % -2.38 C
1910 11-02-2006 06:36:04 -1 C 91 % -2.28 C
1911 11-02-2006 06:46:05 -0.9 C 91 % -2.18 C
1912 11-02-2006 06:56:05 -0.9 C 91 % -2.18 C
1913 11-02-2006 07:06:04 -0.9 C 91 % -2.18 C
1914 11-02-2006 07:16:04 -0.8 C 91 % -2.08 C
1915 11-02-2006 07:26:04 -0.8 C 91 % -2.08 C
1916 11-02-2006 07:36:04 -0.7 C 91 % -1.98 C
1917 11-02-2006 07:46:04 -0.6 C 91 % -1.88 C
1918 11-02-2006 07:56:04 -0.6 C 92 % -1.74 C
1919 11-02-2006 08:06:04 -0.6 C 92 % -1.74 C
1920 11-02-2006 08:16:05 -0.5 C 92 % -1.64 C
1921 11-02-2006 08:26:05 -0.4 C 92 % -1.54 C
1922 11-02-2006 08:36:05 -0.3 C 92 % -1.44 C
1923 11-02-2006 08:46:04 -0.2 C 92 % -1.34 C
1924 11-02-2006 08:56:04 -0.1 C 92 % -1.24 C
1925 11-02-2006 09:06:04 0 C 92 % -1.14 C
Sensor: Nr:Datum:Temp:Feuchte:Taupunkt:
Aussen-T/F 1926 11-02-2006 09:16:05 0.1 C 92 % -1.04 C
1927 11-02-2006 09:26:05 0.2 C 92 % -0.94 C
1928 11-02-2006 09:36:05 0.3 C 91 % -0.99 C
1929 11-02-2006 09:46:04 0.4 C 90 % -1.04 C
1930 11-02-2006 09:56:04 0.6 C 89 % -1 C
1931 11-02-2006 10:06:04 0.8 C 87 % -1.11 C
1932 11-02-2006 10:16:04 1 C 85 % -1.23 C
1933 11-02-2006 10:26:04 0.9 C 83 % -1.65 C
1934 11-02-2006 10:36:05 0.8 C 83 % -1.75 C
1935 11-02-2006 10:46:05 1.1 C 83 % -1.46 C
1936 11-02-2006 10:56:05 1.3 C 82 % -1.43 C
1937 11-02-2006 11:06:04 1.2 C 81 % -1.69 C
1938 11-02-2006 11:16:05 1.5 C 81 % -1.4 C
1939 11-02-2006 11:26:05 1.8 C 81 % -1.1 C
1940 11-02-2006 11:36:05 2 C 78 % -1.42 C
1941 11-02-2006 11:46:05 2.3 C 76 % -1.48 C
1942 11-02-2006 11:56:05 2.6 C 76 % -1.19 C
1943 11-02-2006 12:06:05 2.6 C 75 % -1.37 C
1944 11-02-2006 12:16:05 2.6 C 75 % -1.37 C
1945 11-02-2006 12:26:05 2.6 C 74 % -1.56 C
1946 11-02-2006 12:36:06 3 C 73 % -1.35 C
1947 11-02-2006 12:46:06 3.1 C 72 % -1.45 C
1948 11-02-2006 12:56:06 3.1 C 70 % -1.83 C
1949 11-02-2006 13:06:06 3.2 C 68 % -2.12 C
1950 11-02-2006 13:16:05 3.5 C 67 % -2.04 C
Sensor: Nr:Datum:Temp:Feuchte:Taupunkt:
Aussen-T/F 1951 11-02-2006 13:26:05 3.8 C 66 % -1.95 C
1952 11-02-2006 13:36:05 4.2 C 62 % -2.42 C
1953 11-02-2006 13:46:05 4.4 C 61 % -2.45 C
1954 11-02-2006 13:56:05 4.9 C 62 % -1.75 C
1955 11-02-2006 14:06:05 5 C 58 % -2.56 C
1956 11-02-2006 14:16:06 4.7 C 58 % -2.84 C
1957 11-02-2006 14:26:06 4.7 C 59 % -2.61 C
1958 11-02-2006 14:36:06 4.7 C 58 % -2.84 C
1959 11-02-2006 14:46:05 5.1 C 57 % -2.7 C
1960 11-02-2006 14:56:05 5.6 C 55 % -2.71 C
1961 11-02-2006 15:06:05 5.9 C 50 % -3.71 C
1962 11-02-2006 15:16:05 6 C 48 % -4.16 C
1963 11-02-2006 15:26:05 6.2 C 46 % -4.54 C
1964 11-02-2006 15:36:05 5.7 C 46 % -5 C
1965 11-02-2006 15:46:05 5.2 C 47 % -5.17 C
1966 11-02-2006 15:56:05 5.4 C 50 % -4.17 C
1967 11-02-2006 16:06:06 5.4 C 48 % -4.71 C
1968 11-02-2006 16:16:06 5.1 C 48 % -4.99 C
1969 11-02-2006 16:26:06 4.7 C 53 % -4.05 C
1970 11-02-2006 16:36:05 4.5 C 55 % -3.74 C
1971 11-02-2006 16:46:06 4.3 C 56 % -3.69 C
1972 11-02-2006 16:56:06 4 C 56 % -3.97 C
1973 11-02-2006 17:06:05 3.8 C 58 % -3.69 C
1974 11-02-2006 17:16:05 3.6 C 59 % -3.65 C
1975 11-02-2006 17:26:05 3.4 C 59 % -3.84 C
Sensor: Nr:Datum:Temp:Feuchte:Taupunkt:
Aussen-T/F 1976 11-02-2006 17:36:06 3.2 C 60 % -3.8 C
1977 11-02-2006 17:46:05 2.8 C 61 % -3.96 C
1978 11-02-2006 17:56:05 2.7 C 65 % -3.21 C
1979 11-02-2006 18:06:06 2.6 C 68 % -2.7 C
1980 11-02-2006 18:16:06 2.4 C 68 % -2.89 C
1981 11-02-2006 18:26:06 2.2 C 66 % -3.48 C
1982 11-02-2006 18:36:06 2 C 68 % -3.27 C
1983 11-02-2006 18:46:06 2 C 67 % -3.47 C
1984 11-02-2006 18:56:06 2 C 68 % -3.27 C
1985 11-02-2006 19:06:06 2.1 C 68 % -3.17 C
1986 11-02-2006 19:16:06 2.1 C 68 % -3.17 C
1987 11-02-2006 19:26:06 1.8 C 68 % -3.46 C
1988 11-02-2006 19:36:06 1.8 C 69 % -3.27 C
1989 11-02-2006 19:46:06 1.9 C 70 % -2.98 C
1990 11-02-2006 19:56:06 1.8 C 70 % -3.07 C
1991 11-02-2006 20:06:06 1.8 C 70 % -3.07 C
1992 11-02-2006 20:16:05 1.8 C 70 % -3.07 C
1993 11-02-2006 20:26:05 1.8 C 70 % -3.07 C
1994 11-02-2006 20:36:06 2.1 C 69 % -2.98 C
1995 11-02-2006 20:46:06 1.8 C 71 % -2.88 C
1996 11-02-2006 20:56:06 1.8 C 71 % -2.88 C
1997 11-02-2006 21:06:07 1.8 C 71 % -2.88 C
1998 11-02-2006 21:16:06 1.8 C 72 % -2.7 C
1999 11-02-2006 21:26:06 1.7 C 72 % -2.79 C
2000 11-02-2006 21:36:06 1.6 C 72 % -2.89 C
Sensor: Nr:Datum:Temp:Feuchte:Taupunkt:
Aussen-T/F 2001 11-02-2006 21:46:06 1.6 C 72 % -2.89 C
2002 11-02-2006 21:56:06 1.5 C 72 % -2.99 C
2003 11-02-2006 22:06:06 1.5 C 72 % -2.99 C
2004 11-02-2006 22:16:06 1.5 C 72 % -2.99 C
2005 11-02-2006 22:26:06 1.4 C 72 % -3.08 C
2006 11-02-2006 22:36:06 1.4 C 71 % -3.27 C
2007 11-02-2006 22:46:06 1.4 C 70 % -3.46 C
2008 11-02-2006 22:56:06 1.4 C 71 % -3.27 C
2009 11-02-2006 23:06:07 1.3 C 72 % -3.18 C
2010 11-02-2006 23:16:06 1.3 C 71 % -3.36 C
2011 11-02-2006 23:26:06 1.3 C 71 % -3.36 C
2012 11-02-2006 23:36:06 1.3 C 71 % -3.36 C
2013 11-02-2006 23:46:06 1.2 C 71 % -3.46 C
2014 11-02-2006 23:56:06 1.2 C 71 % -3.46 C
2015 12-02-2006 00:06:06 1.2 C 72 % -3.27 C
2016 12-02-2006 00:16:07 1.1 C 72 % -3.37 C
2017 12-02-2006 00:26:07 1.1 C 72 % -3.37 C
2018 12-02-2006 00:36:07 1 C 73 % -3.28 C
2019 12-02-2006 00:46:07 1 C 73 % -3.28 C
2020 12-02-2006 00:56:07 1 C 73 % -3.28 C
2021 12-02-2006 01:06:06 1 C 73 % -3.28 C
2022 12-02-2006 01:16:07 0.9 C 74 % -3.2 C
2023 12-02-2006 01:26:07 0.9 C 74 % -3.2 C
2024 12-02-2006 01:36:07 0.9 C 74 % -3.2 C
2025 12-02-2006 01:46:06 0.8 C 74 % -3.29 C
Sensor: Nr:Datum:Temp:Feuchte:Taupunkt:
Aussen-T/F 2026 12-02-2006 01:56:06 0.8 C 74 % -3.29 C
2027 12-02-2006 02:06:07 0.8 C 74 % -3.29 C
2028 12-02-2006 02:16:06 0.8 C 74 % -3.29 C
2029 12-02-2006 02:26:06 0.7 C 74 % -3.39 C
2030 12-02-2006 02:36:06 0.7 C 74 % -3.39 C
2031 12-02-2006 02:47:08 0.7 C 74 % -3.39 C
2032 12-02-2006 02:57:08 0.6 C 74 % -3.49 C
2033 12-02-2006 03:07:08 0.6 C 75 % -3.31 C
2034 12-02-2006 03:17:08 0.5 C 75 % -3.4 C
2035 12-02-2006 03:27:08 0.5 C 75 % -3.4 C
2036 12-02-2006 03:37:08 0.5 C 75 % -3.4 C
2037 12-02-2006 03:47:08 0.4 C 75 % -3.5 C
2038 12-02-2006 03:57:08 0.5 C 75 % -3.4 C
2039 12-02-2006 04:07:08 0.5 C 75 % -3.4 C
2040 12-02-2006 04:17:08 0.4 C 75 % -3.5 C
2041 12-02-2006 04:27:08 0.4 C 75 % -3.5 C
2042 12-02-2006 04:37:08 0.4 C 75 % -3.5 C
2043 12-02-2006 04:47:08 0.4 C 75 % -3.5 C
2044 12-02-2006 04:57:09 0.4 C 75 % -3.5 C
2045 12-02-2006 05:07:08 0.4 C 75 % -3.5 C
2046 12-02-2006 05:17:08 0.3 C 74 % -3.78 C
2047 12-02-2006 05:27:08 0.3 C 74 % -3.78 C
2048 12-02-2006 05:37:08 0.2 C 74 % -3.87 C
2049 12-02-2006 05:47:08 0.2 C 74 % -3.87 C
2050 12-02-2006 05:57:08 0.2 C 74 % -3.87 C
Sensor: Nr:Datum:Temp:Feuchte:Taupunkt:
Aussen-T/F 2051 12-02-2006 06:07:09 0.2 C 74 % -3.87 C
2052 12-02-2006 06:17:08 0.2 C 75 % -3.69 C
2053 12-02-2006 06:27:08 0.2 C 75 % -3.69 C
2054 12-02-2006 06:37:08 0.2 C 75 % -3.69 C
2055 12-02-2006 06:47:09 0.1 C 75 % -3.79 C
2056 12-02-2006 06:57:09 0.1 C 75 % -3.79 C
2057 12-02-2006 07:07:08 0.2 C 75 % -3.69 C
2058 12-02-2006 07:17:08 0.1 C 75 % -3.79 C
2059 12-02-2006 07:27:08 0.1 C 75 % -3.79 C
2060 12-02-2006 07:37:08 0.1 C 75 % -3.79 C
2061 12-02-2006 07:47:08 0.1 C 75 % -3.79 C
2062 12-02-2006 07:57:08 0.1 C 74 % -3.97 C
2063 12-02-2006 08:07:08 0.1 C 74 % -3.97 C
2064 12-02-2006 08:17:09 0.1 C 74 % -3.97 C
2065 12-02-2006 08:27:09 0.2 C 74 % -3.87 C
2066 12-02-2006 08:37:09 0.3 C 73 % -3.96 C
2067 12-02-2006 08:47:08 0.3 C 72 % -4.14 C
2068 12-02-2006 08:57:08 0.4 C 72 % -4.04 C
2069 12-02-2006 09:07:08 0.5 C 72 % -3.95 C
2070 12-02-2006 09:17:08 0.6 C 71 % -4.04 C
2071 12-02-2006 09:27:08 0.7 C 71 % -3.94 C
2072 12-02-2006 09:37:09 0.7 C 70 % -4.13 C
2073 12-02-2006 09:47:08 0.9 C 70 % -3.94 C
2074 12-02-2006 09:57:08 1.1 C 68 % -4.13 C
2075 12-02-2006 10:07:08 1.2 C 67 % -4.23 C
Sensor: Nr:Datum:Temp:Feuchte:Taupunkt:
Aussen-T/F 2076 12-02-2006 10:17:09 1 C 67 % -4.42 C
2077 12-02-2006 10:27:09 1 C 67 % -4.42 C
2078 12-02-2006 10:37:09 1.1 C 68 % -4.13 C
2079 12-02-2006 10:47:09 1.6 C 66 % -4.05 C
2080 12-02-2006 10:57:09 2 C 61 % -4.71 C
2081 12-02-2006 11:07:09 2.5 C 57 % -5.14 C
2082 12-02-2006 11:17:09 2.6 C 56 % -5.28 C
2083 12-02-2006 11:27:09 2.8 C 55 % -5.33 C
2084 12-02-2006 11:37:09 3 C 52 % -5.87 C
2085 12-02-2006 11:47:09 3.3 C 50 % -6.11 C
2086 12-02-2006 11:57:09 3.4 C 48 % -6.55 C
2087 12-02-2006 12:07:09 3.6 C 46 % -6.92 C
2088 12-02-2006 12:17:08 3.6 C 43 % -7.79 C
2089 12-02-2006 12:27:08 3.7 C 41 % -8.31 C
2090 12-02-2006 12:37:10 3.8 C 41 % -8.22 C
2091 12-02-2006 12:47:08 4 C 40 % -8.35 C
2092 12-02-2006 12:57:08 4.1 C 39 % -8.59 C
2093 12-02-2006 13:07:09 4 C 38 % -9.01 C
2094 12-02-2006 13:17:09 4 C 37 % -9.35 C
2095 12-02-2006 13:27:09 4.3 C 37 % -9.08 C
2096 12-02-2006 13:37:09 4.5 C 35 % -9.6 C
2097 12-02-2006 13:47:09 4.8 C 34 % -9.71 C
2098 12-02-2006 13:57:09 4.5 C 32 % -10.73 C
2099 12-02-2006 14:07:09 5 C 31 % -10.69 C
2100 12-02-2006 14:17:09 5.1 C 28 % -11.87 C
Sensor: Nr:Datum:Temp:Feuchte:Taupunkt:
Aussen-T/F 2101 12-02-2006 14:27:09 5.3 C 26 % -12.62 C
2102 12-02-2006 14:37:09 5.3 C 27 % -12.15 C
2103 12-02-2006 14:47:09 4.7 C 30 % -11.36 C
2104 12-02-2006 14:57:09 4.5 C 32 % -10.73 C
2105 12-02-2006 15:07:09 5.1 C 34 % -9.44 C
2106 12-02-2006 15:17:09 4.7 C 34 % -9.79 C
2107 12-02-2006 15:27:09 5.2 C 33 % -9.73 C
2108 12-02-2006 15:37:09 4.6 C 34 % -9.88 C
2109 12-02-2006 15:47:09 4.5 C 35 % -9.6 C
2110 12-02-2006 15:57:09 4.5 C 36 % -9.25 C
2111 12-02-2006 16:07:09 4.3 C 37 % -9.08 C
2112 12-02-2006 16:17:09 4 C 40 % -8.35 C
2113 12-02-2006 16:27:09 4 C 43 % -7.42 C
2114 12-02-2006 16:37:10 4.1 C 42 % -7.64 C
2115 12-02-2006 16:47:09 4 C 43 % -7.42 C
2116 12-02-2006 16:57:10 3.7 C 45 % -7.11 C
2117 12-02-2006 17:07:09 3.3 C 48 % -6.64 C
2118 12-02-2006 17:17:09 2.9 C 48 % -7.01 C
2119 12-02-2006 17:27:09 2.6 C 49 % -7.02 C
2120 12-02-2006 17:37:10 2.3 C 52 % -6.52 C
2121 12-02-2006 17:47:09 2.3 C 53 % -6.28 C
2122 12-02-2006 17:57:09 2.3 C 53 % -6.28 C
2123 12-02-2006 18:07:09 2.2 C 52 % -6.62 C
2124 12-02-2006 18:17:10 2.2 C 53 % -6.37 C
2125 12-02-2006 18:27:10 2.2 C 52 % -6.62 C
Sensor: Nr:Datum:Temp:Feuchte:Taupunkt:
Aussen-T/F 2126 12-02-2006 18:37:10 2.2 C 52 % -6.62 C
2127 12-02-2006 18:47:10 2.2 C 51 % -6.87 C
2128 12-02-2006 18:57:10 2.2 C 50 % -7.12 C
2129 12-02-2006 19:07:11 2.2 C 51 % -6.87 C
2130 12-02-2006 19:17:09 2 C 50 % -7.31 C
2131 12-02-2006 19:27:09 2.2 C 50 % -7.12 C
2132 12-02-2006 19:37:09 2.2 C 48 % -7.65 C
2133 12-02-2006 19:47:09 1.9 C 50 % -7.4 C
2134 12-02-2006 19:57:09 1.8 C 51 % -7.24 C
2135 12-02-2006 20:07:10 1.6 C 51 % -7.42 C
2136 12-02-2006 20:17:10 1.5 C 50 % -7.77 C
2137 12-02-2006 20:27:10 1.3 C 52 % -7.45 C
2138 12-02-2006 20:37:10 1 C 53 % -7.48 C
2139 12-02-2006 20:47:10 0.7 C 56 % -7.05 C
2140 12-02-2006 20:57:11 0.5 C 58 % -6.79 C
2141 12-02-2006 21:07:10 0.3 C 58 % -6.97 C
2142 12-02-2006 21:17:09 0.2 C 59 % -6.85 C
2143 12-02-2006 21:27:09 0.2 C 58 % -7.07 C
2144 12-02-2006 21:37:10 0.1 C 58 % -7.16 C
2145 12-02-2006 21:47:10 0 C 59 % -7.04 C
2146 12-02-2006 21:57:10 -0.1 C 59 % -7.14 C
2147 12-02-2006 22:07:10 -0.1 C 59 % -7.14 C
2148 12-02-2006 22:17:10 -0.3 C 59 % -7.33 C
2149 12-02-2006 22:27:10 -0.2 C 59 % -7.23 C
2150 12-02-2006 22:37:10 -0.4 C 59 % -7.42 C
Sensor: Nr:Datum:Temp:Feuchte:Taupunkt:
Aussen-T/F 2151 12-02-2006 22:47:10 -0.5 C 59 % -7.52 C
2152 12-02-2006 22:57:10 -0.4 C 60 % -7.2 C
2153 12-02-2006 23:07:09 -0.5 C 61 % -7.08 C
2154 12-02-2006 23:17:10 -0.7 C 61 % -7.27 C
2155 12-02-2006 23:27:10 -0.7 C 62 % -7.06 C
2156 12-02-2006 23:37:10 -0.6 C 63 % -6.76 C
2157 12-02-2006 23:47:10 -0.4 C 62 % -6.78 C
2158 12-02-2006 23:57:10 0 C 62 % -6.39 C
2159 13-02-2006 00:07:10 0.1 C 61 % -6.51 C
2160 13-02-2006 00:17:11 0.1 C 61 % -6.51 C
2161 13-02-2006 00:27:11 0.3 C 60 % -6.53 C
2162 13-02-2006 00:37:11 0.3 C 61 % -6.32 C
2163 13-02-2006 00:47:11 0.5 C 59 % -6.56 C
2164 13-02-2006 00:57:11 0.5 C 59 % -6.56 C
2165 13-02-2006 01:07:10 0.6 C 60 % -6.25 C
2166 13-02-2006 01:17:11 0.5 C 60 % -6.35 C
2167 13-02-2006 01:27:11 0.5 C 60 % -6.35 C
2168 13-02-2006 01:37:11 0.5 C 59 % -6.56 C
2169 13-02-2006 01:47:10 0.4 C 59 % -6.66 C
2170 13-02-2006 01:57:10 0.3 C 61 % -6.32 C
2171 13-02-2006 02:07:10 0.3 C 61 % -6.32 C
2172 13-02-2006 02:17:10 0.2 C 60 % -6.63 C
2173 13-02-2006 02:27:10 0.2 C 60 % -6.63 C
2174 13-02-2006 02:37:10 0.4 C 58 % -6.88 C
2175 13-02-2006 02:48:12 0.4 C 58 % -6.88 C
Sensor: Nr:Datum:Temp:Feuchte:Taupunkt:
Aussen-T/F 2176 13-02-2006 02:58:12 0.4 C 58 % -6.88 C
2177 13-02-2006 03:08:12 0.4 C 58 % -6.88 C
2178 13-02-2006 03:18:12 0.5 C 57 % -7.01 C
2179 13-02-2006 03:28:12 0.5 C 57 % -7.01 C
2180 13-02-2006 03:38:12 0.5 C 57 % -7.01 C
2181 13-02-2006 03:48:12 0.5 C 57 % -7.01 C
2182 13-02-2006 03:58:13 0.5 C 57 % -7.01 C
2183 13-02-2006 04:08:12 0.5 C 57 % -7.01 C
2184 13-02-2006 04:18:12 0.4 C 59 % -6.66 C
2185 13-02-2006 04:28:12 0.4 C 58 % -6.88 C
2186 13-02-2006 04:38:12 0.4 C 58 % -6.88 C
2187 13-02-2006 04:48:13 0.4 C 58 % -6.88 C
2188 13-02-2006 04:58:13 0.4 C 59 % -6.66 C
2189 13-02-2006 05:08:13 0.4 C 58 % -6.88 C
2190 13-02-2006 05:18:12 0.4 C 58 % -6.88 C
2191 13-02-2006 05:28:12 0.4 C 59 % -6.66 C
2192 13-02-2006 05:38:12 0.4 C 60 % -6.44 C
2193 13-02-2006 05:48:12 0.4 C 61 % -6.23 C
2194 13-02-2006 05:58:12 0.3 C 62 % -6.11 C
2195 13-02-2006 06:08:12 0.3 C 62 % -6.11 C
2196 13-02-2006 06:18:13 0.2 C 63 % -5.99 C
2197 13-02-2006 06:28:13 0.2 C 63 % -5.99 C
2198 13-02-2006 06:38:12 0.1 C 63 % -6.09 C
2199 13-02-2006 06:48:12 0.1 C 63 % -6.09 C
2200 13-02-2006 06:58:12 0.1 C 63 % -6.09 C
Sensor: Nr:Datum:Temp:Feuchte:Taupunkt:
Aussen-T/F 2201 13-02-2006 07:08:12 0.1 C 64 % -5.88 C
2202 13-02-2006 07:18:12 0.1 C 63 % -6.09 C
2203 13-02-2006 07:28:12 0 C 63 % -6.18 C
2204 13-02-2006 07:38:12 0 C 63 % -6.18 C
2205 13-02-2006 07:48:12 0 C 63 % -6.18 C
2206 13-02-2006 07:58:12 0.1 C 63 % -6.09 C
2207 13-02-2006 08:08:12 0.1 C 61 % -6.51 C
2208 13-02-2006 08:18:13 0.2 C 59 % -6.85 C
2209 13-02-2006 08:28:13 0.3 C 59 % -6.75 C
2210 13-02-2006 08:38:13 0.4 C 59 % -6.66 C
2211 13-02-2006 08:48:13 0.5 C 58 % -6.79 C
2212 13-02-2006 08:58:13 0.6 C 57 % -6.92 C
2213 13-02-2006 09:08:17 0.7 C 57 % -6.82 C
2214 13-02-2006 09:18:40 0.8 C 56 % -6.96 C
2215 13-02-2006 09:28:12 0.8 C 56 % -6.96 C
2216 13-02-2006 09:38:13 1 C 55 % -7.01 C
2217 13-02-2006 09:48:12 1.3 C 55 % -6.73 C
2218 13-02-2006 09:58:12 1.4 C 53 % -7.11 C
2219 13-02-2006 10:08:13 1.5 C 52 % -7.27 C
2220 13-02-2006 10:18:31 1.6 C 52 % -7.17 C
2221 13-02-2006 10:28:13 1.6 C 51 % -7.42 C
2222 13-02-2006 10:38:12 1.8 C 51 % -7.24 C
2223 13-02-2006 10:48:12 1.8 C 50 % -7.49 C
2224 13-02-2006 10:58:12 2.3 C 49 % -7.29 C
2225 13-02-2006 11:08:12 2.4 C 47 % -7.74 C
Sensor: Nr:Datum:Temp:Feuchte:Taupunkt:
Aussen-T/F 2226 13-02-2006 11:18:13 2.5 C 47 % -7.65 C
2227 13-02-2006 11:28:13 2.8 C 46 % -7.65 C
2228 13-02-2006 11:38:13 3.1 C 45 % -7.66 C
2229 13-02-2006 11:48:13 3.7 C 43 % -7.7 C
2230 13-02-2006 11:58:13 3.9 C 42 % -7.82 C
2231 13-02-2006 12:08:13 4 C 41 % -8.04 C
2232 13-02-2006 12:18:13 4.1 C 40 % -8.26 C
2233 13-02-2006 12:28:13 4.2 C 40 % -8.17 C
2234 13-02-2006 12:38:12 4.3 C 40 % -8.08 C
2235 13-02-2006 12:48:13 4.3 C 40 % -8.08 C
2236 13-02-2006 12:58:13 4.7 C 40 % -7.72 C
2237 13-02-2006 13:08:13 4.8 C 40 % -7.63 C
2238 13-02-2006 13:18:13 4.6 C 40 % -7.81 C
2239 13-02-2006 13:28:13 5.1 C 40 % -7.36 C
2240 13-02-2006 13:38:13 5.3 C 38 % -7.84 C
2241 13-02-2006 13:48:13 5.6 C 38 % -7.57 C
2242 13-02-2006 13:58:13 6.1 C 37 % -7.47 C
2243 13-02-2006 14:08:13 6.4 C 36 % -7.56 C
2244 13-02-2006 14:18:13 6.5 C 36 % -7.47 C
2245 13-02-2006 14:28:13 7 C 36 % -7.02 C
2246 13-02-2006 14:38:13 6.6 C 35 % -7.74 C
2247 13-02-2006 14:48:13 6.8 C 35 % -7.57 C
2248 13-02-2006 14:58:13 7.1 C 35 % -7.3 C
2249 13-02-2006 15:08:13 7.3 C 35 % -7.12 C
2250 13-02-2006 15:18:13 7.7 C 35 % -6.77 C
Sensor: Nr:Datum:Temp:Feuchte:Taupunkt:
Aussen-T/F 2251 13-02-2006 15:28:13 7.8 C 34 % -7.06 C
2252 13-02-2006 15:38:13 7.9 C 34 % -6.97 C
2253 13-02-2006 15:48:13 7.8 C 33 % -7.44 C
2254 13-02-2006 15:58:13 7.8 C 33 % -7.44 C
2255 13-02-2006 16:08:13 7.6 C 35 % -6.86 C
2256 13-02-2006 16:18:13 6.9 C 35 % -7.48 C
2257 13-02-2006 16:28:13 6.4 C 37 % -7.2 C
2258 13-02-2006 16:38:13 6.1 C 39 % -6.79 C
2259 13-02-2006 16:48:13 5.8 C 40 % -6.73 C
2260 13-02-2006 16:58:13 5.6 C 41 % -6.59 C
2261 13-02-2006 17:08:13 5.3 C 41 % -6.86 C
2262 13-02-2006 17:18:13 5.2 C 42 % -6.64 C
2263 13-02-2006 17:28:13 4.7 C 44 % -6.49 C
2264 13-02-2006 17:38:14 4.4 C 45 % -6.47 C
2265 13-02-2006 17:48:14 4.2 C 45 % -6.65 C
2266 13-02-2006 17:58:14 4 C 45 % -6.84 C
2267 13-02-2006 18:08:14 3.8 C 47 % -6.45 C
2268 13-02-2006 18:18:13 3.7 C 47 % -6.55 C
2269 13-02-2006 18:28:13 3.6 C 48 % -6.36 C
2270 13-02-2006 18:38:13 3.5 C 48 % -6.46 C
2271 13-02-2006 18:48:14 3.3 C 48 % -6.64 C
2272 13-02-2006 18:58:14 3.2 C 49 % -6.46 C
2273 13-02-2006 19:08:14 3.2 C 49 % -6.46 C
2274 13-02-2006 19:18:14 3.1 C 50 % -6.29 C
2275 13-02-2006 19:28:14 3 C 50 % -6.39 C
Sensor: Nr:Datum:Temp:Feuchte:Taupunkt:
Aussen-T/F 2276 13-02-2006 19:38:13 3.1 C 49 % -6.56 C
2277 13-02-2006 19:48:13 3.1 C 49 % -6.56 C
2278 13-02-2006 19:58:13 3.1 C 50 % -6.29 C
2279 13-02-2006 20:08:13 3.1 C 49 % -6.56 C
2280 13-02-2006 20:18:14 3.2 C 49 % -6.46 C
2281 13-02-2006 20:28:14 3.2 C 49 % -6.46 C
2282 13-02-2006 20:38:14 3.2 C 50 % -6.2 C
2283 13-02-2006 20:48:14 3.2 C 51 % -5.94 C
2284 13-02-2006 20:58:14 3.1 C 52 % -5.78 C
2285 13-02-2006 21:08:14 3.1 C 53 % -5.53 C
2286 13-02-2006 21:18:14 3.1 C 52 % -5.78 C
2287 13-02-2006 21:28:14 3.1 C 51 % -6.03 C
2288 13-02-2006 21:38:13 3.1 C 50 % -6.29 C
2289 13-02-2006 21:48:14 3.1 C 50 % -6.29 C
2290 13-02-2006 21:58:14 3.1 C 51 % -6.03 C
2291 13-02-2006 22:08:13 3.1 C 53 % -5.53 C
2292 13-02-2006 22:18:14 3.1 C 52 % -5.78 C
2293 13-02-2006 22:28:14 3.1 C 52 % -5.78 C
2294 13-02-2006 22:38:14 3.1 C 53 % -5.53 C
2295 13-02-2006 22:48:14 3.1 C 55 % -5.05 C
2296 13-02-2006 22:58:14 2.9 C 57 % -4.76 C
2297 13-02-2006 23:08:14 2.8 C 58 % -4.63 C
2298 13-02-2006 23:18:14 2.9 C 58 % -4.53 C
2299 13-02-2006 23:28:14 2.9 C 59 % -4.31 C
2300 13-02-2006 23:38:14 2.9 C 60 % -4.08 C
Sensor: Nr:Datum:Temp:Feuchte:Taupunkt:
Aussen-T/F 2301 13-02-2006 23:48:14 2.8 C 59 % -4.4 C
2302 13-02-2006 23:58:14 2.9 C 60 % -4.08 C
2303 14-02-2006 00:08:14 2.9 C 59 % -4.31 C
2304 14-02-2006 00:18:14 2.9 C 59 % -4.31 C
2305 14-02-2006 00:28:14 2.8 C 60 % -4.18 C
2306 14-02-2006 00:38:14 2.8 C 61 % -3.96 C
2307 14-02-2006 00:48:15 2.8 C 62 % -3.74 C
2308 14-02-2006 00:58:15 2.8 C 61 % -3.96 C
2309 14-02-2006 01:08:14 2.8 C 61 % -3.96 C
2310 14-02-2006 01:18:14 2.7 C 62 % -3.84 C
2311 14-02-2006 01:28:14 2.7 C 63 % -3.62 C
2312 14-02-2006 01:38:14 2.7 C 63 % -3.62 C
2313 14-02-2006 01:48:14 2.6 C 63 % -3.72 C
2314 14-02-2006 01:58:14 2.7 C 63 % -3.62 C
2315 14-02-2006 02:08:14 2.7 C 63 % -3.62 C
2316 14-02-2006 02:18:14 2.6 C 64 % -3.51 C
2317 14-02-2006 02:28:14 2.7 C 65 % -3.21 C
2318 14-02-2006 02:38:14 2.6 C 65 % -3.3 C
2319 14-02-2006 02:49:15 2.6 C 65 % -3.3 C
2320 14-02-2006 02:59:15 2.6 C 65 % -3.3 C
2321 14-02-2006 03:09:15 2.6 C 65 % -3.3 C
2322 14-02-2006 03:19:16 2.6 C 66 % -3.1 C
2323 14-02-2006 03:29:16 2.6 C 67 % -2.9 C
2324 14-02-2006 03:39:16 2.6 C 66 % -3.1 C
2325 14-02-2006 03:49:16 2.6 C 66 % -3.1 C
Sensor: Nr:Datum:Temp:Feuchte:Taupunkt:
Aussen-T/F 2326 14-02-2006 03:59:16 2.6 C 67 % -2.9 C
2327 14-02-2006 04:09:16 2.5 C 67 % -2.99 C
2328 14-02-2006 04:19:16 2.5 C 67 % -2.99 C
2329 14-02-2006 04:29:16 2.6 C 67 % -2.9 C
2330 14-02-2006 04:39:16 2.6 C 67 % -2.9 C
2331 14-02-2006 04:49:16 2.5 C 66 % -3.19 C
2332 14-02-2006 04:59:16 2.5 C 66 % -3.19 C
2333 14-02-2006 05:09:16 2.5 C 67 % -2.99 C
2334 14-02-2006 05:19:16 2.5 C 66 % -3.19 C
2335 14-02-2006 05:29:16 2.5 C 66 % -3.19 C
2336 14-02-2006 05:39:16 2.5 C 66 % -3.19 C
2337 14-02-2006 05:49:16 2.5 C 66 % -3.19 C
2338 14-02-2006 05:59:16 2.5 C 66 % -3.19 C
2339 14-02-2006 06:09:16 2.5 C 67 % -2.99 C
2340 14-02-2006 06:19:16 2.5 C 67 % -2.99 C
2341 14-02-2006 06:29:16 2.5 C 66 % -3.19 C
2342 14-02-2006 06:39:16 2.5 C 66 % -3.19 C
2343 14-02-2006 06:49:16 2.5 C 66 % -3.19 C
2344 14-02-2006 06:59:16 2.5 C 65 % -3.4 C
2345 14-02-2006 07:09:17 2.6 C 65 % -3.3 C
2346 14-02-2006 07:19:17 2.6 C 65 % -3.3 C
2347 14-02-2006 07:29:17 2.5 C 66 % -3.19 C
2348 14-02-2006 07:39:16 2.5 C 66 % -3.19 C
2349 14-02-2006 07:49:16 2.6 C 67 % -2.9 C
2350 14-02-2006 07:59:16 2.6 C 67 % -2.9 C
Sensor: Nr:Datum:Temp:Feuchte:Taupunkt:
Aussen-T/F 2351 14-02-2006 08:09:17 2.6 C 67 % -2.9 C
2352 14-02-2006 08:19:16 2.7 C 67 % -2.8 C
2353 14-02-2006 08:29:16 2.8 C 66 % -2.91 C
2354 14-02-2006 08:39:16 3 C 65 % -2.92 C
2355 14-02-2006 08:49:16 3.1 C 65 % -2.83 C
2356 14-02-2006 08:59:17 3.2 C 65 % -2.73 C
2357 14-02-2006 09:09:16 3.3 C 65 % -2.64 C
2358 14-02-2006 09:19:16 3.3 C 65 % -2.64 C
2359 14-02-2006 09:29:16 3.4 C 65 % -2.54 C
2360 14-02-2006 09:39:17 3.5 C 65 % -2.44 C
2361 14-02-2006 09:49:16 3.5 C 65 % -2.44 C
2362 14-02-2006 09:59:16 3.6 C 64 % -2.56 C
2363 14-02-2006 10:09:17 3.7 C 64 % -2.46 C
2364 14-02-2006 10:19:17 3.8 C 64 % -2.37 C
2365 14-02-2006 10:29:17 3.9 C 63 % -2.49 C
2366 14-02-2006 10:39:16 4 C 63 % -2.39 C
2367 14-02-2006 10:49:16 4.2 C 63 % -2.2 C
2368 14-02-2006 10:59:16 4.5 C 63 % -1.92 C
2369 14-02-2006 11:09:16 4.6 C 62 % -2.04 C
2370 14-02-2006 11:19:17 4.7 C 62 % -1.94 C
2371 14-02-2006 11:29:17 4.7 C 62 % -1.94 C
2372 14-02-2006 11:39:17 4.8 C 62 % -1.85 C
2373 14-02-2006 11:49:17 5 C 61 % -1.88 C
2374 14-02-2006 11:59:17 5.2 C 61 % -1.69 C
2375 14-02-2006 12:09:17 5.4 C 61 % -1.5 C
Sensor: Nr:Datum:Temp:Feuchte:Taupunkt:
Aussen-T/F 2376 14-02-2006 12:19:17 5.5 C 61 % -1.41 C
2377 14-02-2006 12:29:17 5.7 C 60 % -1.44 C
2378 14-02-2006 12:39:16 5.8 C 60 % -1.35 C
2379 14-02-2006 12:49:17 5.8 C 60 % -1.35 C
2380 14-02-2006 12:59:17 5.9 C 60 % -1.26 C
2381 14-02-2006 13:09:16 5.9 C 58 % -1.72 C
2382 14-02-2006 13:19:17 6.1 C 58 % -1.53 C
2383 14-02-2006 13:29:17 6.2 C 58 % -1.43 C
2384 14-02-2006 13:39:17 6.4 C 58 % -1.25 C
2385 14-02-2006 13:49:17 6.6 C 58 % -1.06 C
2386 14-02-2006 13:59:17 6.3 C 58 % -1.34 C
2387 14-02-2006 14:09:17 6.5 C 59 % -0.92 C
2388 14-02-2006 14:19:17 6.9 C 59 % -0.54 C
2389 14-02-2006 14:29:17 6.8 C 57 % -1.11 C
2390 14-02-2006 14:39:17 6.9 C 57 % -1.01 C
2391 14-02-2006 14:49:17 6.9 C 58 % -0.78 C
2392 14-02-2006 14:59:17 6.9 C 58 % -0.78 C
2393 14-02-2006 15:09:17 6.8 C 57 % -1.11 C
2394 14-02-2006 15:19:17 6.8 C 57 % -1.11 C
2395 14-02-2006 15:29:17 6.5 C 58 % -1.15 C
2396 14-02-2006 15:39:17 6.4 C 59 % -1.01 C
2397 14-02-2006 15:49:17 6.4 C 60 % -0.78 C
2398 14-02-2006 15:59:17 6.5 C 60 % -0.69 C
2399 14-02-2006 16:09:17 6.6 C 60 % -0.6 C
2400 14-02-2006 16:19:17 6.5 C 60 % -0.69 C
Sensor: Nr:Datum:Temp:Feuchte:Taupunkt:
Aussen-T/F 2401 14-02-2006 16:29:17 6.4 C 60 % -0.78 C
2402 14-02-2006 16:39:17 6.2 C 61 % -0.75 C
2403 14-02-2006 16:49:17 6 C 61 % -0.94 C
2404 14-02-2006 16:59:17 5.8 C 62 % -0.9 C
2405 14-02-2006 17:09:17 5.7 C 63 % -0.78 C
2406 14-02-2006 17:19:18 5.6 C 63 % -0.87 C
2407 14-02-2006 17:29:18 5.3 C 64 % -0.94 C
2408 14-02-2006 17:39:17 5 C 65 % -1.02 C
2409 14-02-2006 17:49:18 4.8 C 67 % -0.8 C
2410 14-02-2006 17:59:18 4.8 C 67 % -0.8 C
2411 14-02-2006 18:09:18 4.8 C 68 % -0.59 C
2412 14-02-2006 18:19:17 4.8 C 68 % -0.59 C
2413 14-02-2006 18:29:18 4.9 C 69 % -0.3 C
2414 14-02-2006 18:39:17 5 C 68 % -0.4 C
2415 14-02-2006 18:49:17 5 C 68 % -0.4 C
2416 14-02-2006 18:59:17 5 C 69 % -0.2 C
2417 14-02-2006 19:09:17 5 C 69 % -0.2 C
2418 14-02-2006 19:19:18 5.1 C 70 % 0.09 C
2419 14-02-2006 19:29:18 5.1 C 70 % 0.09 C
2420 14-02-2006 19:39:18 5 C 70 % 0 C
2421 14-02-2006 19:49:18 4.8 C 72 % 0.19 C
2422 14-02-2006 19:59:18 4.9 C 72 % 0.29 C
2423 14-02-2006 20:09:18 5 C 71 % 0.19 C
2424 14-02-2006 20:19:17 5.1 C 70 % 0.09 C
2425 14-02-2006 20:29:17 5.1 C 70 % 0.09 C
Sensor: Nr:Datum:Temp:Feuchte:Taupunkt:
Aussen-T/F 2426 14-02-2006 20:39:17 5.1 C 70 % 0.09 C
2427 14-02-2006 20:49:17 5.1 C 70 % 0.09 C
2428 14-02-2006 20:59:17 5 C 70 % 0 C
2429 14-02-2006 21:09:18 5 C 70 % 0 C
2430 14-02-2006 21:19:18 4.8 C 72 % 0.19 C
2431 14-02-2006 21:29:18 4.8 C 72 % 0.19 C
2432 14-02-2006 21:39:18 4.6 C 74 % 0.38 C
2433 14-02-2006 21:49:18 4.5 C 75 % 0.46 C
2434 14-02-2006 21:59:18 4.3 C 79 % 0.99 C
2435 14-02-2006 22:09:18 4.3 C 80 % 1.16 C
2436 14-02-2006 22:19:18 4.4 C 81 % 1.43 C
2437 14-02-2006 22:29:18 4.4 C 81 % 1.43 C
2438 14-02-2006 22:39:17 4.4 C 82 % 1.6 C
2439 14-02-2006 22:49:18 4.4 C 83 % 1.77 C
2440 14-02-2006 22:59:18 4.4 C 83 % 1.77 C
2441 14-02-2006 23:09:17 4.4 C 83 % 1.77 C
2442 14-02-2006 23:19:18 4.2 C 84 % 1.74 C
2443 14-02-2006 23:29:18 4.2 C 85 % 1.91 C
2444 14-02-2006 23:39:18 4.4 C 86 % 2.27 C
2445 14-02-2006 23:49:18 4.4 C 86 % 2.27 C
2446 14-02-2006 23:59:18 4.5 C 86 % 2.37 C
2447 15-02-2006 00:09:18 4.5 C 86 % 2.37 C
2448 15-02-2006 00:19:18 4.5 C 86 % 2.37 C
2449 15-02-2006 00:29:18 4.5 C 86 % 2.37 C
2450 15-02-2006 00:39:18 4.5 C 86 % 2.37 C
Sensor: Nr:Datum:Temp:Feuchte:Taupunkt:
Aussen-T/F 2451 15-02-2006 00:49:18 4.5 C 86 % 2.37 C
2452 15-02-2006 00:59:18 4.5 C 86 % 2.37 C
2453 15-02-2006 01:09:18 4.4 C 86 % 2.27 C
2454 15-02-2006 01:19:18 4.3 C 86 % 2.17 C
2455 15-02-2006 01:29:18 4.7 C 88 % 2.89 C
2456 15-02-2006 01:39:18 4.9 C 88 % 3.08 C
2457 15-02-2006 01:49:18 5 C 86 % 2.86 C
2458 15-02-2006 01:59:18 5 C 85 % 2.69 C
2459 15-02-2006 02:09:18 4.8 C 86 % 2.66 C
2460 15-02-2006 02:19:18 4.6 C 85 % 2.3 C
2461 15-02-2006 02:29:18 4.3 C 85 % 2.01 C
2462 15-02-2006 02:39:18 3.8 C 86 % 1.68 C
2463 15-02-2006 02:50:20 3.7 C 86 % 1.58 C
2464 15-02-2006 03:00:20 3.7 C 87 % 1.74 C
2465 15-02-2006 03:10:20 3.4 C 87 % 1.45 C
2466 15-02-2006 03:20:20 3.3 C 87 % 1.35 C
2467 15-02-2006 03:30:20 3.6 C 88 % 1.8 C
2468 15-02-2006 03:40:20 3.8 C 88 % 2 C
2469 15-02-2006 03:50:20 4.1 C 88 % 2.3 C
2470 15-02-2006 04:00:20 4.4 C 88 % 2.59 C
2471 15-02-2006 04:10:20 4.3 C 88 % 2.49 C
2472 15-02-2006 04:20:20 4.4 C 88 % 2.59 C
2473 15-02-2006 04:30:20 4.4 C 87 % 2.43 C
2474 15-02-2006 04:40:21 4.3 C 87 % 2.33 C
2475 15-02-2006 04:50:20 4.4 C 87 % 2.43 C
Sensor: Nr:Datum:Temp:Feuchte:Taupunkt:
Aussen-T/F 2476 15-02-2006 05:00:20 4.5 C 86 % 2.37 C
2477 15-02-2006 05:10:20 4.6 C 84 % 2.14 C
2478 15-02-2006 05:20:20 4.6 C 84 % 2.14 C
2479 15-02-2006 05:30:20 4.6 C 83 % 1.97 C
2480 15-02-2006 05:40:20 4.6 C 83 % 1.97 C
2481 15-02-2006 05:50:20 4.5 C 83 % 1.87 C
2482 15-02-2006 06:00:20 4.4 C 82 % 1.6 C
2483 15-02-2006 06:10:20 4.3 C 82 % 1.51 C
2484 15-02-2006 06:20:20 4.3 C 83 % 1.67 C
2485 15-02-2006 06:30:20 4.4 C 83 % 1.77 C
2486 15-02-2006 06:40:20 4.5 C 83 % 1.87 C
2487 15-02-2006 06:50:20 4.6 C 83 % 1.97 C
2488 15-02-2006 07:00:20 4.9 C 82 % 2.09 C
2489 15-02-2006 07:10:20 5 C 80 % 1.84 C
2490 15-02-2006 07:20:20 5.1 C 79 % 1.77 C
2491 15-02-2006 07:30:20 5.2 C 79 % 1.86 C
2492 15-02-2006 07:40:20 5.3 C 79 % 1.96 C
2493 15-02-2006 07:50:20 5.3 C 78 % 1.78 C
2494 15-02-2006 08:00:20 5.4 C 78 % 1.88 C
2495 15-02-2006 08:10:20 5.5 C 77 % 1.8 C
2496 15-02-2006 08:20:21 5.5 C 77 % 1.8 C
2497 15-02-2006 08:30:21 5.6 C 76 % 1.71 C
2498 15-02-2006 08:40:20 5.7 C 76 % 1.81 C
2499 15-02-2006 08:50:20 5.4 C 78 % 1.88 C
2500 15-02-2006 09:00:20 5.3 C 80 % 2.14 C
Sensor: Nr:Datum:Temp:Feuchte:Taupunkt:
Aussen-T/F 2501 15-02-2006 09:10:21 5.2 C 82 % 2.39 C
2502 15-02-2006 09:20:20 5.1 C 83 % 2.46 C
2503 15-02-2006 09:30:20 5.1 C 84 % 2.63 C
2504 15-02-2006 09:40:20 5.2 C 84 % 2.72 C
2505 15-02-2006 09:50:21 5.2 C 84 % 2.72 C
2506 15-02-2006 10:00:21 5.2 C 84 % 2.72 C
2507 15-02-2006 10:10:20 5.1 C 84 % 2.63 C
2508 15-02-2006 10:20:20 5.1 C 85 % 2.79 C
2509 15-02-2006 10:30:20 5.1 C 84 % 2.63 C
2510 15-02-2006 10:40:21 5.2 C 84 % 2.72 C
2511 15-02-2006 10:50:20 5.3 C 83 % 2.65 C
2512 15-02-2006 11:00:20 5.3 C 83 % 2.65 C
2513 15-02-2006 11:10:21 5.4 C 83 % 2.75 C
2514 15-02-2006 11:20:21 5.6 C 83 % 2.95 C
2515 15-02-2006 11:30:21 5.8 C 82 % 2.97 C
2516 15-02-2006 11:40:20 6 C 82 % 3.17 C
2517 15-02-2006 11:50:21 6.1 C 81 % 3.09 C
2518 15-02-2006 12:00:21 6.2 C 81 % 3.19 C
2519 15-02-2006 12:10:21 5.9 C 81 % 2.9 C
2520 15-02-2006 12:20:20 5.9 C 81 % 2.9 C
2521 15-02-2006 12:30:20 5.9 C 81 % 2.9 C
2522 15-02-2006 12:40:20 6 C 79 % 2.64 C
2523 15-02-2006 12:50:20 6 C 78 % 2.46 C
2524 15-02-2006 13:00:20 6.1 C 77 % 2.38 C
2525 15-02-2006 13:10:21 6.3 C 74 % 2.02 C
Sensor: Nr:Datum:Temp:Feuchte:Taupunkt:
Aussen-T/F 2526 15-02-2006 13:20:21 6.3 C 74 % 2.02 C
2527 15-02-2006 13:30:21 6.4 C 73 % 1.92 C
2528 15-02-2006 13:40:21 6.8 C 72 % 2.12 C
2529 15-02-2006 13:50:21 6.8 C 72 % 2.12 C
2530 15-02-2006 14:00:21 7.2 C 70 % 2.11 C
2531 15-02-2006 14:10:21 7.4 C 68 % 1.89 C
2532 15-02-2006 14:20:20 7.6 C 67 % 1.88 C
2533 15-02-2006 14:30:20 8.1 C 64 % 1.71 C
2534 15-02-2006 14:40:21 8.5 C 62 % 1.65 C
2535 15-02-2006 14:50:21 8.7 C 62 % 1.84 C
2536 15-02-2006 15:00:21 8.7 C 61 % 1.61 C
2537 15-02-2006 15:10:21 8.9 C 61 % 1.8 C
2538 15-02-2006 15:20:21 9 C 59 % 1.43 C
2539 15-02-2006 15:30:21 9.1 C 59 % 1.52 C
2540 15-02-2006 15:40:21 9 C 59 % 1.43 C
2541 15-02-2006 15:50:21 8.9 C 61 % 1.8 C
2542 15-02-2006 16:00:21 8.6 C 63 % 1.97 C
2543 15-02-2006 16:10:21 8.9 C 63 % 2.25 C
2544 15-02-2006 16:20:21 8.9 C 64 % 2.47 C
2545 15-02-2006 16:30:21 8.6 C 64 % 2.19 C
2546 15-02-2006 16:40:21 8.2 C 66 % 2.24 C
2547 15-02-2006 16:50:21 8.1 C 68 % 2.56 C
2548 15-02-2006 17:00:21 8 C 69 % 2.67 C
2549 15-02-2006 17:10:22 7.9 C 71 % 2.98 C
2550 15-02-2006 17:20:21 7.8 C 71 % 2.88 C
Sensor: Nr:Datum:Temp:Feuchte:Taupunkt:
Aussen-T/F 2551 15-02-2006 17:30:21 7.8 C 72 % 3.08 C
2552 15-02-2006 17:40:21 7.6 C 75 % 3.46 C
2553 15-02-2006 17:50:21 7.4 C 77 % 3.64 C
2554 15-02-2006 18:00:21 7.5 C 77 % 3.74 C
2555 15-02-2006 18:10:21 7.6 C 77 % 3.83 C
2556 15-02-2006 18:20:21 7.6 C 78 % 4.02 C
2557 15-02-2006 18:30:21 7.6 C 78 % 4.02 C
2558 15-02-2006 18:40:21 7.6 C 79 % 4.2 C
2559 15-02-2006 18:50:21 7.7 C 79 % 4.3 C
2560 15-02-2006 19:00:21 7.6 C 79 % 4.2 C
2561 15-02-2006 19:10:22 7.8 C 78 % 4.21 C
2562 15-02-2006 19:20:21 7.8 C 77 % 4.03 C
2563 15-02-2006 19:30:21 7.7 C 77 % 3.93 C
2564 15-02-2006 19:40:21 7.6 C 77 % 3.83 C
2565 15-02-2006 19:50:21 7.9 C 77 % 4.12 C
2566 15-02-2006 20:00:21 7.9 C 76 % 3.94 C
2567 15-02-2006 20:10:21 7.9 C 76 % 3.94 C
2568 15-02-2006 20:20:21 7.9 C 76 % 3.94 C
2569 15-02-2006 20:30:21 7.8 C 76 % 3.84 C
2570 15-02-2006 20:40:22 7.9 C 76 % 3.94 C
2571 15-02-2006 20:50:22 8.1 C 74 % 3.75 C
2572 15-02-2006 21:00:22 8.2 C 73 % 3.66 C
2573 15-02-2006 21:10:21 8.2 C 73 % 3.66 C
2574 15-02-2006 21:20:22 8.1 C 73 % 3.56 C
2575 15-02-2006 21:30:22 8.2 C 72 % 3.46 C
Sensor: Nr:Datum:Temp:Feuchte:Taupunkt:
Aussen-T/F 2576 15-02-2006 21:40:22 8 C 73 % 3.46 C
2577 15-02-2006 21:50:21 7.8 C 77 % 4.03 C
2578 15-02-2006 22:00:21 7.6 C 78 % 4.02 C
2579 15-02-2006 22:10:21 7.4 C 77 % 3.64 C
2580 15-02-2006 22:20:22 7.1 C 78 % 3.53 C
2581 15-02-2006 22:30:22 7.1 C 77 % 3.35 C
2582 15-02-2006 22:40:22 7 C 78 % 3.43 C
2583 15-02-2006 22:50:22 7 C 79 % 3.61 C
2584 15-02-2006 23:00:22 6.8 C 82 % 3.95 C
2585 15-02-2006 23:10:22 6.8 C 83 % 4.12 C
2586 15-02-2006 23:20:22 6.6 C 84 % 4.1 C
2587 15-02-2006 23:30:22 6.5 C 85 % 4.17 C
2588 15-02-2006 23:40:21 6.7 C 86 % 4.53 C
2589 15-02-2006 23:50:22 6.7 C 87 % 4.69 C
2590 16-02-2006 00:00:22 6.7 C 88 % 4.86 C
2591 16-02-2006 00:10:22 6.7 C 88 % 4.86 C
2592 16-02-2006 00:20:22 6.7 C 88 % 4.86 C
2593 16-02-2006 00:30:22 6.6 C 88 % 4.76 C
2594 16-02-2006 00:40:22 6.5 C 89 % 4.82 C
2595 16-02-2006 00:50:21 6.5 C 89 % 4.82 C
2596 16-02-2006 01:00:21 6.5 C 89 % 4.82 C
2597 16-02-2006 01:10:23 6.4 C 89 % 4.72 C
2598 16-02-2006 01:20:23 6.4 C 89 % 4.72 C
2599 16-02-2006 01:30:23 6.3 C 89 % 4.62 C
2600 16-02-2006 01:40:22 6.3 C 89 % 4.62 C
Sensor: Nr:Datum:Temp:Feuchte:Taupunkt:
Aussen-T/F 2601 16-02-2006 01:50:23 6.3 C 89 % 4.62 C
2602 16-02-2006 02:00:23 6.2 C 89 % 4.53 C
2603 16-02-2006 02:10:22 6.2 C 90 % 4.69 C
2604 16-02-2006 02:20:22 6.2 C 90 % 4.69 C
2605 16-02-2006 02:30:22 6.1 C 90 % 4.59 C
2606 16-02-2006 02:40:22 6.1 C 90 % 4.59 C
2607 16-02-2006 02:51:23 6.1 C 90 % 4.59 C
2608 16-02-2006 03:01:23 6.1 C 90 % 4.59 C
2609 16-02-2006 03:11:24 6.1 C 90 % 4.59 C
2610 16-02-2006 03:21:24 6.1 C 90 % 4.59 C
2611 16-02-2006 03:31:24 6.1 C 90 % 4.59 C
2612 16-02-2006 03:41:24 6 C 90 % 4.49 C
2613 16-02-2006 03:51:24 6 C 90 % 4.49 C
2614 16-02-2006 04:01:24 5.9 C 91 % 4.55 C
2615 16-02-2006 04:11:24 5.9 C 91 % 4.55 C
2616 16-02-2006 04:21:24 5.9 C 91 % 4.55 C
2617 16-02-2006 04:31:25 5.9 C 91 % 4.55 C
2618 16-02-2006 04:41:25 5.8 C 91 % 4.45 C
2619 16-02-2006 04:51:24 5.8 C 91 % 4.45 C
2620 16-02-2006 05:01:25 5.8 C 91 % 4.45 C
2621 16-02-2006 05:11:25 5.8 C 91 % 4.45 C
2622 16-02-2006 05:21:24 5.7 C 91 % 4.35 C
2623 16-02-2006 05:31:24 5.8 C 92 % 4.6 C
2624 16-02-2006 05:41:24 5.8 C 92 % 4.6 C
2625 16-02-2006 05:51:24 5.8 C 92 % 4.6 C
Sensor: Nr:Datum:Temp:Feuchte:Taupunkt:
Aussen-T/F 2626 16-02-2006 06:01:24 5.8 C 92 % 4.6 C
2627 16-02-2006 06:11:24 5.7 C 92 % 4.5 C
2628 16-02-2006 06:21:24 5.8 C 92 % 4.6 C
2629 16-02-2006 06:31:24 5.8 C 92 % 4.6 C
2630 16-02-2006 06:41:24 5.8 C 92 % 4.6 C
2631 16-02-2006 06:51:24 5.8 C 92 % 4.6 C
2632 16-02-2006 07:01:24 5.8 C 92 % 4.6 C
2633 16-02-2006 07:11:24 5.8 C 92 % 4.6 C
2634 16-02-2006 07:21:24 5.8 C 92 % 4.6 C
2635 16-02-2006 07:31:25 5.8 C 92 % 4.6 C
2636 16-02-2006 07:41:25 5.8 C 92 % 4.6 C
2637 16-02-2006 07:51:24 5.8 C 92 % 4.6 C
2638 16-02-2006 08:01:25 5.9 C 92 % 4.7 C
2639 16-02-2006 08:11:25 5.9 C 92 % 4.7 C
2640 16-02-2006 08:21:24 6 C 91 % 4.65 C
2641 16-02-2006 08:31:24 6.1 C 91 % 4.74 C
2642 16-02-2006 08:41:24 6.2 C 90 % 4.69 C
2643 16-02-2006 08:51:24 6.2 C 90 % 4.69 C
2644 16-02-2006 09:01:24 6.3 C 89 % 4.62 C
2645 16-02-2006 09:11:24 6.5 C 89 % 4.82 C
2646 16-02-2006 09:21:24 6.5 C 88 % 4.66 C
2647 16-02-2006 09:31:25 6.5 C 86 % 4.33 C
2648 16-02-2006 09:41:25 6.8 C 85 % 4.46 C
2649 16-02-2006 09:51:24 6.9 C 84 % 4.39 C
2650 16-02-2006 10:01:25 7.1 C 83 % 4.41 C
Sensor: Nr:Datum:Temp:Feuchte:Taupunkt:
Aussen-T/F 2651 16-02-2006 10:11:25 7.3 C 79 % 3.91 C
2652 16-02-2006 10:21:25 7.3 C 77 % 3.54 C
2653 16-02-2006 10:31:24 7.8 C 75 % 3.65 C
2654 16-02-2006 10:41:24 8 C 70 % 2.87 C
2655 16-02-2006 10:51:24 8.2 C 69 % 2.86 C
2656 16-02-2006 11:01:24 8.2 C 69 % 2.86 C
2657 16-02-2006 11:11:24 8.3 C 70 % 3.16 C
2658 16-02-2006 11:21:25 8.5 C 69 % 3.15 C
2659 16-02-2006 11:31:25 8.5 C 68 % 2.94 C
2660 16-02-2006 11:41:25 8.4 C 70 % 3.26 C
2661 16-02-2006 11:51:25 8.6 C 71 % 3.65 C
2662 16-02-2006 12:01:25 8.8 C 69 % 3.44 C
2663 16-02-2006 12:11:25 8.9 C 68 % 3.32 C
2664 16-02-2006 12:21:25 9.3 C 66 % 3.28 C
2665 16-02-2006 12:31:24 9.5 C 64 % 3.04 C
2666 16-02-2006 12:41:24 9.4 C 62 % 2.5 C
2667 16-02-2006 12:51:25 9.7 C 61 % 2.55 C
2668 16-02-2006 13:01:24 10 C 59 % 2.37 C
2669 16-02-2006 13:11:24 9.4 C 60 % 2.04 C
2670 16-02-2006 13:21:25 9.4 C 59 % 1.81 C
2671 16-02-2006 13:31:25 9.7 C 58 % 1.85 C
2672 16-02-2006 13:41:25 10.2 C 56 % 1.83 C
2673 16-02-2006 13:51:25 10.2 C 55 % 1.58 C
2674 16-02-2006 14:01:25 10 C 57 % 1.89 C
2675 16-02-2006 14:11:25 9.9 C 57 % 1.79 C
Sensor: Nr:Datum:Temp:Feuchte:Taupunkt:
Aussen-T/F 2676 16-02-2006 14:21:25 10.5 C 55 % 1.85 C
2677 16-02-2006 14:31:24 10.9 C 54 % 1.97 C
2678 16-02-2006 14:41:24 10.4 C 54 % 1.51 C
2679 16-02-2006 14:51:25 9.6 C 60 % 2.23 C
2680 16-02-2006 15:01:25 9.1 C 69 % 3.72 C
2681 16-02-2006 15:11:25 8.8 C 70 % 3.64 C
2682 16-02-2006 15:21:25 9.3 C 68 % 3.71 C
2683 16-02-2006 15:31:25 9.7 C 66 % 3.67 C
2684 16-02-2006 15:41:25 9.7 C 65 % 3.45 C
2685 16-02-2006 15:51:25 9.7 C 65 % 3.45 C
2686 16-02-2006 16:01:25 9.7 C 64 % 3.23 C
2687 16-02-2006 16:11:25 9.7 C 65 % 3.45 C
2688 16-02-2006 16:21:25 9.6 C 63 % 2.91 C
2689 16-02-2006 16:31:25 9.4 C 63 % 2.72 C
2690 16-02-2006 16:41:25 9.3 C 63 % 2.63 C
2691 16-02-2006 16:51:25 9.3 C 63 % 2.63 C
2692 16-02-2006 17:01:25 9.1 C 64 % 2.66 C
2693 16-02-2006 17:11:25 8.9 C 66 % 2.9 C
2694 16-02-2006 17:21:25 8.9 C 67 % 3.12 C
2695 16-02-2006 17:31:25 8.8 C 66 % 2.81 C
2696 16-02-2006 17:41:25 8.8 C 66 % 2.81 C
2697 16-02-2006 17:51:25 8.6 C 66 % 2.62 C
2698 16-02-2006 18:01:25 8.6 C 66 % 2.62 C
2699 16-02-2006 18:11:25 8.2 C 68 % 2.66 C
2700 16-02-2006 18:21:26 7.8 C 70 % 2.68 C
Sensor: Nr:Datum:Temp:Feuchte:Taupunkt:
Aussen-T/F 2701 16-02-2006 18:31:25 7.6 C 71 % 2.69 C
2702 16-02-2006 18:41:25 7.6 C 72 % 2.88 C
2703 16-02-2006 18:51:25 7.6 C 73 % 3.08 C
2704 16-02-2006 19:01:26 7.7 C 73 % 3.18 C
2705 16-02-2006 19:11:26 7.7 C 72 % 2.98 C
2706 16-02-2006 19:21:25 7.7 C 72 % 2.98 C
2707 16-02-2006 19:31:25 7.5 C 73 % 2.98 C
2708 16-02-2006 19:41:25 7.3 C 73 % 2.79 C
2709 16-02-2006 19:51:25 7.2 C 73 % 2.69 C
2710 16-02-2006 20:01:26 7.1 C 74 % 2.79 C
2711 16-02-2006 20:11:26 7.2 C 74 % 2.89 C
2712 16-02-2006 20:21:26 7.3 C 73 % 2.79 C
2713 16-02-2006 20:31:26 7.2 C 75 % 3.07 C
2714 16-02-2006 20:41:26 7 C 78 % 3.43 C
2715 16-02-2006 20:51:25 6.9 C 80 % 3.7 C
2716 16-02-2006 21:01:26 6.8 C 82 % 3.95 C
2717 16-02-2006 21:11:26 6.7 C 84 % 4.19 C
2718 16-02-2006 21:21:26 6.9 C 84 % 4.39 C
2719 16-02-2006 21:31:26 6.7 C 84 % 4.19 C
2720 16-02-2006 21:41:26 6.6 C 84 % 4.1 C
2721 16-02-2006 21:51:25 6.5 C 83 % 3.83 C
2722 16-02-2006 22:01:27 6.4 C 83 % 3.73 C
2723 16-02-2006 22:11:27 6.5 C 83 % 3.83 C
2724 16-02-2006 22:21:26 6.4 C 83 % 3.73 C
2725 16-02-2006 22:31:25 6.4 C 83 % 3.73 C
Sensor: Nr:Datum:Temp:Feuchte:Taupunkt:
Aussen-T/F 2726 16-02-2006 22:41:25 6.5 C 83 % 3.83 C
2727 16-02-2006 22:51:26 6.5 C 83 % 3.83 C
2728 16-02-2006 23:01:26 6.4 C 82 % 3.56 C
2729 16-02-2006 23:11:26 6 C 81 % 2.99 C
2730 16-02-2006 23:21:26 5.8 C 82 % 2.97 C
2731 16-02-2006 23:31:25 5.6 C 83 % 2.95 C
2732 16-02-2006 23:41:25 5.6 C 84 % 3.12 C
2733 16-02-2006 23:51:26 5.4 C 85 % 3.09 C
2734 17-02-2006 00:01:26 5.4 C 86 % 3.25 C
2735 17-02-2006 00:11:26 5.2 C 86 % 3.05 C
2736 17-02-2006 00:21:26 5.3 C 87 % 3.32 C
2737 17-02-2006 00:31:26 5.3 C 87 % 3.32 C
2738 17-02-2006 00:41:26 5.3 C 88 % 3.48 C
2739 17-02-2006 00:51:26 5 C 87 % 3.02 C
2740 17-02-2006 01:01:26 4.2 C 86 % 2.07 C
2741 17-02-2006 01:11:26 4.1 C 87 % 2.14 C
2742 17-02-2006 01:21:26 3.9 C 88 % 2.1 C
2743 17-02-2006 01:31:25 4 C 88 % 2.2 C
2744 17-02-2006 01:41:25 4.1 C 89 % 2.45 C
2745 17-02-2006 01:51:26 4.1 C 89 % 2.45 C
2746 17-02-2006 02:01:26 4.1 C 89 % 2.45 C
2747 17-02-2006 02:11:26 4 C 89 % 2.36 C
2748 17-02-2006 02:21:26 3.8 C 89 % 2.16 C
2749 17-02-2006 02:31:26 3.6 C 89 % 1.96 C
2750 17-02-2006 02:41:26 3.7 C 90 % 2.22 C
Sensor: Nr:Datum:Temp:Feuchte:Taupunkt:
Aussen-T/F 2751 17-02-2006 02:52:28 3.5 C 90 % 2.02 C
2752 17-02-2006 03:02:28 3.5 C 90 % 2.02 C
2753 17-02-2006 03:12:28 3.4 C 90 % 1.92 C
2754 17-02-2006 03:22:28 3.4 C 90 % 1.92 C
2755 17-02-2006 03:32:28 3.4 C 90 % 1.92 C
2756 17-02-2006 03:42:28 3.8 C 91 % 2.47 C
2757 17-02-2006 03:52:28 4.2 C 91 % 2.87 C
2758 17-02-2006 04:02:28 4.4 C 90 % 2.91 C
2759 17-02-2006 04:12:28 4.6 C 88 % 2.79 C
2760 17-02-2006 04:22:27 4.7 C 86 % 2.56 C
2761 17-02-2006 04:32:28 4.6 C 85 % 2.3 C
2762 17-02-2006 04:42:28 4.5 C 85 % 2.2 C
2763 17-02-2006 04:52:28 4.2 C 84 % 1.74 C
2764 17-02-2006 05:02:28 4.1 C 85 % 1.81 C
2765 17-02-2006 05:12:28 3.9 C 86 % 1.78 C
2766 17-02-2006 05:22:28 3.8 C 86 % 1.68 C
2767 17-02-2006 05:32:28 3.4 C 86 % 1.29 C
2768 17-02-2006 05:42:28 3.3 C 86 % 1.19 C
2769 17-02-2006 05:52:28 3.4 C 87 % 1.45 C
2770 17-02-2006 06:02:28 3.3 C 88 % 1.51 C
2771 17-02-2006 06:12:29 3.2 C 88 % 1.41 C
2772 17-02-2006 06:22:28 3.1 C 88 % 1.31 C
2773 17-02-2006 06:32:28 3.2 C 88 % 1.41 C
2774 17-02-2006 06:42:28 3.4 C 89 % 1.76 C
2775 17-02-2006 06:52:28 3.6 C 88 % 1.8 C
Sensor: Nr:Datum:Temp:Feuchte:Taupunkt:
Aussen-T/F 2776 17-02-2006 07:02:29 3.7 C 86 % 1.58 C
2777 17-02-2006 07:12:29 3.8 C 84 % 1.35 C
2778 17-02-2006 07:22:28 4 C 81 % 1.04 C
2779 17-02-2006 07:32:28 4 C 79 % 0.7 C
2780 17-02-2006 07:42:28 3.7 C 80 % 0.58 C
2781 17-02-2006 07:52:28 3.7 C 79 % 0.4 C
2782 17-02-2006 08:02:29 3.9 C 79 % 0.6 C
2783 17-02-2006 08:12:29 3.8 C 80 % 0.68 C
2784 17-02-2006 08:22:28 4.2 C 79 % 0.89 C
2785 17-02-2006 08:32:28 4.6 C 78 % 1.1 C
2786 17-02-2006 08:42:29 4.5 C 78 % 1.01 C
2787 17-02-2006 08:52:28 4.5 C 78 % 1.01 C
2788 17-02-2006 09:02:28 4.7 C 77 % 1.02 C
2789 17-02-2006 09:12:28 4.8 C 76 % 0.94 C
2790 17-02-2006 09:22:28 4.9 C 76 % 1.03 C
2791 17-02-2006 09:32:29 5.2 C 74 % 0.95 C
2792 17-02-2006 09:42:29 5.4 C 72 % 0.77 C
2793 17-02-2006 09:52:28 5.6 C 70 % 0.57 C
2794 17-02-2006 10:02:29 5.8 C 69 % 0.56 C
2795 17-02-2006 10:12:29 6 C 67 % 0.35 C
2796 17-02-2006 10:22:28 6.2 C 67 % 0.54 C
2797 17-02-2006 10:32:28 6.4 C 68 % 0.94 C
2798 17-02-2006 10:42:28 7 C 65 % 0.88 C
2799 17-02-2006 10:52:28 7.2 C 63 % 0.64 C
2800 17-02-2006 11:02:28 7.2 C 61 % 0.2 C
Sensor: Nr:Datum:Temp:Feuchte:Taupunkt:
Aussen-T/F 2801 17-02-2006 11:12:28 7.1 C 59 % -0.36 C
2802 17-02-2006 11:22:28 7.2 C 59 % -0.26 C
2803 17-02-2006 11:32:29 7.5 C 58 % -0.21 C
2804 17-02-2006 11:42:29 7.8 C 58 % 0.07 C
2805 17-02-2006 11:52:28 7.5 C 61 % 0.48 C
2806 17-02-2006 12:02:29 7.9 C 60 % 0.63 C
2807 17-02-2006 12:12:29 7.6 C 65 % 1.45 C
2808 17-02-2006 12:22:29 7.4 C 64 % 1.05 C
2809 17-02-2006 12:32:28 7.3 C 67 % 1.59 C
2810 17-02-2006 12:42:28 6.7 C 68 % 1.22 C
2811 17-02-2006 12:52:29 7.1 C 68 % 1.61 C
2812 17-02-2006 13:02:28 7.4 C 66 % 1.48 C
2813 17-02-2006 13:12:28 7.3 C 67 % 1.59 C
2814 17-02-2006 13:22:28 7.3 C 67 % 1.59 C
2815 17-02-2006 13:32:29 7.8 C 63 % 1.21 C
2816 17-02-2006 13:42:29 8.3 C 59 % 0.77 C
2817 17-02-2006 13:52:29 8.5 C 57 % 0.48 C
2818 17-02-2006 14:02:29 8.9 C 56 % 0.61 C
2819 17-02-2006 14:12:29 9.1 C 53 % 0.04 C
2820 17-02-2006 14:22:29 9 C 52 % -0.31 C
2821 17-02-2006 14:32:29 8.3 C 61 % 1.23 C
2822 17-02-2006 14:42:29 8 C 60 % 0.72 C
2823 17-02-2006 14:52:29 8.2 C 57 % 0.2 C
2824 17-02-2006 15:02:29 8.6 C 56 % 0.33 C
2825 17-02-2006 15:12:29 9 C 53 % -0.05 C
Sensor: Nr:Datum:Temp:Feuchte:Taupunkt:
Aussen-T/F 2826 17-02-2006 15:22:29 9.2 C 53 % 0.13 C
2827 17-02-2006 15:32:29 9 C 52 % -0.31 C
2828 17-02-2006 15:42:29 8.3 C 55 % -0.2 C
2829 17-02-2006 15:52:29 8.1 C 57 % 0.11 C
2830 17-02-2006 16:02:29 8.2 C 55 % -0.29 C
2831 17-02-2006 16:12:29 8.2 C 55 % -0.29 C
2832 17-02-2006 16:22:29 7.8 C 56 % -0.41 C
2833 17-02-2006 16:32:29 7.8 C 57 % -0.17 C
2834 17-02-2006 16:42:29 7.8 C 57 % -0.17 C
2835 17-02-2006 16:52:29 7.6 C 57 % -0.36 C
2836 17-02-2006 17:02:30 7.5 C 57 % -0.45 C
2837 17-02-2006 17:12:30 7.4 C 59 % -0.07 C
2838 17-02-2006 17:22:30 7.4 C 59 % -0.07 C
2839 17-02-2006 17:32:30 7.2 C 63 % 0.64 C
2840 17-02-2006 17:42:30 6.9 C 65 % 0.79 C
2841 17-02-2006 17:52:29 7 C 64 % 0.67 C
2842 17-02-2006 18:02:29 7.2 C 61 % 0.2 C
2843 17-02-2006 18:12:29 7.3 C 60 % 0.06 C
2844 17-02-2006 18:22:29 7.3 C 60 % 0.06 C
2845 17-02-2006 18:32:29 7.3 C 60 % 0.06 C
2846 17-02-2006 18:42:29 7.3 C 60 % 0.06 C
2847 17-02-2006 18:52:30 7.4 C 59 % -0.07 C
2848 17-02-2006 19:02:29 7.4 C 59 % -0.07 C
2849 17-02-2006 19:12:29 7.5 C 58 % -0.21 C
2850 17-02-2006 19:22:29 7.5 C 57 % -0.45 C
Sensor: Nr:Datum:Temp:Feuchte:Taupunkt:
Aussen-T/F 2851 17-02-2006 19:32:29 7.4 C 57 % -0.55 C
2852 17-02-2006 19:42:29 7.5 C 57 % -0.45 C
2853 17-02-2006 19:52:29 7.5 C 56 % -0.7 C
2854 17-02-2006 20:02:29 7.5 C 56 % -0.7 C
2855 17-02-2006 20:12:29 7.5 C 56 % -0.7 C
2856 17-02-2006 20:22:30 7.4 C 56 % -0.79 C
2857 17-02-2006 20:32:30 7.4 C 56 % -0.79 C
2858 17-02-2006 20:42:30 7.4 C 56 % -0.79 C
2859 17-02-2006 20:52:30 7.4 C 56 % -0.79 C
2860 17-02-2006 21:02:30 7.4 C 55 % -1.03 C
2861 17-02-2006 21:12:30 7.3 C 56 % -0.88 C
2862 17-02-2006 21:22:29 7.2 C 56 % -0.98 C
2863 17-02-2006 21:32:29 7.2 C 56 % -0.98 C
2864 17-02-2006 21:42:29 7.3 C 56 % -0.88 C
2865 17-02-2006 21:52:30 7.1 C 55 % -1.31 C
2866 17-02-2006 22:02:30 7.2 C 55 % -1.22 C
2867 17-02-2006 22:12:30 7.2 C 54 % -1.47 C
2868 17-02-2006 22:22:30 7.1 C 54 % -1.56 C
2869 17-02-2006 22:32:30 7.1 C 54 % -1.56 C
2870 17-02-2006 22:42:30 6.9 C 56 % -1.26 C
2871 17-02-2006 22:52:30 6.6 C 58 % -1.06 C
2872 17-02-2006 23:02:29 6.4 C 59 % -1.01 C
2873 17-02-2006 23:12:29 6.2 C 60 % -0.97 C
2874 17-02-2006 23:22:30 6.4 C 60 % -0.78 C
2875 17-02-2006 23:32:30 6.5 C 60 % -0.69 C
Sensor: Nr:Datum:Temp:Feuchte:Taupunkt:
Aussen-T/F 2876 17-02-2006 23:42:30 6.5 C 60 % -0.69 C
2877 17-02-2006 23:52:30 6.2 C 61 % -0.75 C
2878 18-02-2006 00:02:30 6.1 C 61 % -0.84 C
2879 18-02-2006 00:12:30 6.1 C 61 % -0.84 C
2880 18-02-2006 00:22:30 6.2 C 61 % -0.75 C
2881 18-02-2006 00:32:30 6.3 C 60 % -0.88 C
2882 18-02-2006 00:42:30 6.4 C 60 % -0.78 C
2883 18-02-2006 00:52:30 6.6 C 59 % -0.83 C
2884 18-02-2006 01:02:30 6.5 C 59 % -0.92 C
2885 18-02-2006 01:12:30 6.4 C 59 % -1.01 C
2886 18-02-2006 01:22:30 6.5 C 59 % -0.92 C
2887 18-02-2006 01:32:30 6.5 C 58 % -1.15 C
2888 18-02-2006 01:42:30 6.5 C 58 % -1.15 C
2889 18-02-2006 01:52:30 6.4 C 59 % -1.01 C
2890 18-02-2006 02:02:30 6.2 C 60 % -0.97 C
2891 18-02-2006 02:12:30 6.1 C 61 % -0.84 C
2892 18-02-2006 02:22:30 6 C 61 % -0.94 C
2893 18-02-2006 02:32:30 6 C 61 % -0.94 C
2894 18-02-2006 02:42:30 5.7 C 64 % -0.56 C
2895 18-02-2006 02:53:31 5.6 C 65 % -0.45 C
2896 18-02-2006 03:03:31 5.6 C 64 % -0.66 C
2897 18-02-2006 03:13:31 5.4 C 64 % -0.85 C
2898 18-02-2006 03:23:31 5.2 C 63 % -1.25 C
2899 18-02-2006 03:33:31 4.9 C 65 % -1.11 C
2900 18-02-2006 03:43:31 4.9 C 69 % -0.3 C
Sensor: Nr:Datum:Temp:Feuchte:Taupunkt:
Aussen-T/F 2901 18-02-2006 03:53:31 5 C 69 % -0.2 C
2902 18-02-2006 04:03:31 4.8 C 72 % 0.19 C
2903 18-02-2006 04:13:31 4.6 C 73 % 0.19 C
2904 18-02-2006 04:23:31 4.5 C 74 % 0.28 C
2905 18-02-2006 04:33:31 4 C 74 % -0.2 C
2906 18-02-2006 04:43:31 3.9 C 76 % 0.07 C
2907 18-02-2006 04:53:31 3.9 C 77 % 0.25 C
2908 18-02-2006 05:03:31 4.1 C 77 % 0.44 C
2909 18-02-2006 05:13:32 4.2 C 77 % 0.54 C
2910 18-02-2006 05:23:31 4.2 C 76 % 0.36 C
2911 18-02-2006 05:33:31 4.3 C 76 % 0.45 C
2912 18-02-2006 05:43:31 4.2 C 75 % 0.17 C
2913 18-02-2006 05:53:31 4.1 C 75 % 0.08 C
2914 18-02-2006 06:03:31 4.1 C 75 % 0.08 C
2915 18-02-2006 06:13:31 4.3 C 74 % 0.09 C
2916 18-02-2006 06:23:32 4.4 C 73 % 0 C
2917 18-02-2006 06:33:32 4.5 C 72 % -0.1 C
2918 18-02-2006 06:43:32 4.6 C 71 % -0.19 C
2919 18-02-2006 06:53:32 4.7 C 70 % -0.29 C
2920 18-02-2006 07:03:32 4.8 C 70 % -0.2 C
2921 18-02-2006 07:13:33 4.8 C 70 % -0.2 C
2922 18-02-2006 07:23:31 4.7 C 71 % -0.1 C
2923 18-02-2006 07:33:31 4.6 C 71 % -0.19 C
2924 18-02-2006 07:43:31 4.6 C 72 % 0 C
2925 18-02-2006 07:53:31 4.6 C 72 % 0 C
Sensor: Nr:Datum:Temp:Feuchte:Taupunkt:
Aussen-T/F 2926 18-02-2006 08:03:32 4.6 C 72 % 0 C
2927 18-02-2006 08:13:32 4.8 C 73 % 0.38 C
2928 18-02-2006 08:23:32 4.8 C 73 % 0.38 C
2929 18-02-2006 08:33:32 4.9 C 73 % 0.48 C
2930 18-02-2006 08:43:32 5.1 C 72 % 0.48 C
2931 18-02-2006 08:53:32 5.1 C 72 % 0.48 C
2932 18-02-2006 09:03:32 4.8 C 76 % 0.94 C
2933 18-02-2006 09:13:32 4.5 C 79 % 1.18 C
2934 18-02-2006 09:23:31 4.5 C 81 % 1.53 C
2935 18-02-2006 09:33:32 4.4 C 82 % 1.6 C
2936 18-02-2006 09:43:32 4.3 C 84 % 1.84 C
2937 18-02-2006 09:53:32 4.3 C 84 % 1.84 C
2938 18-02-2006 10:03:33 4.2 C 85 % 1.91 C
2939 18-02-2006 10:13:33 4.2 C 85 % 1.91 C
2940 18-02-2006 10:23:32 4.2 C 85 % 1.91 C
2941 18-02-2006 10:33:31 4.5 C 85 % 2.2 C
2942 18-02-2006 10:43:31 5 C 83 % 2.36 C
2943 18-02-2006 10:53:32 5.1 C 81 % 2.12 C
2944 18-02-2006 11:03:32 5.7 C 81 % 2.7 C
2945 18-02-2006 11:13:32 5.9 C 77 % 2.19 C
2946 18-02-2006 11:23:32 6.2 C 73 % 1.73 C
2947 18-02-2006 11:33:32 6.3 C 74 % 2.02 C
2948 18-02-2006 11:43:32 6.2 C 73 % 1.73 C
2949 18-02-2006 11:53:32 6.6 C 73 % 2.12 C
2950 18-02-2006 12:03:32 6.8 C 72 % 2.12 C
Sensor: Nr:Datum:Temp:Feuchte:Taupunkt:
Aussen-T/F 2951 18-02-2006 12:13:32 7 C 70 % 1.91 C
2952 18-02-2006 12:23:32 7.3 C 69 % 2 C
2953 18-02-2006 12:33:32 7.6 C 66 % 1.67 C
2954 18-02-2006 12:43:32 7.8 C 67 % 2.07 C
2955 18-02-2006 12:53:32 7.8 C 67 % 2.07 C
2956 18-02-2006 13:03:32 7.5 C 70 % 2.39 C
2957 18-02-2006 13:13:32 7.3 C 73 % 2.79 C
2958 18-02-2006 13:23:32 7.1 C 74 % 2.79 C
2959 18-02-2006 13:33:32 7 C 75 % 2.88 C
2960 18-02-2006 13:43:32 6.8 C 77 % 3.06 C
2961 18-02-2006 13:53:33 6.8 C 78 % 3.24 C
2962 18-02-2006 14:03:33 7 C 77 % 3.25 C
2963 18-02-2006 14:13:33 6.5 C 76 % 2.58 C
2964 18-02-2006 14:23:32 6.8 C 77 % 3.06 C
2965 18-02-2006 14:33:33 7 C 75 % 2.88 C
2966 18-02-2006 14:43:33 6.7 C 77 % 2.96 C
2967 18-02-2006 14:53:32 6.5 C 80 % 3.31 C
2968 18-02-2006 15:03:32 6.6 C 81 % 3.58 C
2969 18-02-2006 15:13:33 6.7 C 80 % 3.5 C
2970 18-02-2006 15:23:32 6.7 C 80 % 3.5 C
2971 18-02-2006 15:33:32 7 C 79 % 3.61 C
2972 18-02-2006 15:43:32 8 C 74 % 3.66 C
2973 18-02-2006 15:53:33 8.1 C 75 % 3.94 C
2974 18-02-2006 16:03:32 7.8 C 71 % 2.88 C
2975 18-02-2006 16:13:32 7.7 C 69 % 2.38 C
Sensor: Nr:Datum:Temp:Feuchte:Taupunkt:
Aussen-T/F 2976 18-02-2006 16:23:32 7.8 C 71 % 2.88 C
2977 18-02-2006 16:33:32 8.1 C 67 % 2.35 C
2978 18-02-2006 16:43:32 8.6 C 64 % 2.19 C
2979 18-02-2006 16:53:33 8.7 C 61 % 1.61 C
2980 18-02-2006 17:03:32 8.3 C 63 % 1.68 C
2981 18-02-2006 17:13:32 7.7 C 65 % 1.55 C
2982 18-02-2006 17:23:32 7.2 C 68 % 1.7 C
2983 18-02-2006 17:33:33 7 C 68 % 1.51 C
2984 18-02-2006 17:43:33 6.9 C 68 % 1.41 C
2985 18-02-2006 17:53:33 6.3 C 69 % 1.04 C
2986 18-02-2006 18:03:33 6 C 71 % 1.15 C
2987 18-02-2006 18:13:33 5.8 C 74 % 1.53 C
2988 18-02-2006 18:23:33 5.6 C 76 % 1.71 C
2989 18-02-2006 18:33:33 5.7 C 75 % 1.62 C
2990 18-02-2006 18:43:33 5.7 C 75 % 1.62 C
2991 18-02-2006 18:53:32 5.7 C 74 % 1.44 C
2992 18-02-2006 19:03:33 5.8 C 73 % 1.34 C
2993 18-02-2006 19:13:33 5.9 C 71 % 1.06 C
2994 18-02-2006 19:23:33 6 C 68 % 0.55 C
2995 18-02-2006 19:33:32 6.1 C 67 % 0.44 C
2996 18-02-2006 19:43:32 6.2 C 66 % 0.33 C
2997 18-02-2006 19:53:32 6.2 C 67 % 0.54 C
2998 18-02-2006 20:03:33 6.2 C 66 % 0.33 C
2999 18-02-2006 20:13:33 6.1 C 67 % 0.44 C
3000 18-02-2006 20:23:33 5.9 C 70 % 0.86 C
Sensor: Nr:Datum:Temp:Feuchte:Taupunkt:
Aussen-T/F 3001 18-02-2006 20:33:33 5.8 C 72 % 1.15 C
3002 18-02-2006 20:43:33 5.8 C 72 % 1.15 C
3003 18-02-2006 20:53:33 5.7 C 73 % 1.25 C
3004 18-02-2006 21:03:33 5.6 C 73 % 1.15 C
3005 18-02-2006 21:13:33 5.7 C 72 % 1.06 C
3006 18-02-2006 21:23:33 5.8 C 71 % 0.96 C
3007 18-02-2006 21:33:33 5.8 C 71 % 0.96 C
3008 18-02-2006 21:43:33 5.8 C 70 % 0.76 C
3009 18-02-2006 21:53:33 5.6 C 70 % 0.57 C
3010 18-02-2006 22:03:33 5.6 C 69 % 0.37 C
3011 18-02-2006 22:13:33 5.6 C 69 % 0.37 C
3012 18-02-2006 22:23:33 5.6 C 69 % 0.37 C
3013 18-02-2006 22:33:33 5.5 C 70 % 0.48 C
3014 18-02-2006 22:43:33 5.5 C 70 % 0.48 C
3015 18-02-2006 22:53:33 5.4 C 70 % 0.38 C
3016 18-02-2006 23:03:33 5.4 C 70 % 0.38 C
3017 18-02-2006 23:13:33 5.4 C 70 % 0.38 C
3018 18-02-2006 23:23:33 5.4 C 69 % 0.18 C
3019 18-02-2006 23:33:33 5.4 C 69 % 0.18 C
3020 18-02-2006 23:43:33 5.3 C 69 % 0.09 C
3021 18-02-2006 23:53:33 5.3 C 70 % 0.28 C

Legende:
   Min
   Max


Maximal/Minimal-Werte vom 29.01.2006 - 18.02.2006

Sensor Min Max Avg
Temp
(Aussen-T/F)
-10.9 °C
29-01-2006  08:03:13
10.9 °C
16-02-2006  14:31:24
0.77 °C
Feuchte
(Aussen-T/F)
26 %
12-02-2006  14:27:09
92 %
06-02-2006  08:31:44
74.44 %
Taupunkt
(Aussen-T/F)
-13.94 C
02-02-2006  07:57:29
4.86 C
16-02-2006  00:00:22
-3.44 C

Die Daten stammen von einer Davis Vantage Pro 2 Wetter-Station und werden unter Linux mit der Software wview2wettercgi und aufbereitet. Alle Angaben erfolgen ohne Gewähr für ihre Vollständigkeit oder Richtigkeit.
Kontakt: Rainer Krienke krienke@uni-koblenz.de . Meine Webseiten an der Uni Koblenz oder privat.
Version: $Revision: 0.78 $